PWSweather.com
Personal Weather Stations
Station Observations
OPENSRS
Liberty Village, Toronto, ON M6K 3M1

Liberty VillageToronto, ON M6K 3M1

Lat: 43.63831, Lon: -79.42566

Elevation: 303

Station Type: Davis Instruments Vantage Pro 2

Latest ConditionsUpdated 11:19:06 PM EST Tuesday, Jan 27, 2015
Currently Today's Max Today's Min Today's Average
Temperature 17.1°F-8.3°C 24.0°F-4.4°C 12.9°F-10.6°C 17.1°F-8.3°C
Dew Point 5.3°F-14.8°C 9.5°F-12.5°C -0.1°F-17.8°C 5.7°F-14.6°C
Winds 5.0 mph N8.0 kmh N 16.0 mph NE25.7 kmh NE - 5.2 mph 8.4 kmh
Wind Gusts 12.0 mph19.3 kmh 16.0 mph25.7 kmh - -
Humidity 59% 83% 37% 62%
Pressure 30.18 in1022.0 mb 30.18 in1022.0 mb 30.03 in1016.9 mb -
Hour Temp Dew Point Humidity Winds Wind Gusts Pressure Precip Precip Rate Daily Precip Total
11:19 PM 17.1°F-8.3°C 5.3°F-14.8°C 59% 5.0 mph N8.0 kmh N 12.0 mph19.3 kmh 30.18 in1022.0 mb 0.00 in0.0 mm 0.00 in/hr0.0 mm/hr 0.00 in0.0 mm
11:18 PM 17.1°F-8.3°C 5.3°F-14.8°C 59% 7.0 mph N11.3 kmh N 12.0 mph19.3 kmh 30.18 in1022.0 mb 0.00 in0.0 mm 0.00 in/hr0.0 mm/hr 0.00 in0.0 mm
11:15 PM 17.1°F-8.3°C 5.3°F-14.8°C 59% 4.0 mph N6.4 kmh N 12.0 mph19.3 kmh 30.17 in1021.7 mb 0.00 in0.0 mm 0.00 in/hr0.0 mm/hr 0.00 in0.0 mm
11:14 PM 17.1°F-8.3°C 5.6°F-14.7°C 60% 4.0 mph N6.4 kmh N 12.0 mph19.3 kmh 30.17 in1021.7 mb 0.00 in0.0 mm 0.00 in/hr0.0 mm/hr 0.00 in0.0 mm
11:13 PM 17.1°F-8.3°C 5.6°F-14.7°C 60% 6.0 mph N9.7 kmh N 12.0 mph19.3 kmh 30.18 in1022.0 mb 0.00 in0.0 mm 0.00 in/hr0.0 mm/hr 0.00 in0.0 mm
11:10 PM 17.1°F-8.3°C 5.6°F-14.7°C 60% 9.0 mph N14.5 kmh N 12.0 mph19.3 kmh 30.18 in1022.0 mb 0.00 in0.0 mm 0.00 in/hr0.0 mm/hr 0.00 in0.0 mm
11:09 PM 17.0°F-8.3°C 5.5°F-14.7°C 60% 3.0 mph NNW4.8 kmh NNW 12.0 mph19.3 kmh 30.18 in1022.0 mb 0.00 in0.0 mm 0.00 in/hr0.0 mm/hr 0.00 in0.0 mm
11:08 PM 17.0°F-8.3°C 5.5°F-14.7°C 60% 5.0 mph NNW8.0 kmh NNW 12.0 mph19.3 kmh 30.18 in1022.0 mb 0.00 in0.0 mm 0.00 in/hr0.0 mm/hr 0.00 in0.0 mm
11:05 PM 17.0°F-8.3°C 5.9°F-14.5°C 61% 4.0 mph N6.4 kmh N 9.0 mph14.5 kmh 30.17 in1021.7 mb 0.00 in0.0 mm 0.00 in/hr0.0 mm/hr 0.00 in0.0 mm
11:04 PM 17.0°F-8.3°C 5.9°F-14.5°C 61% 2.0 mph NNW3.2 kmh NNW 9.0 mph14.5 kmh 30.17 in1021.7 mb 0.00 in0.0 mm 0.00 in/hr0.0 mm/hr 0.00 in0.0 mm
11:03 PM 17.0°F-8.3°C 6.2°F-14.3°C 62% 5.0 mph N8.0 kmh N 9.0 mph14.5 kmh 30.17 in1021.7 mb 0.00 in0.0 mm 0.00 in/hr0.0 mm/hr 0.00 in0.0 mm
11:00 PM 16.9°F-8.4°C 6.2°F-14.3°C 62% 3.0 mph N4.8 kmh N 5.0 mph8.0 kmh 30.17 in1021.7 mb 0.00 in0.0 mm 0.00 in/hr0.0 mm/hr 0.00 in0.0 mm
10:59 PM 16.9°F-8.4°C 6.2°F-14.3°C 62% 3.0 mph N4.8 kmh N 14.0 mph22.5 kmh 30.17 in1021.7 mb 0.00 in0.0 mm 0.00 in/hr0.0 mm/hr 0.00 in0.0 mm
10:58 PM 16.8°F-8.4°C 6.1°F-14.4°C 62% 3.0 mph N4.8 kmh N 14.0 mph22.5 kmh 30.17 in1021.7 mb 0.00 in0.0 mm 0.00 in/hr0.0 mm/hr 0.00 in0.0 mm
10:55 PM 16.8°F-8.4°C 6.1°F-14.4°C 62% 4.0 mph NNW6.4 kmh NNW 14.0 mph22.5 kmh 30.17 in1021.7 mb 0.00 in0.0 mm 0.00 in/hr0.0 mm/hr 0.00 in0.0 mm
10:54 PM 16.8°F-8.4°C 6.4°F-14.2°C 63% 5.0 mph NNW8.0 kmh NNW 14.0 mph22.5 kmh 30.17 in1021.7 mb 0.00 in0.0 mm 0.00 in/hr0.0 mm/hr 0.00 in0.0 mm
10:53 PM 16.7°F-8.5°C 6.3°F-14.3°C 63% 3.0 mph N4.8 kmh N 14.0 mph22.5 kmh 30.17 in1021.7 mb 0.00 in0.0 mm 0.00 in/hr0.0 mm/hr 0.00 in0.0 mm
10:50 PM 16.7°F-8.5°C 6.3°F-14.3°C 63% 7.0 mph N11.3 kmh N 14.0 mph22.5 kmh 30.17 in1021.7 mb 0.00 in0.0 mm 0.00 in/hr0.0 mm/hr 0.00 in0.0 mm
10:49 PM 16.7°F-8.5°C 6.3°F-14.3°C 63% 5.0 mph N8.0 kmh N 14.0 mph22.5 kmh 30.17 in1021.7 mb 0.00 in0.0 mm 0.00 in/hr0.0 mm/hr 0.00 in0.0 mm
10:48 PM 16.7°F-8.5°C 6.3°F-14.3°C 63% 7.0 mph N11.3 kmh N 14.0 mph22.5 kmh 30.17 in1021.7 mb 0.00 in0.0 mm 0.00 in/hr0.0 mm/hr 0.00 in0.0 mm
10:45 PM 16.7°F-8.5°C 6.3°F-14.3°C 63% 4.0 mph N6.4 kmh N 14.0 mph22.5 kmh 30.17 in1021.7 mb 0.00 in0.0 mm 0.00 in/hr0.0 mm/hr 0.00 in0.0 mm
10:44 PM 16.7°F-8.5°C 6.3°F-14.3°C 63% 2.0 mph N3.2 kmh N 14.0 mph22.5 kmh 30.17 in1021.7 mb 0.00 in0.0 mm 0.00 in/hr0.0 mm/hr 0.00 in0.0 mm
10:43 PM 16.6°F-8.6°C 6.2°F-14.3°C 63% 7.0 mph N11.3 kmh N 14.0 mph22.5 kmh 30.17 in1021.7 mb 0.00 in0.0 mm 0.00 in/hr0.0 mm/hr 0.00 in0.0 mm
10:40 PM 16.7°F-8.5°C 6.3°F-14.3°C 63% 8.0 mph N12.9 kmh N 14.0 mph22.5 kmh 30.17 in1021.7 mb 0.00 in0.0 mm 0.00 in/hr0.0 mm/hr 0.00 in0.0 mm
10:39 PM 16.6°F-8.6°C 6.2°F-14.3°C 63% 7.0 mph N11.3 kmh N 14.0 mph22.5 kmh 30.17 in1021.7 mb 0.00 in0.0 mm 0.00 in/hr0.0 mm/hr 0.00 in0.0 mm
10:38 PM 16.6°F-8.6°C 6.2°F-14.3°C 63% 8.0 mph N12.9 kmh N 14.0 mph22.5 kmh 30.17 in1021.7 mb 0.00 in0.0 mm 0.00 in/hr0.0 mm/hr 0.00 in0.0 mm
10:35 PM 16.7°F-8.5°C 6.3°F-14.3°C 63% 6.0 mph N9.7 kmh N 14.0 mph22.5 kmh 30.17 in1021.7 mb 0.00 in0.0 mm 0.00 in/hr0.0 mm/hr 0.00 in0.0 mm
10:34 PM 16.7°F-8.5°C 6.3°F-14.3°C 63% 4.0 mph N6.4 kmh N 14.0 mph22.5 kmh 30.17 in1021.7 mb 0.00 in0.0 mm 0.00 in/hr0.0 mm/hr 0.00 in0.0 mm
10:33 PM 16.7°F-8.5°C 6.3°F-14.3°C 63% 2.0 mph N3.2 kmh N 14.0 mph22.5 kmh 30.17 in1021.7 mb 0.00 in0.0 mm 0.00 in/hr0.0 mm/hr 0.00 in0.0 mm
10:30 PM 16.7°F-8.5°C 6.3°F-14.3°C 63% 4.0 mph N6.4 kmh N 14.0 mph22.5 kmh 30.17 in1021.7 mb 0.00 in0.0 mm 0.00 in/hr0.0 mm/hr 0.00 in0.0 mm
10:29 PM 16.8°F-8.4°C 6.1°F-14.4°C 62% 3.0 mph N4.8 kmh N 14.0 mph22.5 kmh 30.17 in1021.7 mb 0.00 in0.0 mm 0.00 in/hr0.0 mm/hr 0.00 in0.0 mm
10:28 PM 16.8°F-8.4°C 6.1°F-14.4°C 62% Calm Calm 14.0 mph22.5 kmh 30.17 in1021.7 mb 0.00 in0.0 mm 0.00 in/hr0.0 mm/hr 0.00 in0.0 mm
10:25 PM 16.9°F-8.4°C 6.2°F-14.3°C 62% 9.0 mph N14.5 kmh N 14.0 mph22.5 kmh 30.17 in1021.7 mb 0.00 in0.0 mm 0.00 in/hr0.0 mm/hr 0.00 in0.0 mm
10:24 PM 16.9°F-8.4°C 6.2°F-14.3°C 62% 5.0 mph N8.0 kmh N 14.0 mph22.5 kmh 30.17 in1021.7 mb 0.00 in0.0 mm 0.00 in/hr0.0 mm/hr 0.00 in0.0 mm
10:23 PM 16.9°F-8.4°C 6.2°F-14.3°C 62% 5.0 mph NNW8.0 kmh NNW 14.0 mph22.5 kmh 30.17 in1021.7 mb 0.00 in0.0 mm 0.00 in/hr0.0 mm/hr 0.00 in0.0 mm
10:20 PM 17.0°F-8.3°C 6.2°F-14.3°C 62% 4.0 mph N6.4 kmh N 14.0 mph22.5 kmh 30.17 in1021.7 mb 0.00 in0.0 mm 0.00 in/hr0.0 mm/hr 0.00 in0.0 mm
10:19 PM 17.0°F-8.3°C 6.2°F-14.3°C 62% 5.0 mph N8.0 kmh N 14.0 mph22.5 kmh 30.17 in1021.7 mb 0.00 in0.0 mm 0.00 in/hr0.0 mm/hr 0.00 in0.0 mm
10:18 PM 17.0°F-8.3°C 6.2°F-14.3°C 62% 7.0 mph N11.3 kmh N 14.0 mph22.5 kmh 30.17 in1021.7 mb 0.00 in0.0 mm 0.00 in/hr0.0 mm/hr 0.00 in0.0 mm
10:15 PM 17.1°F-8.3°C 6.3°F-14.3°C 62% 9.0 mph N14.5 kmh N 14.0 mph22.5 kmh 30.17 in1021.7 mb 0.00 in0.0 mm 0.00 in/hr0.0 mm/hr 0.00 in0.0 mm
10:14 PM 17.1°F-8.3°C 6.3°F-14.3°C 62% 5.0 mph N8.0 kmh N 14.0 mph22.5 kmh 30.17 in1021.7 mb 0.00 in0.0 mm 0.00 in/hr0.0 mm/hr 0.00 in0.0 mm
10:13 PM 17.1°F-8.3°C 6.3°F-14.3°C 62% 6.0 mph NNW9.7 kmh NNW 14.0 mph22.5 kmh 30.17 in1021.7 mb 0.00 in0.0 mm 0.00 in/hr0.0 mm/hr 0.00 in0.0 mm
10:10 PM 17.1°F-8.3°C 6.0°F-14.4°C 61% 4.0 mph NNW6.4 kmh NNW 14.0 mph22.5 kmh 30.17 in1021.7 mb 0.00 in0.0 mm 0.00 in/hr0.0 mm/hr 0.00 in0.0 mm
10:09 PM 17.1°F-8.3°C 6.0°F-14.4°C 61% 4.0 mph NNW6.4 kmh NNW 14.0 mph22.5 kmh 30.17 in1021.7 mb 0.00 in0.0 mm 0.00 in/hr0.0 mm/hr 0.00 in0.0 mm
10:08 PM 17.1°F-8.3°C 6.3°F-14.3°C 62% 9.0 mph NNW14.5 kmh NNW 14.0 mph22.5 kmh 30.17 in1021.7 mb 0.00 in0.0 mm 0.00 in/hr0.0 mm/hr 0.00 in0.0 mm
10:05 PM 17.1°F-8.3°C 6.0°F-14.4°C 61% 5.0 mph N8.0 kmh N 10.0 mph16.1 kmh 30.17 in1021.7 mb 0.00 in0.0 mm 0.00 in/hr0.0 mm/hr 0.00 in0.0 mm
10:04 PM 17.2°F-8.2°C 6.1°F-14.4°C 61% 4.0 mph NNW6.4 kmh NNW 10.0 mph16.1 kmh 30.17 in1021.7 mb 0.00 in0.0 mm 0.00 in/hr0.0 mm/hr 0.00 in0.0 mm
10:03 PM 17.2°F-8.2°C 6.1°F-14.4°C 61% 8.0 mph NNW12.9 kmh NNW 10.0 mph16.1 kmh 30.17 in1021.7 mb 0.00 in0.0 mm 0.00 in/hr0.0 mm/hr 0.00 in0.0 mm
10:00 PM 17.3°F-8.2°C 6.2°F-14.3°C 61% 8.0 mph N12.9 kmh N 8.0 mph12.9 kmh 30.17 in1021.7 mb 0.00 in0.0 mm 0.00 in/hr0.0 mm/hr 0.00 in0.0 mm
09:59 PM 17.3°F-8.2°C 6.2°F-14.3°C 61% 1.0 mph N1.6 kmh N 14.0 mph22.5 kmh 30.17 in1021.7 mb 0.00 in0.0 mm 0.00 in/hr0.0 mm/hr 0.00 in0.0 mm
09:58 PM 17.4°F-8.1°C 6.3°F-14.3°C 61% 8.0 mph N12.9 kmh N 14.0 mph22.5 kmh 30.17 in1021.7 mb 0.00 in0.0 mm 0.00 in/hr0.0 mm/hr 0.00 in0.0 mm
09:55 PM 17.4°F-8.1°C 5.9°F-14.5°C 60% 3.0 mph NNE4.8 kmh NNE 14.0 mph22.5 kmh 30.17 in1021.7 mb 0.00 in0.0 mm 0.00 in/hr0.0 mm/hr 0.00 in0.0 mm
09:54 PM 17.4°F-8.1°C 5.9°F-14.5°C 60% 6.0 mph N9.7 kmh N 14.0 mph22.5 kmh 30.17 in1021.7 mb 0.00 in0.0 mm 0.00 in/hr0.0 mm/hr 0.00 in0.0 mm
09:53 PM 17.4°F-8.1°C 5.9°F-14.5°C 60% 5.0 mph NNW8.0 kmh NNW 14.0 mph22.5 kmh 30.17 in1021.7 mb 0.00 in0.0 mm 0.00 in/hr0.0 mm/hr 0.00 in0.0 mm
09:50 PM 17.4°F-8.1°C 5.9°F-14.5°C 60% 7.0 mph NNW11.3 kmh NNW 14.0 mph22.5 kmh 30.17 in1021.7 mb 0.00 in0.0 mm 0.00 in/hr0.0 mm/hr 0.00 in0.0 mm
09:49 PM 17.4°F-8.1°C 5.9°F-14.5°C 60% 6.0 mph NNW9.7 kmh NNW 14.0 mph22.5 kmh 30.17 in1021.7 mb 0.00 in0.0 mm 0.00 in/hr0.0 mm/hr 0.00 in0.0 mm
09:48 PM 17.4°F-8.1°C 5.9°F-14.5°C 60% 4.0 mph NNW6.4 kmh NNW 14.0 mph22.5 kmh 30.17 in1021.7 mb 0.00 in0.0 mm 0.00 in/hr0.0 mm/hr 0.00 in0.0 mm
09:45 PM 17.3°F-8.2°C 5.8°F-14.6°C 60% 9.0 mph NNW14.5 kmh NNW 14.0 mph22.5 kmh 30.17 in1021.7 mb 0.00 in0.0 mm 0.00 in/hr0.0 mm/hr 0.00 in0.0 mm
09:44 PM 17.4°F-8.1°C 5.9°F-14.5°C 60% 6.0 mph NNW9.7 kmh NNW 14.0 mph22.5 kmh 30.17 in1021.7 mb 0.00 in0.0 mm 0.00 in/hr0.0 mm/hr 0.00 in0.0 mm
09:43 PM 17.3°F-8.2°C 5.8°F-14.6°C 60% 9.0 mph NNW14.5 kmh NNW 14.0 mph22.5 kmh 30.17 in1021.7 mb 0.00 in0.0 mm 0.00 in/hr0.0 mm/hr 0.00 in0.0 mm
09:40 PM 17.4°F-8.1°C 5.9°F-14.5°C 60% 6.0 mph NNW9.7 kmh NNW 14.0 mph22.5 kmh 30.17 in1021.7 mb 0.00 in0.0 mm 0.00 in/hr0.0 mm/hr 0.00 in0.0 mm
09:39 PM 17.4°F-8.1°C 5.9°F-14.5°C 60% 9.0 mph NNW14.5 kmh NNW 14.0 mph22.5 kmh 30.17 in1021.7 mb 0.00 in0.0 mm 0.00 in/hr0.0 mm/hr 0.00 in0.0 mm
09:38 PM 17.4°F-8.1°C 5.9°F-14.5°C 60% 13.0 mph N20.9 kmh N 14.0 mph22.5 kmh 30.17 in1021.7 mb 0.00 in0.0 mm 0.00 in/hr0.0 mm/hr 0.00 in0.0 mm
09:35 PM 17.3°F-8.2°C 5.8°F-14.6°C 60% 4.0 mph N6.4 kmh N 14.0 mph22.5 kmh 30.17 in1021.7 mb 0.00 in0.0 mm 0.00 in/hr0.0 mm/hr 0.00 in0.0 mm
09:34 PM 17.4°F-8.1°C 5.5°F-14.7°C 59% 3.0 mph N4.8 kmh N 14.0 mph22.5 kmh 30.17 in1021.7 mb 0.00 in0.0 mm 0.00 in/hr0.0 mm/hr 0.00 in0.0 mm
09:33 PM 17.4°F-8.1°C 5.9°F-14.5°C 60% 8.0 mph NNW12.9 kmh NNW 14.0 mph22.5 kmh 30.17 in1021.7 mb 0.00 in0.0 mm 0.00 in/hr0.0 mm/hr 0.00 in0.0 mm
09:30 PM 17.4°F-8.1°C 5.9°F-14.5°C 60% 5.0 mph N8.0 kmh N 14.0 mph22.5 kmh 30.17 in1021.7 mb 0.00 in0.0 mm 0.00 in/hr0.0 mm/hr 0.00 in0.0 mm
09:29 PM 17.4°F-8.1°C 5.9°F-14.5°C 60% 6.0 mph N9.7 kmh N 14.0 mph22.5 kmh 30.17 in1021.7 mb 0.00 in0.0 mm 0.00 in/hr0.0 mm/hr 0.00 in0.0 mm
09:28 PM 17.4°F-8.1°C 5.9°F-14.5°C 60% 5.0 mph NNW8.0 kmh NNW 13.0 mph20.9 kmh 30.17 in1021.7 mb 0.00 in0.0 mm 0.00 in/hr0.0 mm/hr 0.00 in0.0 mm
09:25 PM 17.4°F-8.1°C 5.9°F-14.5°C 60% 9.0 mph NNW14.5 kmh NNW 13.0 mph20.9 kmh 30.17 in1021.7 mb 0.00 in0.0 mm 0.00 in/hr0.0 mm/hr 0.00 in0.0 mm
09:24 PM 17.3°F-8.2°C 5.8°F-14.6°C 60% 8.0 mph NNW12.9 kmh NNW 13.0 mph20.9 kmh 30.17 in1021.7 mb 0.00 in0.0 mm 0.00 in/hr0.0 mm/hr 0.00 in0.0 mm
09:23 PM 17.4°F-8.1°C 5.9°F-14.5°C 60% 2.0 mph NNW3.2 kmh NNW 13.0 mph20.9 kmh 30.17 in1021.7 mb 0.00 in0.0 mm 0.00 in/hr0.0 mm/hr 0.00 in0.0 mm
09:20 PM 17.4°F-8.1°C 5.9°F-14.5°C 60% 6.0 mph N9.7 kmh N 13.0 mph20.9 kmh 30.17 in1021.7 mb 0.00 in0.0 mm 0.00 in/hr0.0 mm/hr 0.00 in0.0 mm
09:19 PM 17.3°F-8.2°C 5.8°F-14.6°C 60% 3.0 mph N4.8 kmh N 13.0 mph20.9 kmh 30.17 in1021.7 mb 0.00 in0.0 mm 0.00 in/hr0.0 mm/hr 0.00 in0.0 mm
09:18 PM 17.3°F-8.2°C 5.8°F-14.6°C 60% 3.0 mph N4.8 kmh N 13.0 mph20.9 kmh 30.17 in1021.7 mb 0.00 in0.0 mm 0.00 in/hr0.0 mm/hr 0.00 in0.0 mm
09:15 PM 17.3°F-8.2°C 5.8°F-14.6°C 60% 3.0 mph N4.8 kmh N 13.0 mph20.9 kmh 30.17 in1021.7 mb 0.00 in0.0 mm 0.00 in/hr0.0 mm/hr 0.00 in0.0 mm
09:14 PM 17.3°F-8.2°C 5.8°F-14.6°C 60% 6.0 mph N9.7 kmh N 13.0 mph20.9 kmh 30.17 in1021.7 mb 0.00 in0.0 mm 0.00 in/hr0.0 mm/hr 0.00 in0.0 mm
09:13 PM 17.3°F-8.2°C 5.8°F-14.6°C 60% 7.0 mph NNW11.3 kmh NNW 13.0 mph20.9 kmh 30.17 in1021.7 mb 0.00 in0.0 mm 0.00 in/hr0.0 mm/hr 0.00 in0.0 mm
09:10 PM 17.3°F-8.2°C 5.8°F-14.6°C 60% 6.0 mph NNW9.7 kmh NNW 13.0 mph20.9 kmh 30.17 in1021.7 mb 0.00 in0.0 mm 0.00 in/hr0.0 mm/hr 0.00 in0.0 mm
09:09 PM 17.3°F-8.2°C 5.8°F-14.6°C 60% 10.0 mph NNE16.1 kmh NNE 13.0 mph20.9 kmh 30.17 in1021.7 mb 0.00 in0.0 mm 0.00 in/hr0.0 mm/hr 0.00 in0.0 mm
09:08 PM 17.2°F-8.2°C 5.7°F-14.6°C 60% 6.0 mph N9.7 kmh N 13.0 mph20.9 kmh 30.17 in1021.7 mb 0.00 in0.0 mm 0.00 in/hr0.0 mm/hr 0.00 in0.0 mm
09:05 PM 17.2°F-8.2°C 5.7°F-14.6°C 60% 8.0 mph N12.9 kmh N 12.0 mph19.3 kmh 30.17 in1021.7 mb 0.00 in0.0 mm 0.00 in/hr0.0 mm/hr 0.00 in0.0 mm
09:04 PM 17.2°F-8.2°C 5.4°F-14.8°C 59% 7.0 mph NNW11.3 kmh NNW 12.0 mph19.3 kmh 30.17 in1021.7 mb 0.00 in0.0 mm 0.00 in/hr0.0 mm/hr 0.00 in0.0 mm
09:03 PM 17.2°F-8.2°C 5.4°F-14.8°C 59% 10.0 mph N16.1 kmh N 12.0 mph19.3 kmh 30.17 in1021.7 mb 0.00 in0.0 mm 0.00 in/hr0.0 mm/hr 0.00 in0.0 mm
09:00 PM 17.2°F-8.2°C 5.4°F-14.8°C 59% 9.0 mph N14.5 kmh N 9.0 mph14.5 kmh 30.17 in1021.7 mb 0.00 in0.0 mm 0.00 in/hr0.0 mm/hr 0.00 in0.0 mm
08:59 PM 17.2°F-8.2°C 5.4°F-14.8°C 59% 9.0 mph N14.5 kmh N 15.0 mph24.1 kmh 30.17 in1021.7 mb 0.00 in0.0 mm 0.00 in/hr0.0 mm/hr 0.00 in0.0 mm
08:58 PM 17.2°F-8.2°C 5.7°F-14.6°C 60% 9.0 mph N14.5 kmh N 15.0 mph24.1 kmh 30.17 in1021.7 mb 0.00 in0.0 mm 0.00 in/hr0.0 mm/hr 0.00 in0.0 mm
08:55 PM 17.1°F-8.3°C 5.3°F-14.8°C 59% 7.0 mph NNW11.3 kmh NNW 15.0 mph24.1 kmh 30.17 in1021.7 mb 0.00 in0.0 mm 0.00 in/hr0.0 mm/hr 0.00 in0.0 mm
08:54 PM 17.1°F-8.3°C 5.3°F-14.8°C 59% 7.0 mph NNW11.3 kmh NNW 15.0 mph24.1 kmh 30.17 in1021.7 mb 0.00 in0.0 mm 0.00 in/hr0.0 mm/hr 0.00 in0.0 mm
08:53 PM 17.1°F-8.3°C 5.3°F-14.8°C 59% 8.0 mph NNW12.9 kmh NNW 15.0 mph24.1 kmh 30.17 in1021.7 mb 0.00 in0.0 mm 0.00 in/hr0.0 mm/hr 0.00 in0.0 mm
08:50 PM 17.1°F-8.3°C 5.3°F-14.8°C 59% 9.0 mph NNW14.5 kmh NNW 15.0 mph24.1 kmh 30.17 in1021.7 mb 0.00 in0.0 mm 0.00 in/hr0.0 mm/hr 0.00 in0.0 mm
08:49 PM 17.1°F-8.3°C 5.3°F-14.8°C 59% 10.0 mph NNW16.1 kmh NNW 15.0 mph24.1 kmh 30.17 in1021.7 mb 0.00 in0.0 mm 0.00 in/hr0.0 mm/hr 0.00 in0.0 mm
08:48 PM 17.1°F-8.3°C 5.3°F-14.8°C 59% 7.0 mph N11.3 kmh N 15.0 mph24.1 kmh 30.17 in1021.7 mb 0.00 in0.0 mm 0.00 in/hr0.0 mm/hr 0.00 in0.0 mm
08:45 PM 17.1°F-8.3°C 5.3°F-14.8°C 59% 5.0 mph NNE8.0 kmh NNE 15.0 mph24.1 kmh 30.17 in1021.7 mb 0.00 in0.0 mm 0.00 in/hr0.0 mm/hr 0.00 in0.0 mm
08:44 PM 17.1°F-8.3°C 4.9°F-15.1°C 58% 7.0 mph NNW11.3 kmh NNW 15.0 mph24.1 kmh 30.17 in1021.7 mb 0.00 in0.0 mm 0.00 in/hr0.0 mm/hr 0.00 in0.0 mm
08:43 PM 17.1°F-8.3°C 4.9°F-15.1°C 58% 10.0 mph NNW16.1 kmh NNW 15.0 mph24.1 kmh 30.17 in1021.7 mb 0.00 in0.0 mm 0.00 in/hr0.0 mm/hr 0.00 in0.0 mm
08:40 PM 17.1°F-8.3°C 4.9°F-15.1°C 58% 11.0 mph NNW17.7 kmh NNW 15.0 mph24.1 kmh 30.17 in1021.7 mb 0.00 in0.0 mm 0.00 in/hr0.0 mm/hr 0.00 in0.0 mm
08:39 PM 17.1°F-8.3°C 4.9°F-15.1°C 58% 9.0 mph N14.5 kmh N 14.0 mph22.5 kmh 30.17 in1021.7 mb 0.00 in0.0 mm 0.00 in/hr0.0 mm/hr 0.00 in0.0 mm
08:38 PM 17.1°F-8.3°C 4.9°F-15.1°C 58% 6.0 mph NNW9.7 kmh NNW 14.0 mph22.5 kmh 30.17 in1021.7 mb 0.00 in0.0 mm 0.00 in/hr0.0 mm/hr 0.00 in0.0 mm
08:35 PM 17.1°F-8.3°C 4.5°F-15.3°C 57% 6.0 mph NNW9.7 kmh NNW 13.0 mph20.9 kmh 30.17 in1021.7 mb 0.00 in0.0 mm 0.00 in/hr0.0 mm/hr 0.00 in0.0 mm
08:34 PM 17.2°F-8.2°C 4.6°F-15.2°C 57% 7.0 mph NNW11.3 kmh NNW 13.0 mph20.9 kmh 30.17 in1021.7 mb 0.00 in0.0 mm 0.00 in/hr0.0 mm/hr 0.00 in0.0 mm
08:33 PM 17.1°F-8.3°C 4.5°F-15.3°C 57% 3.0 mph NNE4.8 kmh NNE 13.0 mph20.9 kmh 30.17 in1021.7 mb 0.00 in0.0 mm 0.00 in/hr0.0 mm/hr 0.00 in0.0 mm
08:30 PM 17.2°F-8.2°C 4.2°F-15.4°C 56% 9.0 mph NNE14.5 kmh NNE 13.0 mph20.9 kmh 30.18 in1022.0 mb 0.00 in0.0 mm 0.00 in/hr0.0 mm/hr 0.00 in0.0 mm
08:29 PM 17.1°F-8.3°C 4.1°F-15.5°C 56% 4.0 mph N6.4 kmh N 13.0 mph20.9 kmh 30.18 in1022.0 mb 0.00 in0.0 mm 0.00 in/hr0.0 mm/hr 0.00 in0.0 mm
08:28 PM 17.2°F-8.2°C 4.2°F-15.4°C 56% 10.0 mph N16.1 kmh N 13.0 mph20.9 kmh 30.18 in1022.0 mb 0.00 in0.0 mm 0.00 in/hr0.0 mm/hr 0.00 in0.0 mm
08:25 PM 17.2°F-8.2°C 3.8°F-15.7°C 55% 6.0 mph NNW9.7 kmh NNW 13.0 mph20.9 kmh 30.18 in1022.0 mb 0.00 in0.0 mm 0.00 in/hr0.0 mm/hr 0.00 in0.0 mm
08:24 PM 17.2°F-8.2°C 6.1°F-14.4°C 61% 8.0 mph NNW12.9 kmh NNW 13.0 mph20.9 kmh 30.18 in1022.0 mb 0.00 in0.0 mm 0.00 in/hr0.0 mm/hr 0.00 in0.0 mm
08:23 PM 17.2°F-8.2°C 3.8°F-15.7°C 55% 7.0 mph N11.3 kmh N 13.0 mph20.9 kmh 30.18 in1022.0 mb 0.00 in0.0 mm 0.00 in/hr0.0 mm/hr 0.00 in0.0 mm
08:20 PM 17.1°F-8.3°C 3.7°F-15.7°C 55% 7.0 mph N11.3 kmh N 13.0 mph20.9 kmh 30.18 in1022.0 mb 0.00 in0.0 mm 0.00 in/hr0.0 mm/hr 0.00 in0.0 mm
08:19 PM 17.1°F-8.3°C 3.7°F-15.7°C 55% 7.0 mph N11.3 kmh N 13.0 mph20.9 kmh 30.18 in1022.0 mb 0.00 in0.0 mm 0.00 in/hr0.0 mm/hr 0.00 in0.0 mm
08:18 PM 17.1°F-8.3°C 3.7°F-15.7°C 55% 1.0 mph NW1.6 kmh NW 13.0 mph20.9 kmh 30.18 in1022.0 mb 0.00 in0.0 mm 0.00 in/hr0.0 mm/hr 0.00 in0.0 mm
08:15 PM 17.2°F-8.2°C 3.8°F-15.7°C 55% 9.0 mph N14.5 kmh N 13.0 mph20.9 kmh 30.18 in1022.0 mb 0.00 in0.0 mm 0.00 in/hr0.0 mm/hr 0.00 in0.0 mm
08:14 PM 17.2°F-8.2°C 3.8°F-15.7°C 55% 4.0 mph NNE6.4 kmh NNE 12.0 mph19.3 kmh 30.18 in1022.0 mb 0.00 in0.0 mm 0.00 in/hr0.0 mm/hr 0.00 in0.0 mm
08:13 PM 17.1°F-8.3°C 3.7°F-15.7°C 55% 3.0 mph N4.8 kmh N 12.0 mph19.3 kmh 30.18 in1022.0 mb 0.00 in0.0 mm 0.00 in/hr0.0 mm/hr 0.00 in0.0 mm
08:10 PM 17.2°F-8.2°C 3.4°F-15.9°C 54% 9.0 mph NNW14.5 kmh NNW 12.0 mph19.3 kmh 30.18 in1022.0 mb 0.00 in0.0 mm 0.00 in/hr0.0 mm/hr 0.00 in0.0 mm
08:09 PM 17.1°F-8.3°C 3.3°F-15.9°C 54% 5.0 mph N8.0 kmh N 12.0 mph19.3 kmh 30.18 in1022.0 mb 0.00 in0.0 mm 0.00 in/hr0.0 mm/hr 0.00 in0.0 mm
08:08 PM 17.2°F-8.2°C 3.4°F-15.9°C 54% 6.0 mph N9.7 kmh N 12.0 mph19.3 kmh 30.18 in1022.0 mb 0.00 in0.0 mm 0.00 in/hr0.0 mm/hr 0.00 in0.0 mm
08:05 PM 17.2°F-8.2°C 3.4°F-15.9°C 54% 6.0 mph N9.7 kmh N 10.0 mph16.1 kmh 30.18 in1022.0 mb 0.00 in0.0 mm 0.00 in/hr0.0 mm/hr 0.00 in0.0 mm
08:04 PM 17.2°F-8.2°C 3.4°F-15.9°C 54% 6.0 mph N9.7 kmh N 10.0 mph16.1 kmh 30.18 in1022.0 mb 0.00 in0.0 mm 0.00 in/hr0.0 mm/hr 0.00 in0.0 mm
08:03 PM 17.2°F-8.2°C 3.4°F-15.9°C 54% 6.0 mph N9.7 kmh N 10.0 mph16.1 kmh 30.18 in1022.0 mb 0.00 in0.0 mm 0.00 in/hr0.0 mm/hr 0.00 in0.0 mm
08:00 PM 17.2°F-8.2°C 3.4°F-15.9°C 54% 4.0 mph N6.4 kmh N 4.0 mph6.4 kmh 30.18 in1022.0 mb 0.00 in0.0 mm 0.00 in/hr0.0 mm/hr 0.00 in0.0 mm
07:59 PM 17.2°F-8.2°C 3.0°F-16.1°C 53% 3.0 mph N4.8 kmh N 15.0 mph24.1 kmh 30.18 in1022.0 mb 0.00 in0.0 mm 0.00 in/hr0.0 mm/hr 0.00 in0.0 mm
07:58 PM 17.2°F-8.2°C 3.4°F-15.9°C 54% 10.0 mph NNW16.1 kmh NNW 15.0 mph24.1 kmh 30.18 in1022.0 mb 0.00 in0.0 mm 0.00 in/hr0.0 mm/hr 0.00 in0.0 mm
07:55 PM 17.2°F-8.2°C 3.0°F-16.1°C 53% 6.0 mph N9.7 kmh N 15.0 mph24.1 kmh 30.18 in1022.0 mb 0.00 in0.0 mm 0.00 in/hr0.0 mm/hr 0.00 in0.0 mm
07:54 PM 17.2°F-8.2°C 3.0°F-16.1°C 53% 11.0 mph N17.7 kmh N 15.0 mph24.1 kmh 30.18 in1022.0 mb 0.00 in0.0 mm 0.00 in/hr0.0 mm/hr 0.00 in0.0 mm
07:53 PM 17.2°F-8.2°C 3.0°F-16.1°C 53% 6.0 mph N9.7 kmh N 15.0 mph24.1 kmh 30.18 in1022.0 mb 0.00 in0.0 mm 0.00 in/hr0.0 mm/hr 0.00 in0.0 mm
07:50 PM 17.2°F-8.2°C 3.0°F-16.1°C 53% 6.0 mph N9.7 kmh N 15.0 mph24.1 kmh 30.18 in1022.0 mb 0.00 in0.0 mm 0.00 in/hr0.0 mm/hr 0.00 in0.0 mm
07:49 PM 17.2°F-8.2°C 3.0°F-16.1°C 53% 7.0 mph N11.3 kmh N 15.0 mph24.1 kmh 30.18 in1022.0 mb 0.00 in0.0 mm 0.00 in/hr0.0 mm/hr 0.00 in0.0 mm
07:48 PM 17.2°F-8.2°C 3.0°F-16.1°C 53% 10.0 mph NNW16.1 kmh NNW 15.0 mph24.1 kmh 30.18 in1022.0 mb 0.00 in0.0 mm 0.00 in/hr0.0 mm/hr 0.00 in0.0 mm
07:45 PM 17.2°F-8.2°C 3.0°F-16.1°C 53% 7.0 mph NNW11.3 kmh NNW 15.0 mph24.1 kmh 30.18 in1022.0 mb 0.00 in0.0 mm 0.00 in/hr0.0 mm/hr 0.00 in0.0 mm
07:44 PM 17.2°F-8.2°C 3.0°F-16.1°C 53% 10.0 mph N16.1 kmh N 15.0 mph24.1 kmh 30.18 in1022.0 mb 0.00 in0.0 mm 0.00 in/hr0.0 mm/hr 0.00 in0.0 mm
07:43 PM 17.3°F-8.2°C 3.1°F-16.1°C 53% 5.0 mph N8.0 kmh N 15.0 mph24.1 kmh 30.18 in1022.0 mb 0.00 in0.0 mm 0.00 in/hr0.0 mm/hr 0.00 in0.0 mm
07:40 PM 17.4°F-8.1°C 3.2°F-16.0°C 53% 13.0 mph NNW20.9 kmh NNW 15.0 mph24.1 kmh 30.18 in1022.0 mb 0.00 in0.0 mm 0.00 in/hr0.0 mm/hr 0.00 in0.0 mm
07:39 PM 17.4°F-8.1°C 3.2°F-16.0°C 53% Calm Calm 15.0 mph24.1 kmh 30.18 in1022.0 mb 0.00 in0.0 mm 0.00 in/hr0.0 mm/hr 0.00 in0.0 mm
07:38 PM 17.5°F-8.1°C 3.7°F-15.7°C 54% 6.0 mph NNW9.7 kmh NNW 15.0 mph24.1 kmh 30.18 in1022.0 mb 0.00 in0.0 mm 0.00 in/hr0.0 mm/hr 0.00 in0.0 mm
07:35 PM 17.5°F-8.1°C 3.3°F-15.9°C 53% 9.0 mph N14.5 kmh N 15.0 mph24.1 kmh 30.18 in1022.0 mb 0.00 in0.0 mm 0.00 in/hr0.0 mm/hr 0.00 in0.0 mm
07:34 PM 17.6°F-8.0°C 3.4°F-15.9°C 53% 3.0 mph N4.8 kmh N 15.0 mph24.1 kmh 30.18 in1022.0 mb 0.00 in0.0 mm 0.00 in/hr0.0 mm/hr 0.00 in0.0 mm
07:33 PM 17.6°F-8.0°C 3.4°F-15.9°C 53% 7.0 mph NNE11.3 kmh NNE 15.0 mph24.1 kmh 30.18 in1022.0 mb 0.00 in0.0 mm 0.00 in/hr0.0 mm/hr 0.00 in0.0 mm
07:30 PM 17.7°F-7.9°C 3.5°F-15.8°C 53% 7.0 mph NNW11.3 kmh NNW 14.0 mph22.5 kmh 30.18 in1022.0 mb 0.00 in0.0 mm 0.00 in/hr0.0 mm/hr 0.00 in0.0 mm
07:29 PM 17.7°F-7.9°C 3.5°F-15.8°C 53% 7.0 mph N11.3 kmh N 13.0 mph20.9 kmh 30.18 in1022.0 mb 0.00 in0.0 mm 0.00 in/hr0.0 mm/hr 0.00 in0.0 mm
07:28 PM 17.7°F-7.9°C 3.5°F-15.8°C 53% 8.0 mph NNW12.9 kmh NNW 13.0 mph20.9 kmh 30.18 in1022.0 mb 0.00 in0.0 mm 0.00 in/hr0.0 mm/hr 0.00 in0.0 mm
07:25 PM 17.8°F-7.9°C 3.6°F-15.8°C 53% 13.0 mph N20.9 kmh N 13.0 mph20.9 kmh 30.18 in1022.0 mb 0.00 in0.0 mm 0.00 in/hr0.0 mm/hr 0.00 in0.0 mm
07:24 PM 17.8°F-7.9°C 3.6°F-15.8°C 53% 5.0 mph N8.0 kmh N 13.0 mph20.9 kmh 30.18 in1022.0 mb 0.00 in0.0 mm 0.00 in/hr0.0 mm/hr 0.00 in0.0 mm
07:23 PM 17.8°F-7.9°C 3.6°F-15.8°C 53% 3.0 mph NNW4.8 kmh NNW 13.0 mph20.9 kmh 30.17 in1021.7 mb 0.00 in0.0 mm 0.00 in/hr0.0 mm/hr 0.00 in0.0 mm
07:20 PM 17.9°F-7.8°C 3.3°F-15.9°C 52% 5.0 mph NNW8.0 kmh NNW 13.0 mph20.9 kmh 30.18 in1022.0 mb 0.00 in0.0 mm 0.00 in/hr0.0 mm/hr 0.00 in0.0 mm
07:19 PM 18.0°F-7.8°C 3.4°F-15.9°C 52% 10.0 mph N16.1 kmh N 13.0 mph20.9 kmh 30.18 in1022.0 mb 0.00 in0.0 mm 0.00 in/hr0.0 mm/hr 0.00 in0.0 mm
07:18 PM 18.0°F-7.8°C 3.4°F-15.9°C 52% 10.0 mph N16.1 kmh N 13.0 mph20.9 kmh 30.18 in1022.0 mb 0.00 in0.0 mm 0.00 in/hr0.0 mm/hr 0.00 in0.0 mm
07:15 PM 18.2°F-7.7°C 3.1°F-16.1°C 51% 5.0 mph NNW8.0 kmh NNW 13.0 mph20.9 kmh 30.18 in1022.0 mb 0.00 in0.0 mm 0.00 in/hr0.0 mm/hr 0.00 in0.0 mm
07:14 PM 18.3°F-7.6°C 3.2°F-16.0°C 51% 1.0 mph NNW1.6 kmh NNW 13.0 mph20.9 kmh 30.18 in1022.0 mb 0.00 in0.0 mm 0.00 in/hr0.0 mm/hr 0.00 in0.0 mm
07:13 PM 18.4°F-7.6°C 3.3°F-15.9°C 51% 10.0 mph N16.1 kmh N 11.0 mph17.7 kmh 30.18 in1022.0 mb 0.00 in0.0 mm 0.00 in/hr0.0 mm/hr 0.00 in0.0 mm
07:10 PM 18.6°F-7.4°C 3.5°F-15.8°C 51% 4.0 mph N6.4 kmh N 11.0 mph17.7 kmh 30.18 in1022.0 mb 0.00 in0.0 mm 0.00 in/hr0.0 mm/hr 0.00 in0.0 mm
07:09 PM 18.6°F-7.4°C 3.5°F-15.8°C 51% 6.0 mph N9.7 kmh N 11.0 mph17.7 kmh 30.18 in1022.0 mb 0.00 in0.0 mm 0.00 in/hr0.0 mm/hr 0.00 in0.0 mm
07:08 PM 18.6°F-7.4°C 3.1°F-16.1°C 50% 3.0 mph N4.8 kmh N 11.0 mph17.7 kmh 30.18 in1022.0 mb 0.00 in0.0 mm 0.00 in/hr0.0 mm/hr 0.00 in0.0 mm
07:05 PM 18.7°F-7.4°C 2.7°F-16.3°C 49% 3.0 mph N4.8 kmh N 11.0 mph17.7 kmh 30.18 in1022.0 mb 0.00 in0.0 mm 0.00 in/hr0.0 mm/hr 0.00 in0.0 mm
07:04 PM 18.7°F-7.4°C 2.7°F-16.3°C 49% 6.0 mph N9.7 kmh N 11.0 mph17.7 kmh 30.18 in1022.0 mb 0.00 in0.0 mm 0.00 in/hr0.0 mm/hr 0.00 in0.0 mm
07:03 PM 18.7°F-7.4°C 2.7°F-16.3°C 49% 6.0 mph N9.7 kmh N 11.0 mph17.7 kmh 30.18 in1022.0 mb 0.00 in0.0 mm 0.00 in/hr0.0 mm/hr 0.00 in0.0 mm
07:00 PM 18.9°F-7.3°C 2.5°F-16.4°C 48% 3.0 mph NNW4.8 kmh NNW 4.0 mph6.4 kmh 30.18 in1022.0 mb 0.00 in0.0 mm 0.00 in/hr0.0 mm/hr 0.00 in0.0 mm
06:59 PM 19.0°F-7.2°C 3.0°F-16.1°C 49% 10.0 mph N16.1 kmh N 16.0 mph25.7 kmh 30.18 in1022.0 mb 0.00 in0.0 mm 0.00 in/hr0.0 mm/hr 0.00 in0.0 mm
06:58 PM 19.0°F-7.2°C 3.0°F-16.1°C 49% 4.0 mph NNE6.4 kmh NNE 16.0 mph25.7 kmh 30.18 in1022.0 mb 0.00 in0.0 mm 0.00 in/hr0.0 mm/hr 0.00 in0.0 mm
06:55 PM 19.1°F-7.2°C 2.7°F-16.3°C 48% 6.0 mph NNE9.7 kmh NNE 16.0 mph25.7 kmh 30.18 in1022.0 mb 0.00 in0.0 mm 0.00 in/hr0.0 mm/hr 0.00 in0.0 mm
06:54 PM 19.1°F-7.2°C 2.7°F-16.3°C 48% 6.0 mph NNE9.7 kmh NNE 16.0 mph25.7 kmh 30.18 in1022.0 mb 0.00 in0.0 mm 0.00 in/hr0.0 mm/hr 0.00 in0.0 mm
06:53 PM 19.2°F-7.1°C 2.7°F-16.3°C 48% 3.0 mph N4.8 kmh N 16.0 mph25.7 kmh 30.18 in1022.0 mb 0.00 in0.0 mm 0.00 in/hr0.0 mm/hr 0.00 in0.0 mm
06:50 PM 19.2°F-7.1°C 2.7°F-16.3°C 48% 5.0 mph N8.0 kmh N 16.0 mph25.7 kmh 30.18 in1022.0 mb 0.00 in0.0 mm 0.00 in/hr0.0 mm/hr 0.00 in0.0 mm
06:49 PM 19.2°F-7.1°C 2.7°F-16.3°C 48% 8.0 mph N12.9 kmh N 16.0 mph25.7 kmh 30.18 in1022.0 mb 0.00 in0.0 mm 0.00 in/hr0.0 mm/hr 0.00 in0.0 mm
06:48 PM 19.2°F-7.1°C 2.3°F-16.5°C 47% 7.0 mph N11.3 kmh N 16.0 mph25.7 kmh 30.18 in1022.0 mb 0.00 in0.0 mm 0.00 in/hr0.0 mm/hr 0.00 in0.0 mm
06:45 PM 19.2°F-7.1°C 2.3°F-16.5°C 47% 3.0 mph NNE4.8 kmh NNE 16.0 mph25.7 kmh 30.18 in1022.0 mb 0.00 in0.0 mm 0.00 in/hr0.0 mm/hr 0.00 in0.0 mm
06:44 PM 19.2°F-7.1°C 1.8°F-16.8°C 46% Calm Calm 16.0 mph25.7 kmh 30.18 in1022.0 mb 0.00 in0.0 mm 0.00 in/hr0.0 mm/hr 0.00 in0.0 mm
06:43 PM 19.2°F-7.1°C 2.3°F-16.5°C 47% 6.0 mph NE9.7 kmh NE 16.0 mph25.7 kmh 30.18 in1022.0 mb 0.00 in0.0 mm 0.00 in/hr0.0 mm/hr 0.00 in0.0 mm
06:40 PM 19.3°F-7.1°C 2.4°F-16.4°C 47% 6.0 mph NNE9.7 kmh NNE 16.0 mph25.7 kmh 30.18 in1022.0 mb 0.00 in0.0 mm 0.00 in/hr0.0 mm/hr 0.00 in0.0 mm
06:39 PM 19.3°F-7.1°C 2.4°F-16.4°C 47% 5.0 mph N8.0 kmh N 16.0 mph25.7 kmh 30.18 in1022.0 mb 0.00 in0.0 mm 0.00 in/hr0.0 mm/hr 0.00 in0.0 mm
06:38 PM 19.3°F-7.1°C 2.4°F-16.4°C 47% 16.0 mph NE25.7 kmh NE 16.0 mph25.7 kmh 30.18 in1022.0 mb 0.00 in0.0 mm 0.00 in/hr0.0 mm/hr 0.00 in0.0 mm
06:35 PM 19.4°F-7.0°C 2.0°F-16.7°C 46% 9.0 mph NNW14.5 kmh NNW 11.0 mph17.7 kmh 30.17 in1021.7 mb 0.00 in0.0 mm 0.00 in/hr0.0 mm/hr 0.00 in0.0 mm
06:34 PM 19.4°F-7.0°C 2.5°F-16.4°C 47% 6.0 mph NNW9.7 kmh NNW 11.0 mph17.7 kmh 30.17 in1021.7 mb 0.00 in0.0 mm 0.00 in/hr0.0 mm/hr 0.00 in0.0 mm
06:33 PM 19.5°F-6.9°C 2.6°F-16.3°C 47% 6.0 mph N9.7 kmh N 11.0 mph17.7 kmh 30.18 in1022.0 mb 0.00 in0.0 mm 0.00 in/hr0.0 mm/hr 0.00 in0.0 mm
06:30 PM 19.6°F-6.9°C 2.7°F-16.3°C 47% 7.0 mph N11.3 kmh N 11.0 mph17.7 kmh 30.18 in1022.0 mb 0.00 in0.0 mm 0.00 in/hr0.0 mm/hr 0.00 in0.0 mm
06:29 PM 19.6°F-6.9°C 2.7°F-16.3°C 47% 4.0 mph N6.4 kmh N 11.0 mph17.7 kmh 30.18 in1022.0 mb 0.00 in0.0 mm 0.00 in/hr0.0 mm/hr 0.00 in0.0 mm
06:28 PM 19.7°F-6.8°C 3.2°F-16.0°C 48% 7.0 mph NW11.3 kmh NW 11.0 mph17.7 kmh 30.18 in1022.0 mb 0.00 in0.0 mm 0.00 in/hr0.0 mm/hr 0.00 in0.0 mm
06:25 PM 19.8°F-6.8°C 3.3°F-15.9°C 48% 9.0 mph N14.5 kmh N 11.0 mph17.7 kmh 30.18 in1022.0 mb 0.00 in0.0 mm 0.00 in/hr0.0 mm/hr 0.00 in0.0 mm
06:24 PM 19.9°F-6.7°C 2.9°F-16.2°C 47% 3.0 mph N4.8 kmh N 11.0 mph17.7 kmh 30.18 in1022.0 mb 0.00 in0.0 mm 0.00 in/hr0.0 mm/hr 0.00 in0.0 mm
06:23 PM 20.0°F-6.7°C 3.0°F-16.1°C 47% 8.0 mph N12.9 kmh N 11.0 mph17.7 kmh 30.18 in1022.0 mb 0.00 in0.0 mm 0.00 in/hr0.0 mm/hr 0.00 in0.0 mm
06:20 PM 20.0°F-6.7°C 3.0°F-16.1°C 47% 5.0 mph N8.0 kmh N 11.0 mph17.7 kmh 30.18 in1022.0 mb 0.00 in0.0 mm 0.00 in/hr0.0 mm/hr 0.00 in0.0 mm
06:19 PM 20.1°F-6.6°C 3.1°F-16.1°C 47% 7.0 mph N11.3 kmh N 11.0 mph17.7 kmh 30.17 in1021.7 mb 0.00 in0.0 mm 0.00 in/hr0.0 mm/hr 0.00 in0.0 mm
06:18 PM 20.1°F-6.6°C 3.1°F-16.1°C 47% 3.0 mph N4.8 kmh N 11.0 mph17.7 kmh 30.17 in1021.7 mb 0.00 in0.0 mm 0.00 in/hr0.0 mm/hr 0.00 in0.0 mm
06:15 PM 20.2°F-6.6°C 2.7°F-16.3°C 46% 4.0 mph N6.4 kmh N 11.0 mph17.7 kmh 30.17 in1021.7 mb 0.00 in0.0 mm 0.00 in/hr0.0 mm/hr 0.00 in0.0 mm
06:14 PM 20.2°F-6.6°C 2.7°F-16.3°C 46% 7.0 mph N11.3 kmh N 11.0 mph17.7 kmh 30.17 in1021.7 mb 0.00 in0.0 mm 0.00 in/hr0.0 mm/hr 0.00 in0.0 mm
06:13 PM 20.2°F-6.6°C 2.7°F-16.3°C 46% 4.0 mph N6.4 kmh N 11.0 mph17.7 kmh 30.17 in1021.7 mb 0.00 in0.0 mm 0.00 in/hr0.0 mm/hr 0.00 in0.0 mm
06:10 PM 20.3°F-6.5°C 2.8°F-16.2°C 46% 6.0 mph N9.7 kmh N 11.0 mph17.7 kmh 30.17 in1021.7 mb 0.00 in0.0 mm 0.00 in/hr0.0 mm/hr 0.00 in0.0 mm
06:09 PM 20.3°F-6.5°C 2.8°F-16.2°C 46% 4.0 mph N6.4 kmh N 11.0 mph17.7 kmh 30.17 in1021.7 mb 0.00 in0.0 mm 0.00 in/hr0.0 mm/hr 0.00 in0.0 mm
06:08 PM 20.4°F-6.4°C 2.9°F-16.2°C 46% 6.0 mph N9.7 kmh N 11.0 mph17.7 kmh 30.17 in1021.7 mb 0.00 in0.0 mm 0.00 in/hr0.0 mm/hr 0.00 in0.0 mm
06:05 PM 20.5°F-6.4°C 3.0°F-16.1°C 46% 2.0 mph N3.2 kmh N 8.0 mph12.9 kmh 30.17 in1021.7 mb 0.00 in0.0 mm 0.00 in/hr0.0 mm/hr 0.00 in0.0 mm
06:04 PM 20.5°F-6.4°C 3.0°F-16.1°C 46% 6.0 mph N9.7 kmh N 8.0 mph12.9 kmh 30.17 in1021.7 mb 0.00 in0.0 mm 0.00 in/hr0.0 mm/hr 0.00 in0.0 mm
06:03 PM 20.5°F-6.4°C 3.0°F-16.1°C 46% 7.0 mph N11.3 kmh N 7.0 mph11.3 kmh 30.17 in1021.7 mb 0.00 in0.0 mm 0.00 in/hr0.0 mm/hr 0.00 in0.0 mm
06:00 PM 20.5°F-6.4°C 2.6°F-16.3°C 45% 4.0 mph N6.4 kmh N 4.0 mph6.4 kmh 30.17 in1021.7 mb 0.00 in0.0 mm 0.00 in/hr0.0 mm/hr 0.00 in0.0 mm
05:59 PM 20.5°F-6.4°C 2.6°F-16.3°C 45% 4.0 mph N6.4 kmh N 14.0 mph22.5 kmh 30.17 in1021.7 mb 0.00 in0.0 mm 0.00 in/hr0.0 mm/hr 0.00 in0.0 mm
05:58 PM 20.5°F-6.4°C 2.6°F-16.3°C 45% 4.0 mph N6.4 kmh N 14.0 mph22.5 kmh 30.17 in1021.7 mb 0.00 in0.0 mm 0.00 in/hr0.0 mm/hr 0.00 in0.0 mm
05:55 PM 20.6°F-6.3°C 2.2°F-16.6°C 44% 8.0 mph N12.9 kmh N 14.0 mph22.5 kmh 30.17 in1021.7 mb 0.00 in0.0 mm 0.00 in/hr0.0 mm/hr 0.00 in0.0 mm
05:54 PM 20.7°F-6.3°C 2.3°F-16.5°C 44% 7.0 mph N11.3 kmh N 14.0 mph22.5 kmh 30.17 in1021.7 mb 0.00 in0.0 mm 0.00 in/hr0.0 mm/hr 0.00 in0.0 mm
05:53 PM 20.7°F-6.3°C 2.3°F-16.5°C 44% 8.0 mph N12.9 kmh N 14.0 mph22.5 kmh 30.17 in1021.7 mb 0.00 in0.0 mm 0.00 in/hr0.0 mm/hr 0.00 in0.0 mm
05:50 PM 21.0°F-6.1°C 2.5°F-16.4°C 44% 9.0 mph NNE14.5 kmh NNE 14.0 mph22.5 kmh 30.17 in1021.7 mb 0.00 in0.0 mm 0.00 in/hr0.0 mm/hr 0.00 in0.0 mm
05:49 PM 21.2°F-6.0°C 2.7°F-16.3°C 44% 6.0 mph N9.7 kmh N 14.0 mph22.5 kmh 30.17 in1021.7 mb 0.00 in0.0 mm 0.00 in/hr0.0 mm/hr 0.00 in0.0 mm
05:48 PM 21.2°F-6.0°C 2.7°F-16.3°C 44% 2.0 mph NNW3.2 kmh NNW 14.0 mph22.5 kmh 30.17 in1021.7 mb 0.00 in0.0 mm 0.00 in/hr0.0 mm/hr 0.00 in0.0 mm
05:45 PM 21.6°F-5.8°C 1.6°F-16.9°C 41% 5.0 mph NNW8.0 kmh NNW 14.0 mph22.5 kmh 30.16 in1021.3 mb 0.00 in0.0 mm 0.00 in/hr0.0 mm/hr 0.00 in0.0 mm
05:44 PM 21.6°F-5.8°C 1.0°F-17.2°C 40% 2.0 mph N3.2 kmh N 14.0 mph22.5 kmh 30.16 in1021.3 mb 0.00 in0.0 mm 0.00 in/hr0.0 mm/hr 0.00 in0.0 mm
05:43 PM 21.6°F-5.8°C 1.0°F-17.2°C 40% 1.0 mph N1.6 kmh N 14.0 mph22.5 kmh 30.16 in1021.3 mb 0.00 in0.0 mm 0.00 in/hr0.0 mm/hr 0.00 in0.0 mm
05:40 PM 21.7°F-5.7°C 0.6°F-17.4°C 39% 7.0 mph NNE11.3 kmh NNE 14.0 mph22.5 kmh 30.16 in1021.3 mb 0.00 in0.0 mm 0.00 in/hr0.0 mm/hr 0.00 in0.0 mm
05:39 PM 21.7°F-5.7°C 0.6°F-17.4°C 39% 5.0 mph N8.0 kmh N 14.0 mph22.5 kmh 30.16 in1021.3 mb 0.00 in0.0 mm 0.00 in/hr0.0 mm/hr 0.00 in0.0 mm
05:38 PM 21.7°F-5.7°C 0.6°F-17.4°C 39% 6.0 mph N9.7 kmh N 14.0 mph22.5 kmh 30.16 in1021.3 mb 0.00 in0.0 mm 0.00 in/hr0.0 mm/hr 0.00 in0.0 mm
05:35 PM 21.7°F-5.7°C 0.6°F-17.4°C 39% 3.0 mph N4.8 kmh N 14.0 mph22.5 kmh 30.16 in1021.3 mb 0.00 in0.0 mm 0.00 in/hr0.0 mm/hr 0.00 in0.0 mm
05:34 PM 21.6°F-5.8°C 0.5°F-17.5°C 39% 5.0 mph N8.0 kmh N 14.0 mph22.5 kmh 30.16 in1021.3 mb 0.00 in0.0 mm 0.00 in/hr0.0 mm/hr 0.00 in0.0 mm
05:33 PM 21.6°F-5.8°C 0.5°F-17.5°C 39% 3.0 mph N4.8 kmh N 14.0 mph22.5 kmh 30.16 in1021.3 mb 0.00 in0.0 mm 0.00 in/hr0.0 mm/hr 0.00 in0.0 mm
05:30 PM 21.6°F-5.8°C -0.1°F-17.8°C 38% 6.0 mph N9.7 kmh N 14.0 mph22.5 kmh 30.16 in1021.3 mb 0.00 in0.0 mm 0.00 in/hr0.0 mm/hr 0.00 in0.0 mm
05:29 PM 21.6°F-5.8°C -0.1°F-17.8°C 38% 4.0 mph N6.4 kmh N 14.0 mph22.5 kmh 30.16 in1021.3 mb 0.00 in0.0 mm 0.00 in/hr0.0 mm/hr 0.00 in0.0 mm
05:28 PM 21.6°F-5.8°C -0.1°F-17.8°C 38% 12.0 mph NNE19.3 kmh NNE 14.0 mph22.5 kmh 30.16 in1021.3 mb 0.00 in0.0 mm 0.00 in/hr0.0 mm/hr 0.00 in0.0 mm
05:25 PM 21.7°F-5.7°C 0.0°F-17.8°C 38% 6.0 mph N9.7 kmh N 14.0 mph22.5 kmh 30.16 in1021.3 mb 0.00 in0.0 mm 0.00 in/hr0.0 mm/hr 0.00 in0.0 mm
05:24 PM 21.8°F-5.7°C 0.1°F-17.7°C 38% 8.0 mph N12.9 kmh N 13.0 mph20.9 kmh 30.16 in1021.3 mb 0.00 in0.0 mm 0.00 in/hr0.0 mm/hr 0.00 in0.0 mm
05:23 PM 21.8°F-5.7°C 0.7°F-17.4°C 39% 11.0 mph NNE17.7 kmh NNE 13.0 mph20.9 kmh 30.16 in1021.3 mb 0.00 in0.0 mm 0.00 in/hr0.0 mm/hr 0.00 in0.0 mm
05:20 PM 21.8°F-5.7°C 0.1°F-17.7°C 38% 9.0 mph NNE14.5 kmh NNE 13.0 mph20.9 kmh 30.15 in1021.0 mb 0.00 in0.0 mm 0.00 in/hr0.0 mm/hr 0.00 in0.0 mm
05:19 PM 21.9°F-5.6°C 0.2°F-17.7°C 38% 4.0 mph NNE6.4 kmh NNE 13.0 mph20.9 kmh 30.16 in1021.3 mb 0.00 in0.0 mm 0.00 in/hr0.0 mm/hr 0.00 in0.0 mm
05:18 PM 22.0°F-5.6°C 0.3°F-17.6°C 38% 10.0 mph NNW16.1 kmh NNW 13.0 mph20.9 kmh 30.15 in1021.0 mb 0.00 in0.0 mm 0.00 in/hr0.0 mm/hr 0.00 in0.0 mm
05:15 PM 22.3°F-5.4°C 1.1°F-17.2°C 39% 1.0 mph N1.6 kmh N 11.0 mph17.7 kmh 30.15 in1021.0 mb 0.00 in0.0 mm 0.00 in/hr0.0 mm/hr 0.00 in0.0 mm
05:14 PM 22.3°F-5.4°C 1.7°F-16.8°C 40% 7.0 mph N11.3 kmh N 11.0 mph17.7 kmh 30.15 in1021.0 mb 0.00 in0.0 mm 0.00 in/hr0.0 mm/hr 0.00 in0.0 mm
05:13 PM 22.4°F-5.3°C 1.8°F-16.8°C 40% 6.0 mph N9.7 kmh N 11.0 mph17.7 kmh 30.15 in1021.0 mb 0.00 in0.0 mm 0.00 in/hr0.0 mm/hr 0.00 in0.0 mm
05:10 PM 22.5°F-5.3°C 1.3°F-17.1°C 39% 4.0 mph N6.4 kmh N 11.0 mph17.7 kmh 30.15 in1021.0 mb 0.00 in0.0 mm 0.00 in/hr0.0 mm/hr 0.00 in0.0 mm
05:09 PM 22.5°F-5.3°C 1.3°F-17.1°C 39% 5.0 mph NNE8.0 kmh NNE 11.0 mph17.7 kmh 30.15 in1021.0 mb 0.00 in0.0 mm 0.00 in/hr0.0 mm/hr 0.00 in0.0 mm
05:08 PM 22.5°F-5.3°C 0.7°F-17.4°C 38% 3.0 mph NNE4.8 kmh NNE 11.0 mph17.7 kmh 30.15 in1021.0 mb 0.00 in0.0 mm 0.00 in/hr0.0 mm/hr 0.00 in0.0 mm
05:05 PM 22.3°F-5.4°C 0.0°F-17.8°C 37% 4.0 mph NNE6.4 kmh NNE 11.0 mph17.7 kmh 30.15 in1021.0 mb 0.00 in0.0 mm 0.00 in/hr0.0 mm/hr 0.00 in0.0 mm
05:04 PM 22.2°F-5.4°C -0.1°F-17.8°C 37% 2.0 mph NNE3.2 kmh NNE 11.0 mph17.7 kmh 30.15 in1021.0 mb 0.00 in0.0 mm 0.00 in/hr0.0 mm/hr 0.00 in0.0 mm
05:03 PM 22.2°F-5.4°C -0.1°F-17.8°C 37% 3.0 mph NNE4.8 kmh NNE 11.0 mph17.7 kmh 30.15 in1021.0 mb 0.00 in0.0 mm 0.00 in/hr0.0 mm/hr 0.00 in0.0 mm
05:00 PM 22.2°F-5.4°C 0.5°F-17.5°C 38% 7.0 mph NNE11.3 kmh NNE 8.0 mph12.9 kmh 30.15 in1021.0 mb 0.00 in0.0 mm 0.00 in/hr0.0 mm/hr 0.00 in0.0 mm
04:59 PM 22.2°F-5.4°C 0.5°F-17.5°C 38% 3.0 mph N4.8 kmh N 16.0 mph25.7 kmh 30.14 in1020.7 mb 0.00 in0.0 mm 0.00 in/hr0.0 mm/hr 0.00 in0.0 mm
04:58 PM 22.2°F-5.4°C 0.5°F-17.5°C 38% 6.0 mph N9.7 kmh N 16.0 mph25.7 kmh 30.14 in1020.7 mb 0.00 in0.0 mm 0.00 in/hr0.0 mm/hr 0.00 in0.0 mm
04:55 PM 22.2°F-5.4°C 0.5°F-17.5°C 38% 5.0 mph N8.0 kmh N 16.0 mph25.7 kmh 30.14 in1020.7 mb 0.00 in0.0 mm 0.00 in/hr0.0 mm/hr 0.00 in0.0 mm
04:54 PM 22.3°F-5.4°C 0.6°F-17.4°C 38% 6.0 mph N9.7 kmh N 16.0 mph25.7 kmh 30.15 in1021.0 mb 0.00 in0.0 mm 0.00 in/hr0.0 mm/hr 0.00 in0.0 mm
04:53 PM 22.2°F-5.4°C 0.5°F-17.5°C 38% 7.0 mph N11.3 kmh N 16.0 mph25.7 kmh 30.14 in1020.7 mb 0.00 in0.0 mm 0.00 in/hr0.0 mm/hr 0.00 in0.0 mm
04:50 PM 22.1°F-5.5°C 0.4°F-17.6°C 38% 1.0 mph NNE1.6 kmh NNE 16.0 mph25.7 kmh 30.14 in1020.7 mb 0.00 in0.0 mm 0.00 in/hr0.0 mm/hr 0.00 in0.0 mm
04:49 PM 22.0°F-5.6°C 0.3°F-17.6°C 38% 4.0 mph NNE6.4 kmh NNE 16.0 mph25.7 kmh 30.14 in1020.7 mb 0.00 in0.0 mm 0.00 in/hr0.0 mm/hr 0.00 in0.0 mm
04:48 PM 22.0°F-5.6°C 0.3°F-17.6°C 38% Calm Calm 16.0 mph25.7 kmh 30.14 in1020.7 mb 0.00 in0.0 mm 0.00 in/hr0.0 mm/hr 0.00 in0.0 mm
04:45 PM 21.9°F-5.6°C 0.2°F-17.7°C 38% 7.0 mph NE11.3 kmh NE 16.0 mph25.7 kmh 30.14 in1020.7 mb 0.00 in0.0 mm 0.00 in/hr0.0 mm/hr 0.00 in0.0 mm
04:44 PM 21.8°F-5.7°C 0.7°F-17.4°C 39% 4.0 mph NNE6.4 kmh NNE 16.0 mph25.7 kmh 30.14 in1020.7 mb 0.00 in0.0 mm 0.00 in/hr0.0 mm/hr 0.00 in0.0 mm
04:43 PM 21.7°F-5.7°C 0.6°F-17.4°C 39% 2.0 mph N3.2 kmh N 16.0 mph25.7 kmh 30.14 in1020.7 mb 0.00 in0.0 mm 0.00 in/hr0.0 mm/hr 0.00 in0.0 mm
04:40 PM 21.7°F-5.7°C 0.6°F-17.4°C 39% 7.0 mph NNW11.3 kmh NNW 16.0 mph25.7 kmh 30.14 in1020.7 mb 0.00 in0.0 mm 0.00 in/hr0.0 mm/hr 0.00 in0.0 mm
04:39 PM 21.8°F-5.7°C 1.2°F-17.1°C 40% 6.0 mph NNW9.7 kmh NNW 16.0 mph25.7 kmh 30.14 in1020.7 mb 0.00 in0.0 mm 0.00 in/hr0.0 mm/hr 0.00 in0.0 mm
04:38 PM 21.8°F-5.7°C 1.2°F-17.1°C 40% 5.0 mph N8.0 kmh N 16.0 mph25.7 kmh 30.14 in1020.7 mb 0.00 in0.0 mm 0.00 in/hr0.0 mm/hr 0.00 in0.0 mm
04:35 PM 21.8°F-5.7°C 1.7°F-16.8°C 41% 5.0 mph NW8.0 kmh NW 16.0 mph25.7 kmh 30.14 in1020.7 mb 0.00 in0.0 mm 0.00 in/hr0.0 mm/hr 0.00 in0.0 mm
04:34 PM 21.9°F-5.6°C 1.3°F-17.1°C 40% 4.0 mph NNW6.4 kmh NNW 16.0 mph25.7 kmh 30.14 in1020.7 mb 0.00 in0.0 mm 0.00 in/hr0.0 mm/hr 0.00 in0.0 mm
04:33 PM 21.9°F-5.6°C 1.8°F-16.8°C 41% 8.0 mph NNW12.9 kmh NNW 16.0 mph25.7 kmh 30.14 in1020.7 mb 0.00 in0.0 mm 0.00 in/hr0.0 mm/hr 0.00 in0.0 mm
04:30 PM 22.0°F-5.6°C 2.4°F-16.4°C 42% 7.0 mph N11.3 kmh N 16.0 mph25.7 kmh 30.14 in1020.7 mb 0.00 in0.0 mm 0.00 in/hr0.0 mm/hr 0.00 in0.0 mm
04:29 PM 21.9°F-5.6°C 2.3°F-16.5°C 42% 4.0 mph NE6.4 kmh NE 16.0 mph25.7 kmh 30.13 in1020.3 mb 0.00 in0.0 mm 0.00 in/hr0.0 mm/hr 0.00 in0.0 mm
04:28 PM 21.9°F-5.6°C 2.3°F-16.5°C 42% 4.0 mph NNW6.4 kmh NNW 16.0 mph25.7 kmh 30.13 in1020.3 mb 0.00 in0.0 mm 0.00 in/hr0.0 mm/hr 0.00 in0.0 mm
04:25 PM 22.0°F-5.6°C 2.9°F-16.2°C 43% 11.0 mph N17.7 kmh N 16.0 mph25.7 kmh 30.13 in1020.3 mb 0.00 in0.0 mm 0.00 in/hr0.0 mm/hr 0.00 in0.0 mm
04:24 PM 21.9°F-5.6°C 2.3°F-16.5°C 42% 6.0 mph N9.7 kmh N 16.0 mph25.7 kmh 30.13 in1020.3 mb 0.00 in0.0 mm 0.00 in/hr0.0 mm/hr 0.00 in0.0 mm
04:23 PM 21.9°F-5.6°C 2.3°F-16.5°C 42% 7.0 mph NE11.3 kmh NE 16.0 mph25.7 kmh 30.13 in1020.3 mb 0.00 in0.0 mm 0.00 in/hr0.0 mm/hr 0.00 in0.0 mm
04:20 PM 21.9°F-5.6°C 2.9°F-16.2°C 43% 6.0 mph N9.7 kmh N 16.0 mph25.7 kmh 30.13 in1020.3 mb 0.00 in0.0 mm 0.00 in/hr0.0 mm/hr 0.00 in0.0 mm
04:19 PM 21.9°F-5.6°C 2.9°F-16.2°C 43% 4.0 mph NE6.4 kmh NE 16.0 mph25.7 kmh 30.13 in1020.3 mb 0.00 in0.0 mm 0.00 in/hr0.0 mm/hr 0.00 in0.0 mm
04:18 PM 21.9°F-5.6°C 2.9°F-16.2°C 43% 7.0 mph NNE11.3 kmh NNE 16.0 mph25.7 kmh 30.13 in1020.3 mb 0.00 in0.0 mm 0.00 in/hr0.0 mm/hr 0.00 in0.0 mm
04:15 PM 22.2°F-5.4°C 3.6°F-15.8°C 44% 11.0 mph N17.7 kmh N 16.0 mph25.7 kmh 30.13 in1020.3 mb 0.00 in0.0 mm 0.00 in/hr0.0 mm/hr 0.00 in0.0 mm
04:14 PM 22.2°F-5.4°C 3.6°F-15.8°C 44% 4.0 mph N6.4 kmh N 16.0 mph25.7 kmh 30.13 in1020.3 mb 0.00 in0.0 mm 0.00 in/hr0.0 mm/hr 0.00 in0.0 mm
04:13 PM 22.2°F-5.4°C 4.1°F-15.5°C 45% 7.0 mph N11.3 kmh N 16.0 mph25.7 kmh 30.13 in1020.3 mb 0.00 in0.0 mm 0.00 in/hr0.0 mm/hr 0.00 in0.0 mm
04:10 PM 21.9°F-5.6°C 3.3°F-15.9°C 44% 6.0 mph N9.7 kmh N 16.0 mph25.7 kmh 30.13 in1020.3 mb 0.00 in0.0 mm 0.00 in/hr0.0 mm/hr 0.00 in0.0 mm
04:09 PM 22.1°F-5.5°C 3.5°F-15.8°C 44% 9.0 mph N14.5 kmh N 16.0 mph25.7 kmh 30.13 in1020.3 mb 0.00 in0.0 mm 0.00 in/hr0.0 mm/hr 0.00 in0.0 mm
04:08 PM 22.2°F-5.4°C 3.6°F-15.8°C 44% 13.0 mph NNW20.9 kmh NNW 16.0 mph25.7 kmh 30.13 in1020.3 mb 0.00 in0.0 mm 0.00 in/hr0.0 mm/hr 0.00 in0.0 mm
04:05 PM 22.5°F-5.3°C 4.4°F-15.3°C 45% 10.0 mph NNE16.1 kmh NNE 16.0 mph25.7 kmh 30.12 in1020.0 mb 0.00 in0.0 mm 0.00 in/hr0.0 mm/hr 0.00 in0.0 mm
04:04 PM 22.6°F-5.2°C 4.5°F-15.3°C 45% 10.0 mph NNE16.1 kmh NNE 16.0 mph25.7 kmh 30.13 in1020.3 mb 0.00 in0.0 mm 0.00 in/hr0.0 mm/hr 0.00 in0.0 mm
04:03 PM 22.5°F-5.3°C 4.4°F-15.3°C 45% 4.0 mph NNE6.4 kmh NNE 14.0 mph22.5 kmh 30.13 in1020.3 mb 0.00 in0.0 mm 0.00 in/hr0.0 mm/hr 0.00 in0.0 mm
04:00 PM 22.4°F-5.3°C 4.8°F-15.1°C 46% 9.0 mph N14.5 kmh N 9.0 mph14.5 kmh 30.12 in1020.0 mb 0.00 in0.0 mm 0.00 in/hr0.0 mm/hr 0.00 in0.0 mm
03:59 PM 22.4°F-5.3°C 4.3°F-15.4°C 45% 3.0 mph NNW4.8 kmh NNW 16.0 mph25.7 kmh 30.12 in1020.0 mb 0.00 in0.0 mm 0.00 in/hr0.0 mm/hr 0.00 in0.0 mm
03:58 PM 22.4°F-5.3°C 4.8°F-15.1°C 46% 8.0 mph NNW12.9 kmh NNW 16.0 mph25.7 kmh 30.12 in1020.0 mb 0.00 in0.0 mm 0.00 in/hr0.0 mm/hr 0.00 in0.0 mm
03:55 PM 22.3°F-5.4°C 4.2°F-15.4°C 45% 9.0 mph NW14.5 kmh NW 16.0 mph25.7 kmh 30.12 in1020.0 mb 0.00 in0.0 mm 0.00 in/hr0.0 mm/hr 0.00 in0.0 mm
03:54 PM 22.4°F-5.3°C 4.8°F-15.1°C 46% 5.0 mph N8.0 kmh N 16.0 mph25.7 kmh 30.12 in1020.0 mb 0.00 in0.0 mm 0.00 in/hr0.0 mm/hr 0.00 in0.0 mm
03:53 PM 22.5°F-5.3°C 4.9°F-15.1°C 46% 10.0 mph NNW16.1 kmh NNW 16.0 mph25.7 kmh 30.12 in1020.0 mb 0.00 in0.0 mm 0.00 in/hr0.0 mm/hr 0.00 in0.0 mm
03:50 PM 22.7°F-5.2°C 4.6°F-15.2°C 45% 8.0 mph N12.9 kmh N 16.0 mph25.7 kmh 30.12 in1020.0 mb 0.00 in0.0 mm 0.00 in/hr0.0 mm/hr 0.00 in0.0 mm
03:49 PM 22.8°F-5.1°C 5.1°F-14.9°C 46% 11.0 mph N17.7 kmh N 16.0 mph25.7 kmh 30.12 in1020.0 mb 0.00 in0.0 mm 0.00 in/hr0.0 mm/hr 0.00 in0.0 mm
03:48 PM 22.8°F-5.1°C 5.1°F-14.9°C 46% 12.0 mph N19.3 kmh N 16.0 mph25.7 kmh 30.12 in1020.0 mb 0.00 in0.0 mm 0.00 in/hr0.0 mm/hr 0.00 in0.0 mm
03:45 PM 22.9°F-5.1°C 4.8°F-15.1°C 45% 9.0 mph NW14.5 kmh NW 13.0 mph20.9 kmh 30.11 in1019.6 mb 0.00 in0.0 mm 0.00 in/hr0.0 mm/hr 0.00 in0.0 mm
03:44 PM 23.0°F-5.0°C 4.8°F-15.1°C 45% 8.0 mph N12.9 kmh N 13.0 mph20.9 kmh 30.11 in1019.6 mb 0.00 in0.0 mm 0.00 in/hr0.0 mm/hr 0.00 in0.0 mm
03:43 PM 23.2°F-4.9°C 5.0°F-15.0°C 45% 8.0 mph NNW12.9 kmh NNW 13.0 mph20.9 kmh 30.11 in1019.6 mb 0.00 in0.0 mm 0.00 in/hr0.0 mm/hr 0.00 in0.0 mm
03:40 PM 23.2°F-4.9°C 5.0°F-15.0°C 45% 6.0 mph N9.7 kmh N 13.0 mph20.9 kmh 30.11 in1019.6 mb 0.00 in0.0 mm 0.00 in/hr0.0 mm/hr 0.00 in0.0 mm
03:39 PM 23.1°F-4.9°C 4.4°F-15.3°C 44% 2.0 mph NW3.2 kmh NW 13.0 mph20.9 kmh 30.11 in1019.6 mb 0.00 in0.0 mm 0.00 in/hr0.0 mm/hr 0.00 in0.0 mm
03:38 PM 23.2°F-4.9°C 4.5°F-15.3°C 44% 3.0 mph NW4.8 kmh NW 13.0 mph20.9 kmh 30.11 in1019.6 mb 0.00 in0.0 mm 0.00 in/hr0.0 mm/hr 0.00 in0.0 mm
03:35 PM 23.4°F-4.8°C 4.2°F-15.4°C 43% 4.0 mph N6.4 kmh N 13.0 mph20.9 kmh 30.11 in1019.6 mb 0.00 in0.0 mm 0.00 in/hr0.0 mm/hr 0.00 in0.0 mm
03:34 PM 23.5°F-4.7°C 4.3°F-15.4°C 43% 4.0 mph N6.4 kmh N 13.0 mph20.9 kmh 30.11 in1019.6 mb 0.00 in0.0 mm 0.00 in/hr0.0 mm/hr 0.00 in0.0 mm
03:33 PM 23.6°F-4.7°C 3.9°F-15.6°C 42% 9.0 mph NNE14.5 kmh NNE 13.0 mph20.9 kmh 30.11 in1019.6 mb 0.00 in0.0 mm 0.00 in/hr0.0 mm/hr 0.00 in0.0 mm
03:30 PM 23.8°F-4.6°C 3.6°F-15.8°C 41% 3.0 mph N4.8 kmh N 13.0 mph20.9 kmh 30.11 in1019.6 mb 0.00 in0.0 mm 0.00 in/hr0.0 mm/hr 0.00 in0.0 mm
03:29 PM 23.9°F-4.5°C 3.6°F-15.8°C 41% 4.0 mph N6.4 kmh N 13.0 mph20.9 kmh 30.11 in1019.6 mb 0.00 in0.0 mm 0.00 in/hr0.0 mm/hr 0.00 in0.0 mm
03:28 PM 23.9°F-4.5°C 3.6°F-15.8°C 41% 8.0 mph NNE12.9 kmh NNE 13.0 mph20.9 kmh 30.11 in1019.6 mb 0.00 in0.0 mm 0.00 in/hr0.0 mm/hr 0.00 in0.0 mm
03:25 PM 23.8°F-4.6°C 3.6°F-15.8°C 41% 4.0 mph NNW6.4 kmh NNW 13.0 mph20.9 kmh 30.11 in1019.6 mb 0.00 in0.0 mm 0.00 in/hr0.0 mm/hr 0.00 in0.0 mm
03:24 PM 24.0°F-4.4°C 4.3°F-15.4°C 42% 9.0 mph NNW14.5 kmh NNW 13.0 mph20.9 kmh 30.11 in1019.6 mb 0.00 in0.0 mm 0.00 in/hr0.0 mm/hr 0.00 in0.0 mm
03:23 PM 24.0°F-4.4°C 4.8°F-15.1°C 43% 7.0 mph NE11.3 kmh NE 13.0 mph20.9 kmh 30.11 in1019.6 mb 0.00 in0.0 mm 0.00 in/hr0.0 mm/hr 0.00 in0.0 mm
03:20 PM 23.4°F-4.8°C 4.7°F-15.2°C 44% Calm Calm 13.0 mph20.9 kmh 30.10 in1019.3 mb 0.00 in0.0 mm 0.00 in/hr0.0 mm/hr 0.00 in0.0 mm
03:19 PM 23.2°F-4.9°C 4.0°F-15.6°C 43% 6.0 mph NNE9.7 kmh NNE 13.0 mph20.9 kmh 30.10 in1019.3 mb 0.00 in0.0 mm 0.00 in/hr0.0 mm/hr 0.00 in0.0 mm
03:18 PM 23.2°F-4.9°C 4.0°F-15.6°C 43% 7.0 mph N11.3 kmh N 13.0 mph20.9 kmh 30.11 in1019.6 mb 0.00 in0.0 mm 0.00 in/hr0.0 mm/hr 0.00 in0.0 mm
03:15 PM 23.1°F-4.9°C 4.4°F-15.3°C 44% 10.0 mph NNE16.1 kmh NNE 13.0 mph20.9 kmh 30.10 in1019.3 mb 0.00 in0.0 mm 0.00 in/hr0.0 mm/hr 0.00 in0.0 mm
03:14 PM 23.1°F-4.9°C 3.9°F-15.6°C 43% 1.0 mph NNE1.6 kmh NNE 13.0 mph20.9 kmh 30.10 in1019.3 mb 0.00 in0.0 mm 0.00 in/hr0.0 mm/hr 0.00 in0.0 mm
03:13 PM 23.1°F-4.9°C 4.4°F-15.3°C 44% 6.0 mph NNE9.7 kmh NNE 13.0 mph20.9 kmh 30.10 in1019.3 mb 0.00 in0.0 mm 0.00 in/hr0.0 mm/hr 0.00 in0.0 mm
03:10 PM 22.9°F-5.1°C 4.3°F-15.4°C 44% 7.0 mph N11.3 kmh N 13.0 mph20.9 kmh 30.10 in1019.3 mb 0.00 in0.0 mm 0.00 in/hr0.0 mm/hr 0.00 in0.0 mm
03:09 PM 22.9°F-5.1°C 4.3°F-15.4°C 44% 9.0 mph N14.5 kmh N 13.0 mph20.9 kmh 30.10 in1019.3 mb 0.00 in0.0 mm 0.00 in/hr0.0 mm/hr 0.00 in0.0 mm
03:08 PM 22.7°F-5.2°C 3.6°F-15.8°C 43% 5.0 mph NE8.0 kmh NE 13.0 mph20.9 kmh 30.10 in1019.3 mb 0.00 in0.0 mm 0.00 in/hr0.0 mm/hr 0.00 in0.0 mm
03:05 PM 22.8°F-5.1°C 3.2°F-16.0°C 42% 7.0 mph N11.3 kmh N 13.0 mph20.9 kmh 30.10 in1019.3 mb 0.00 in0.0 mm 0.00 in/hr0.0 mm/hr 0.00 in0.0 mm
03:04 PM 22.8°F-5.1°C 2.6°F-16.3°C 41% 7.0 mph N11.3 kmh N 13.0 mph20.9 kmh 30.10 in1019.3 mb 0.00 in0.0 mm 0.00 in/hr0.0 mm/hr 0.00 in0.0 mm
03:03 PM 22.9°F-5.1°C 3.3°F-15.9°C 42% 9.0 mph N14.5 kmh N 13.0 mph20.9 kmh 30.10 in1019.3 mb 0.00 in0.0 mm 0.00 in/hr0.0 mm/hr 0.00 in0.0 mm
03:00 PM 23.0°F-5.0°C 3.3°F-15.9°C 42% 5.0 mph NNE8.0 kmh NNE 7.0 mph11.3 kmh 30.10 in1019.3 mb 0.00 in0.0 mm 0.00 in/hr0.0 mm/hr 0.00 in0.0 mm
02:59 PM 23.1°F-4.9°C 5.9°F-14.5°C 47% 9.0 mph NE14.5 kmh NE 15.0 mph24.1 kmh 30.10 in1019.3 mb 0.00 in0.0 mm 0.00 in/hr0.0 mm/hr 0.00 in0.0 mm
02:58 PM 23.2°F-4.9°C 4.5°F-15.3°C 44% 5.0 mph NNW8.0 kmh NNW 15.0 mph24.1 kmh 30.10 in1019.3 mb 0.00 in0.0 mm 0.00 in/hr0.0 mm/hr 0.00 in0.0 mm
02:55 PM 23.1°F-4.9°C 4.9°F-15.1°C 45% 7.0 mph N11.3 kmh N 15.0 mph24.1 kmh 30.10 in1019.3 mb 0.00 in0.0 mm 0.00 in/hr0.0 mm/hr 0.00 in0.0 mm
02:54 PM 23.0°F-5.0°C 4.8°F-15.1°C 45% 6.0 mph NNE9.7 kmh NNE 15.0 mph24.1 kmh 30.10 in1019.3 mb 0.00 in0.0 mm 0.00 in/hr0.0 mm/hr 0.00 in0.0 mm
02:53 PM 23.0°F-5.0°C 4.8°F-15.1°C 45% 8.0 mph N12.9 kmh N 15.0 mph24.1 kmh 30.10 in1019.3 mb 0.00 in0.0 mm 0.00 in/hr0.0 mm/hr 0.00 in0.0 mm
02:50 PM 22.7°F-5.2°C 4.6°F-15.2°C 45% 4.0 mph NNE6.4 kmh NNE 15.0 mph24.1 kmh 30.10 in1019.3 mb 0.00 in0.0 mm 0.00 in/hr0.0 mm/hr 0.00 in0.0 mm
02:49 PM 22.7°F-5.2°C 5.0°F-15.0°C 46% 3.0 mph N4.8 kmh N 15.0 mph24.1 kmh 30.09 in1019.0 mb 0.00 in0.0 mm 0.00 in/hr0.0 mm/hr 0.00 in0.0 mm
02:48 PM 22.6°F-5.2°C 5.4°F-14.8°C 47% 11.0 mph NE17.7 kmh NE 14.0 mph22.5 kmh 30.09 in1019.0 mb 0.00 in0.0 mm 0.00 in/hr0.0 mm/hr 0.00 in0.0 mm
02:45 PM 22.3°F-5.4°C 4.7°F-15.2°C 46% 2.0 mph N3.2 kmh N 14.0 mph22.5 kmh 30.09 in1019.0 mb 0.00 in0.0 mm 0.00 in/hr0.0 mm/hr 0.00 in0.0 mm
02:44 PM 22.3°F-5.4°C 4.7°F-15.2°C 46% 7.0 mph N11.3 kmh N 14.0 mph22.5 kmh 30.09 in1019.0 mb 0.00 in0.0 mm 0.00 in/hr0.0 mm/hr 0.00 in0.0 mm
02:43 PM 22.4°F-5.3°C 5.2°F-14.9°C 47% 7.0 mph NE11.3 kmh NE 14.0 mph22.5 kmh 30.09 in1019.0 mb 0.00 in0.0 mm 0.00 in/hr0.0 mm/hr 0.00 in0.0 mm
02:40 PM 22.4°F-5.3°C 5.2°F-14.9°C 47% 7.0 mph N11.3 kmh N 14.0 mph22.5 kmh 30.09 in1019.0 mb 0.00 in0.0 mm 0.00 in/hr0.0 mm/hr 0.00 in0.0 mm
02:39 PM 22.5°F-5.3°C 4.9°F-15.1°C 46% 9.0 mph NNW14.5 kmh NNW 14.0 mph22.5 kmh 30.09 in1019.0 mb 0.00 in0.0 mm 0.00 in/hr0.0 mm/hr 0.00 in0.0 mm
02:38 PM 22.6°F-5.2°C 5.0°F-15.0°C 46% 5.0 mph N8.0 kmh N 14.0 mph22.5 kmh 30.09 in1019.0 mb 0.00 in0.0 mm 0.00 in/hr0.0 mm/hr 0.00 in0.0 mm
02:35 PM 23.4°F-4.8°C 5.7°F-14.6°C 46% 7.0 mph N11.3 kmh N 14.0 mph22.5 kmh 30.09 in1019.0 mb 0.00 in0.0 mm 0.00 in/hr0.0 mm/hr 0.00 in0.0 mm
02:34 PM 23.5°F-4.7°C 6.3°F-14.3°C 47% 5.0 mph N8.0 kmh N 14.0 mph22.5 kmh 30.09 in1019.0 mb 0.00 in0.0 mm 0.00 in/hr0.0 mm/hr 0.00 in0.0 mm
02:33 PM 23.4°F-4.8°C 5.7°F-14.6°C 46% 9.0 mph N14.5 kmh N 14.0 mph22.5 kmh 30.09 in1019.0 mb 0.00 in0.0 mm 0.00 in/hr0.0 mm/hr 0.00 in0.0 mm
02:30 PM 23.4°F-4.8°C 5.2°F-14.9°C 45% 7.0 mph NNW11.3 kmh NNW 14.0 mph22.5 kmh 30.09 in1019.0 mb 0.00 in0.0 mm 0.00 in/hr0.0 mm/hr 0.00 in0.0 mm
02:29 PM 23.4°F-4.8°C 4.7°F-15.2°C 44% 8.0 mph NW12.9 kmh NW 14.0 mph22.5 kmh 30.09 in1019.0 mb 0.00 in0.0 mm 0.00 in/hr0.0 mm/hr 0.00 in0.0 mm
02:28 PM 23.3°F-4.8°C 3.6°F-15.8°C 42% 6.0 mph NNE9.7 kmh NNE 14.0 mph22.5 kmh 30.09 in1019.0 mb 0.00 in0.0 mm 0.00 in/hr0.0 mm/hr 0.00 in0.0 mm
02:25 PM 23.3°F-4.8°C 4.1°F-15.5°C 43% 5.0 mph N8.0 kmh N 12.0 mph19.3 kmh 30.09 in1019.0 mb 0.00 in0.0 mm 0.00 in/hr0.0 mm/hr 0.00 in0.0 mm
02:24 PM 23.2°F-4.9°C 4.0°F-15.6°C 43% 7.0 mph NNE11.3 kmh NNE 12.0 mph19.3 kmh 30.09 in1019.0 mb 0.00 in0.0 mm 0.00 in/hr0.0 mm/hr 0.00 in0.0 mm
02:23 PM 23.1°F-4.9°C 5.4°F-14.8°C 46% 4.0 mph N6.4 kmh N 12.0 mph19.3 kmh 30.09 in1019.0 mb 0.00 in0.0 mm 0.00 in/hr0.0 mm/hr 0.00 in0.0 mm
02:20 PM 23.1°F-4.9°C 4.4°F-15.3°C 44% 5.0 mph NNE8.0 kmh NNE 12.0 mph19.3 kmh 30.08 in1018.6 mb 0.00 in0.0 mm 0.00 in/hr0.0 mm/hr 0.00 in0.0 mm
02:19 PM 23.0°F-5.0°C 3.9°F-15.6°C 43% 4.0 mph NNE6.4 kmh NNE 12.0 mph19.3 kmh 30.09 in1019.0 mb 0.00 in0.0 mm 0.00 in/hr0.0 mm/hr 0.00 in0.0 mm
02:18 PM 23.1°F-4.9°C 5.4°F-14.8°C 46% 7.0 mph NNE11.3 kmh NNE 12.0 mph19.3 kmh 30.09 in1019.0 mb 0.00 in0.0 mm 0.00 in/hr0.0 mm/hr 0.00 in0.0 mm
02:15 PM 23.2°F-4.9°C 4.5°F-15.3°C 44% 9.0 mph NE14.5 kmh NE 10.0 mph16.1 kmh 30.09 in1019.0 mb 0.00 in0.0 mm 0.00 in/hr0.0 mm/hr 0.00 in0.0 mm
02:14 PM 23.3°F-4.8°C 4.6°F-15.2°C 44% 6.0 mph N9.7 kmh N 9.0 mph14.5 kmh 30.09 in1019.0 mb 0.00 in0.0 mm 0.00 in/hr0.0 mm/hr 0.00 in0.0 mm
02:13 PM 23.2°F-4.9°C 4.5°F-15.3°C 44% 6.0 mph NNE9.7 kmh NNE 9.0 mph14.5 kmh 30.09 in1019.0 mb 0.00 in0.0 mm 0.00 in/hr0.0 mm/hr 0.00 in0.0 mm
02:10 PM 23.2°F-4.9°C 4.5°F-15.3°C 44% 1.0 mph N1.6 kmh N 9.0 mph14.5 kmh 30.09 in1019.0 mb 0.00 in0.0 mm 0.00 in/hr0.0 mm/hr 0.00 in0.0 mm
02:09 PM 23.3°F-4.8°C 5.1°F-14.9°C 45% 5.0 mph N8.0 kmh N 9.0 mph14.5 kmh 30.09 in1019.0 mb 0.00 in0.0 mm 0.00 in/hr0.0 mm/hr 0.00 in0.0 mm
02:08 PM 23.2°F-4.9°C 5.0°F-15.0°C 45% 4.0 mph N6.4 kmh N 9.0 mph14.5 kmh 30.09 in1019.0 mb 0.00 in0.0 mm 0.00 in/hr0.0 mm/hr 0.00 in0.0 mm
02:05 PM 23.1°F-4.9°C 4.4°F-15.3°C 44% 8.0 mph N12.9 kmh N 8.0 mph12.9 kmh 30.09 in1019.0 mb 0.00 in0.0 mm 0.00 in/hr0.0 mm/hr 0.00 in0.0 mm
02:04 PM 23.1°F-4.9°C 4.9°F-15.1°C 45% 4.0 mph NW6.4 kmh NW 7.0 mph11.3 kmh 30.09 in1019.0 mb 0.00 in0.0 mm 0.00 in/hr0.0 mm/hr 0.00 in0.0 mm
02:03 PM 23.1°F-4.9°C 4.9°F-15.1°C 45% 6.0 mph NNW9.7 kmh NNW 7.0 mph11.3 kmh 30.09 in1019.0 mb 0.00 in0.0 mm 0.00 in/hr0.0 mm/hr 0.00 in0.0 mm
02:00 PM 22.8°F-5.1°C 5.1°F-14.9°C 46% 4.0 mph NNE6.4 kmh NNE 4.0 mph6.4 kmh 30.09 in1019.0 mb 0.00 in0.0 mm 0.00 in/hr0.0 mm/hr 0.00 in0.0 mm
01:59 PM 22.6°F-5.2°C 5.0°F-15.0°C 46% 4.0 mph NNE6.4 kmh NNE 12.0 mph19.3 kmh 30.09 in1019.0 mb 0.00 in0.0 mm 0.00 in/hr0.0 mm/hr 0.00 in0.0 mm
01:58 PM 22.5°F-5.3°C 4.4°F-15.3°C 45% 7.0 mph N11.3 kmh N 12.0 mph19.3 kmh 30.09 in1019.0 mb 0.00 in0.0 mm 0.00 in/hr0.0 mm/hr 0.00 in0.0 mm
01:55 PM 22.4°F-5.3°C 3.8°F-15.7°C 44% 6.0 mph N9.7 kmh N 12.0 mph19.3 kmh 30.09 in1019.0 mb 0.00 in0.0 mm 0.00 in/hr0.0 mm/hr 0.00 in0.0 mm
01:54 PM 22.5°F-5.3°C 3.9°F-15.6°C 44% 4.0 mph N6.4 kmh N 12.0 mph19.3 kmh 30.09 in1019.0 mb 0.00 in0.0 mm 0.00 in/hr0.0 mm/hr 0.00 in0.0 mm
01:53 PM 22.6°F-5.2°C 4.0°F-15.6°C 44% 3.0 mph NE4.8 kmh NE 11.0 mph17.7 kmh 30.09 in1019.0 mb 0.00 in0.0 mm 0.00 in/hr0.0 mm/hr 0.00 in0.0 mm
01:50 PM 22.7°F-5.2°C 4.6°F-15.2°C 45% 7.0 mph NNE11.3 kmh NNE 11.0 mph17.7 kmh 30.09 in1019.0 mb 0.00 in0.0 mm 0.00 in/hr0.0 mm/hr 0.00 in0.0 mm
01:49 PM 22.6°F-5.2°C 4.5°F-15.3°C 45% 4.0 mph NNE6.4 kmh NNE 11.0 mph17.7 kmh 30.09 in1019.0 mb 0.00 in0.0 mm 0.00 in/hr0.0 mm/hr 0.00 in0.0 mm
01:48 PM 22.6°F-5.2°C 4.0°F-15.6°C 44% 4.0 mph NNE6.4 kmh NNE 11.0 mph17.7 kmh 30.09 in1019.0 mb 0.00 in0.0 mm 0.00 in/hr0.0 mm/hr 0.00 in0.0 mm
01:45 PM 22.7°F-5.2°C 5.5°F-14.7°C 47% 2.0 mph N3.2 kmh N 11.0 mph17.7 kmh 30.09 in1019.0 mb 0.00 in0.0 mm 0.00 in/hr0.0 mm/hr 0.00 in0.0 mm
01:44 PM 22.6°F-5.2°C 5.4°F-14.8°C 47% 6.0 mph NNW9.7 kmh NNW 11.0 mph17.7 kmh 30.09 in1019.0 mb 0.00 in0.0 mm 0.00 in/hr0.0 mm/hr 0.00 in0.0 mm
01:43 PM 22.3°F-5.4°C 4.7°F-15.2°C 46% 3.0 mph N4.8 kmh N 11.0 mph17.7 kmh 30.09 in1019.0 mb 0.00 in0.0 mm 0.00 in/hr0.0 mm/hr 0.00 in0.0 mm
01:40 PM 22.6°F-5.2°C 5.0°F-15.0°C 46% 11.0 mph NNE17.7 kmh NNE 11.0 mph17.7 kmh 30.09 in1019.0 mb 0.00 in0.0 mm 0.00 in/hr0.0 mm/hr 0.00 in0.0 mm
01:39 PM 22.7°F-5.2°C 5.5°F-14.7°C 47% 7.0 mph NNW11.3 kmh NNW 11.0 mph17.7 kmh 30.09 in1019.0 mb 0.00 in0.0 mm 0.00 in/hr0.0 mm/hr 0.00 in0.0 mm
01:38 PM 22.7°F-5.2°C 6.0°F-14.4°C 48% 4.0 mph N6.4 kmh N 10.0 mph16.1 kmh 30.09 in1019.0 mb 0.00 in0.0 mm 0.00 in/hr0.0 mm/hr 0.00 in0.0 mm
01:35 PM 22.5°F-5.3°C 5.8°F-14.6°C 48% Calm Calm 10.0 mph16.1 kmh 30.09 in1019.0 mb 0.00 in0.0 mm 0.00 in/hr0.0 mm/hr 0.00 in0.0 mm
01:34 PM 22.3°F-5.4°C 6.1°F-14.4°C 49% Calm Calm 10.0 mph16.1 kmh 30.09 in1019.0 mb 0.00 in0.0 mm 0.00 in/hr0.0 mm/hr 0.00 in0.0 mm
01:33 PM 22.3°F-5.4°C 6.1°F-14.4°C 49% Calm Calm 10.0 mph16.1 kmh 30.09 in1019.0 mb 0.00 in0.0 mm 0.00 in/hr0.0 mm/hr 0.00 in0.0 mm
01:30 PM 22.0°F-5.6°C 5.8°F-14.6°C 49% 5.0 mph NW8.0 kmh NW 10.0 mph16.1 kmh 30.09 in1019.0 mb 0.00 in0.0 mm 0.00 in/hr0.0 mm/hr 0.00 in0.0 mm
01:29 PM 21.9°F-5.6°C 5.2°F-14.9°C 48% 3.0 mph NW4.8 kmh NW 10.0 mph16.1 kmh 30.09 in1019.0 mb 0.00 in0.0 mm 0.00 in/hr0.0 mm/hr 0.00 in0.0 mm
01:28 PM 21.8°F-5.7°C 5.1°F-14.9°C 48% 2.0 mph NNW3.2 kmh NNW 10.0 mph16.1 kmh 30.09 in1019.0 mb 0.00 in0.0 mm 0.00 in/hr0.0 mm/hr 0.00 in0.0 mm
01:25 PM 22.0°F-5.6°C 4.9°F-15.1°C 47% 5.0 mph N8.0 kmh N 10.0 mph16.1 kmh 30.09 in1019.0 mb 0.00 in0.0 mm 0.00 in/hr0.0 mm/hr 0.00 in0.0 mm
01:24 PM 22.1°F-5.5°C 5.0°F-15.0°C 47% 3.0 mph N4.8 kmh N 10.0 mph16.1 kmh 30.09 in1019.0 mb 0.00 in0.0 mm 0.00 in/hr0.0 mm/hr 0.00 in0.0 mm
01:23 PM 22.3°F-5.4°C 5.6°F-14.7°C 48% 5.0 mph N8.0 kmh N 10.0 mph16.1 kmh 30.09 in1019.0 mb 0.00 in0.0 mm 0.00 in/hr0.0 mm/hr 0.00 in0.0 mm
01:20 PM 22.3°F-5.4°C 6.5°F-14.2°C 50% Calm Calm 10.0 mph16.1 kmh 30.09 in1019.0 mb 0.00 in0.0 mm 0.00 in/hr0.0 mm/hr 0.00 in0.0 mm
01:19 PM 22.2°F-5.4°C 6.4°F-14.2°C 50% 2.0 mph N3.2 kmh N 10.0 mph16.1 kmh 30.09 in1019.0 mb 0.00 in0.0 mm 0.00 in/hr0.0 mm/hr 0.00 in0.0 mm
01:18 PM 22.2°F-5.4°C 6.0°F-14.4°C 49% 1.0 mph N1.6 kmh N 10.0 mph16.1 kmh 30.09 in1019.0 mb 0.00 in0.0 mm 0.00 in/hr0.0 mm/hr 0.00 in0.0 mm
01:15 PM 21.9°F-5.6°C 6.6°F-14.1°C 51% 5.0 mph NW8.0 kmh NW 10.0 mph16.1 kmh 30.09 in1019.0 mb 0.00 in0.0 mm 0.00 in/hr0.0 mm/hr 0.00 in0.0 mm
01:14 PM 21.7°F-5.7°C 6.4°F-14.2°C 51% 2.0 mph NW3.2 kmh NW 10.0 mph16.1 kmh 30.09 in1019.0 mb 0.00 in0.0 mm 0.00 in/hr0.0 mm/hr 0.00 in0.0 mm
01:13 PM 21.6°F-5.8°C 6.3°F-14.3°C 51% 4.0 mph NW6.4 kmh NW 10.0 mph16.1 kmh 30.09 in1019.0 mb 0.00 in0.0 mm 0.00 in/hr0.0 mm/hr 0.00 in0.0 mm
01:10 PM 21.4°F-5.9°C 6.1°F-14.4°C 51% 3.0 mph NNW4.8 kmh NNW 10.0 mph16.1 kmh 30.10 in1019.3 mb 0.00 in0.0 mm 0.00 in/hr0.0 mm/hr 0.00 in0.0 mm
01:09 PM 21.4°F-5.9°C 6.1°F-14.4°C 51% 10.0 mph N16.1 kmh N 10.0 mph16.1 kmh 30.10 in1019.3 mb 0.00 in0.0 mm 0.00 in/hr0.0 mm/hr 0.00 in0.0 mm
01:08 PM 21.2°F-6.0°C 5.9°F-14.5°C 51% Calm Calm 6.0 mph9.7 kmh 30.10 in1019.3 mb 0.00 in0.0 mm 0.00 in/hr0.0 mm/hr 0.00 in0.0 mm
01:05 PM 21.0°F-6.1°C 5.7°F-14.6°C 51% 4.0 mph N6.4 kmh N 6.0 mph9.7 kmh 30.10 in1019.3 mb 0.00 in0.0 mm 0.00 in/hr0.0 mm/hr 0.00 in0.0 mm
01:04 PM 21.0°F-6.1°C 6.2°F-14.3°C 52% 4.0 mph N6.4 kmh N 6.0 mph9.7 kmh 30.10 in1019.3 mb 0.00 in0.0 mm 0.00 in/hr0.0 mm/hr 0.00 in0.0 mm
01:03 PM 20.9°F-6.2°C 5.6°F-14.7°C 51% 3.0 mph N4.8 kmh N 6.0 mph9.7 kmh 30.10 in1019.3 mb 0.00 in0.0 mm 0.00 in/hr0.0 mm/hr 0.00 in0.0 mm
01:00 PM 20.8°F-6.2°C 5.5°F-14.7°C 51% 5.0 mph N8.0 kmh N 6.0 mph9.7 kmh 30.10 in1019.3 mb 0.00 in0.0 mm 0.00 in/hr0.0 mm/hr 0.00 in0.0 mm
12:59 PM 20.8°F-6.2°C 5.5°F-14.7°C 51% 3.0 mph N4.8 kmh N 14.0 mph22.5 kmh 30.10 in1019.3 mb 0.00 in0.0 mm 0.00 in/hr0.0 mm/hr 0.00 in0.0 mm
12:58 PM 20.8°F-6.2°C 5.1°F-14.9°C 50% 5.0 mph N8.0 kmh N 14.0 mph22.5 kmh 30.10 in1019.3 mb 0.00 in0.0 mm 0.00 in/hr0.0 mm/hr 0.00 in0.0 mm
12:55 PM 21.0°F-6.1°C 6.2°F-14.3°C 52% 7.0 mph N11.3 kmh N 11.0 mph17.7 kmh 30.10 in1019.3 mb 0.00 in0.0 mm 0.00 in/hr0.0 mm/hr 0.00 in0.0 mm
12:54 PM 21.1°F-6.1°C 6.2°F-14.3°C 52% 6.0 mph N9.7 kmh N 11.0 mph17.7 kmh 30.10 in1019.3 mb 0.00 in0.0 mm 0.00 in/hr0.0 mm/hr 0.00 in0.0 mm
12:53 PM 21.2°F-6.0°C 6.3°F-14.3°C 52% 6.0 mph NNE9.7 kmh NNE 11.0 mph17.7 kmh 30.10 in1019.3 mb 0.00 in0.0 mm 0.00 in/hr0.0 mm/hr 0.00 in0.0 mm
12:50 PM 21.0°F-6.1°C 7.0°F-13.9°C 54% 3.0 mph NE4.8 kmh NE 11.0 mph17.7 kmh 30.10 in1019.3 mb 0.00 in0.0 mm 0.00 in/hr0.0 mm/hr 0.00 in0.0 mm
12:49 PM 20.8°F-6.2°C 6.8°F-14.0°C 54% 4.0 mph NE6.4 kmh NE 11.0 mph17.7 kmh 30.10 in1019.3 mb 0.00 in0.0 mm 0.00 in/hr0.0 mm/hr 0.00 in0.0 mm
12:48 PM 20.7°F-6.3°C 6.3°F-14.3°C 53% 4.0 mph NW6.4 kmh NW 11.0 mph17.7 kmh 30.10 in1019.3 mb 0.00 in0.0 mm 0.00 in/hr0.0 mm/hr 0.00 in0.0 mm
12:45 PM 20.4°F-6.4°C 5.6°F-14.7°C 52% 2.0 mph N3.2 kmh N 11.0 mph17.7 kmh 30.10 in1019.3 mb 0.00 in0.0 mm 0.00 in/hr0.0 mm/hr 0.00 in0.0 mm
12:44 PM 20.4°F-6.4°C 5.6°F-14.7°C 52% 2.0 mph N3.2 kmh N 11.0 mph17.7 kmh 30.10 in1019.3 mb 0.00 in0.0 mm 0.00 in/hr0.0 mm/hr 0.00 in0.0 mm
12:43 PM 20.3°F-6.5°C 5.5°F-14.7°C 52% Calm Calm 11.0 mph17.7 kmh 30.10 in1019.3 mb 0.00 in0.0 mm 0.00 in/hr0.0 mm/hr 0.00 in0.0 mm
12:40 PM 20.1°F-6.6°C 6.1°F-14.4°C 54% 6.0 mph NNE9.7 kmh NNE 11.0 mph17.7 kmh 30.10 in1019.3 mb 0.00 in0.0 mm 0.00 in/hr0.0 mm/hr 0.00 in0.0 mm
12:39 PM 20.0°F-6.7°C 6.0°F-14.4°C 54% 9.0 mph NE14.5 kmh NE 11.0 mph17.7 kmh 30.10 in1019.3 mb 0.00 in0.0 mm 0.00 in/hr0.0 mm/hr 0.00 in0.0 mm
12:38 PM 19.8°F-6.8°C 5.9°F-14.5°C 54% 6.0 mph N9.7 kmh N 10.0 mph16.1 kmh 30.10 in1019.3 mb 0.00 in0.0 mm 0.00 in/hr0.0 mm/hr 0.00 in0.0 mm
12:35 PM 19.5°F-6.9°C 5.2°F-14.9°C 53% 3.0 mph N4.8 kmh N 10.0 mph16.1 kmh 30.11 in1019.6 mb 0.00 in0.0 mm 0.00 in/hr0.0 mm/hr 0.00 in0.0 mm
12:34 PM 19.4°F-7.0°C 5.1°F-14.9°C 53% 3.0 mph N4.8 kmh N 10.0 mph16.1 kmh 30.10 in1019.3 mb 0.00 in0.0 mm 0.00 in/hr0.0 mm/hr 0.00 in0.0 mm
12:33 PM 19.4°F-7.0°C 5.1°F-14.9°C 53% 5.0 mph N8.0 kmh N 10.0 mph16.1 kmh 30.11 in1019.6 mb 0.00 in0.0 mm 0.00 in/hr0.0 mm/hr 0.00 in0.0 mm
12:30 PM 19.3°F-7.1°C 5.0°F-15.0°C 53% 3.0 mph N4.8 kmh N 10.0 mph16.1 kmh 30.11 in1019.6 mb 0.00 in0.0 mm 0.00 in/hr0.0 mm/hr 0.00 in0.0 mm
12:29 PM 19.3°F-7.1°C 5.0°F-15.0°C 53% 3.0 mph N4.8 kmh N 10.0 mph16.1 kmh 30.11 in1019.6 mb 0.00 in0.0 mm 0.00 in/hr0.0 mm/hr 0.00 in0.0 mm
12:28 PM 19.5°F-6.9°C 5.6°F-14.7°C 54% Calm Calm 10.0 mph16.1 kmh 30.11 in1019.6 mb 0.00 in0.0 mm 0.00 in/hr0.0 mm/hr 0.00 in0.0 mm
12:25 PM 19.3°F-7.1°C 5.4°F-14.8°C 54% 2.0 mph N3.2 kmh N 10.0 mph16.1 kmh 30.11 in1019.6 mb 0.00 in0.0 mm 0.00 in/hr0.0 mm/hr 0.00 in0.0 mm
12:24 PM 19.2°F-7.1°C 5.3°F-14.8°C 54% Calm Calm 10.0 mph16.1 kmh 30.11 in1019.6 mb 0.00 in0.0 mm 0.00 in/hr0.0 mm/hr 0.00 in0.0 mm
12:23 PM 19.1°F-7.2°C 5.6°F-14.7°C 55% 3.0 mph NNE4.8 kmh NNE 10.0 mph16.1 kmh 30.11 in1019.6 mb 0.00 in0.0 mm 0.00 in/hr0.0 mm/hr 0.00 in0.0 mm
12:20 PM 18.9°F-7.3°C 5.4°F-14.8°C 55% Calm Calm 9.0 mph14.5 kmh 30.11 in1019.6 mb 0.00 in0.0 mm 0.00 in/hr0.0 mm/hr 0.00 in0.0 mm
12:19 PM 18.8°F-7.3°C 5.3°F-14.8°C 55% 5.0 mph NE8.0 kmh NE 9.0 mph14.5 kmh 30.11 in1019.6 mb 0.00 in0.0 mm 0.00 in/hr0.0 mm/hr 0.00 in0.0 mm
12:18 PM 18.8°F-7.3°C 5.3°F-14.8°C 55% 2.0 mph N3.2 kmh N 9.0 mph14.5 kmh 30.11 in1019.6 mb 0.00 in0.0 mm 0.00 in/hr0.0 mm/hr 0.00 in0.0 mm
12:15 PM 18.9°F-7.3°C 5.8°F-14.6°C 56% 8.0 mph N12.9 kmh N 9.0 mph14.5 kmh 30.11 in1019.6 mb 0.00 in0.0 mm 0.00 in/hr0.0 mm/hr 0.00 in0.0 mm
12:14 PM 18.8°F-7.3°C 5.7°F-14.6°C 56% 2.0 mph N3.2 kmh N 8.0 mph12.9 kmh 30.11 in1019.6 mb 0.00 in0.0 mm 0.00 in/hr0.0 mm/hr 0.00 in0.0 mm
12:13 PM 18.7°F-7.4°C 6.0°F-14.4°C 57% 1.0 mph N1.6 kmh N 8.0 mph12.9 kmh 30.11 in1019.6 mb 0.00 in0.0 mm 0.00 in/hr0.0 mm/hr 0.00 in0.0 mm
12:10 PM 18.3°F-7.6°C 7.1°F-13.8°C 61% 2.0 mph N3.2 kmh N 8.0 mph12.9 kmh 30.11 in1019.6 mb 0.00 in0.0 mm 0.00 in/hr0.0 mm/hr 0.00 in0.0 mm
12:09 PM 18.3°F-7.6°C 7.1°F-13.8°C 61% 2.0 mph N3.2 kmh N 8.0 mph12.9 kmh 30.11 in1019.6 mb 0.00 in0.0 mm 0.00 in/hr0.0 mm/hr 0.00 in0.0 mm
12:08 PM 18.4°F-7.6°C 5.3°F-14.8°C 56% 3.0 mph N4.8 kmh N 8.0 mph12.9 kmh 30.11 in1019.6 mb 0.00 in0.0 mm 0.00 in/hr0.0 mm/hr 0.00 in0.0 mm
12:05 PM 18.5°F-7.5°C 5.8°F-14.6°C 57% 2.0 mph N3.2 kmh N 8.0 mph12.9 kmh 30.11 in1019.6 mb 0.00 in0.0 mm 0.00 in/hr0.0 mm/hr 0.00 in0.0 mm
12:04 PM 18.4°F-7.6°C 6.1°F-14.4°C 58% 3.0 mph NNE4.8 kmh NNE 7.0 mph11.3 kmh 30.11 in1019.6 mb 0.00 in0.0 mm 0.00 in/hr0.0 mm/hr 0.00 in0.0 mm
12:03 PM 18.3°F-7.6°C 6.0°F-14.4°C 58% 4.0 mph NNE6.4 kmh NNE 7.0 mph11.3 kmh 30.11 in1019.6 mb 0.00 in0.0 mm 0.00 in/hr0.0 mm/hr 0.00 in0.0 mm
12:00 PM 18.1°F-7.7°C 5.8°F-14.6°C 58% 3.0 mph NNE4.8 kmh NNE 3.0 mph4.8 kmh 30.11 in1019.6 mb 0.00 in0.0 mm 0.00 in/hr0.0 mm/hr 0.00 in0.0 mm
11:59 AM 18.0°F-7.8°C 5.4°F-14.8°C 57% 4.0 mph N6.4 kmh N 11.0 mph17.7 kmh 30.12 in1020.0 mb 0.00 in0.0 mm 0.00 in/hr0.0 mm/hr 0.00 in0.0 mm
11:58 AM 17.9°F-7.8°C 5.3°F-14.8°C 57% 4.0 mph N6.4 kmh N 11.0 mph17.7 kmh 30.12 in1020.0 mb 0.00 in0.0 mm 0.00 in/hr0.0 mm/hr 0.00 in0.0 mm
11:55 AM 18.1°F-7.7°C 6.2°F-14.3°C 59% 4.0 mph N6.4 kmh N 11.0 mph17.7 kmh 30.12 in1020.0 mb 0.00 in0.0 mm 0.00 in/hr0.0 mm/hr 0.00 in0.0 mm
11:54 AM 18.1°F-7.7°C 6.2°F-14.3°C 59% 4.0 mph N6.4 kmh N 11.0 mph17.7 kmh 30.12 in1020.0 mb 0.00 in0.0 mm 0.00 in/hr0.0 mm/hr 0.00 in0.0 mm
11:53 AM 18.0°F-7.8°C 6.1°F-14.4°C 59% 3.0 mph N4.8 kmh N 11.0 mph17.7 kmh 30.12 in1020.0 mb 0.00 in0.0 mm 0.00 in/hr0.0 mm/hr 0.00 in0.0 mm
11:50 AM 17.7°F-7.9°C 6.2°F-14.3°C 60% 5.0 mph N8.0 kmh N 11.0 mph17.7 kmh 30.12 in1020.0 mb 0.00 in0.0 mm 0.00 in/hr0.0 mm/hr 0.00 in0.0 mm
11:49 AM 17.6°F-8.0°C 6.1°F-14.4°C 60% 2.0 mph N3.2 kmh N 11.0 mph17.7 kmh 30.12 in1020.0 mb 0.00 in0.0 mm 0.00 in/hr0.0 mm/hr 0.00 in0.0 mm
11:48 AM 17.5°F-8.1°C 6.0°F-14.4°C 60% Calm Calm 11.0 mph17.7 kmh 30.12 in1020.0 mb 0.00 in0.0 mm 0.00 in/hr0.0 mm/hr 0.00 in0.0 mm
11:45 AM 17.3°F-8.2°C 5.4°F-14.8°C 59% 2.0 mph N3.2 kmh N 11.0 mph17.7 kmh 30.13 in1020.3 mb 0.00 in0.0 mm 0.00 in/hr0.0 mm/hr 0.00 in0.0 mm
11:44 AM 17.3°F-8.2°C 5.4°F-14.8°C 59% 9.0 mph N14.5 kmh N 11.0 mph17.7 kmh 30.13 in1020.3 mb 0.00 in0.0 mm 0.00 in/hr0.0 mm/hr 0.00 in0.0 mm
11:43 AM 17.4°F-8.1°C 5.5°F-14.7°C 59% 6.0 mph NNW9.7 kmh NNW 11.0 mph17.7 kmh 30.13 in1020.3 mb 0.00 in0.0 mm 0.00 in/hr0.0 mm/hr 0.00 in0.0 mm
11:40 AM 17.5°F-8.1°C 5.6°F-14.7°C 59% 6.0 mph N9.7 kmh N 11.0 mph17.7 kmh 30.12 in1020.0 mb 0.00 in0.0 mm 0.00 in/hr0.0 mm/hr 0.00 in0.0 mm
11:39 AM 17.6°F-8.0°C 5.7°F-14.6°C 59% 4.0 mph N6.4 kmh N 11.0 mph17.7 kmh 30.13 in1020.3 mb 0.00 in0.0 mm 0.00 in/hr0.0 mm/hr 0.00 in0.0 mm
11:38 AM 17.6°F-8.0°C 5.7°F-14.6°C 59% 10.0 mph NNW16.1 kmh NNW 11.0 mph17.7 kmh 30.13 in1020.3 mb 0.00 in0.0 mm 0.00 in/hr0.0 mm/hr 0.00 in0.0 mm
11:35 AM 17.9°F-7.8°C 6.7°F-14.1°C 61% 7.0 mph NNW11.3 kmh NNW 11.0 mph17.7 kmh 30.12 in1020.0 mb 0.00 in0.0 mm 0.00 in/hr0.0 mm/hr 0.00 in0.0 mm
11:34 AM 17.8°F-7.9°C 6.6°F-14.1°C 61% Calm Calm 11.0 mph17.7 kmh 30.12 in1020.0 mb 0.00 in0.0 mm 0.00 in/hr0.0 mm/hr 0.00 in0.0 mm
11:33 AM 17.6°F-8.0°C 6.1°F-14.4°C 60% 2.0 mph NNW3.2 kmh NNW 11.0 mph17.7 kmh 30.12 in1020.0 mb 0.00 in0.0 mm 0.00 in/hr0.0 mm/hr 0.00 in0.0 mm
11:30 AM 17.6°F-8.0°C 6.1°F-14.4°C 60% 3.0 mph NNE4.8 kmh NNE 11.0 mph17.7 kmh 30.13 in1020.3 mb 0.00 in0.0 mm 0.00 in/hr0.0 mm/hr 0.00 in0.0 mm
11:29 AM 17.6°F-8.0°C 6.1°F-14.4°C 60% 1.0 mph NNE1.6 kmh NNE 11.0 mph17.7 kmh 30.13 in1020.3 mb 0.00 in0.0 mm 0.00 in/hr0.0 mm/hr 0.00 in0.0 mm
11:28 AM 17.6°F-8.0°C 6.1°F-14.4°C 60% 2.0 mph NNE3.2 kmh NNE 11.0 mph17.7 kmh 30.13 in1020.3 mb 0.00 in0.0 mm 0.00 in/hr0.0 mm/hr 0.00 in0.0 mm
11:25 AM 17.5°F-8.1°C 6.4°F-14.2°C 61% 1.0 mph NE1.6 kmh NE 11.0 mph17.7 kmh 30.12 in1020.0 mb 0.00 in0.0 mm 0.00 in/hr0.0 mm/hr 0.00 in0.0 mm
11:24 AM 17.3°F-8.2°C 6.2°F-14.3°C 61% 2.0 mph NNE3.2 kmh NNE 11.0 mph17.7 kmh 30.12 in1020.0 mb 0.00 in0.0 mm 0.00 in/hr0.0 mm/hr 0.00 in0.0 mm
11:23 AM 17.3°F-8.2°C 6.2°F-14.3°C 61% 6.0 mph N9.7 kmh N 11.0 mph17.7 kmh 30.12 in1020.0 mb 0.00 in0.0 mm 0.00 in/hr0.0 mm/hr 0.00 in0.0 mm
11:20 AM 17.4°F-8.1°C 5.9°F-14.5°C 60% 6.0 mph N9.7 kmh N 11.0 mph17.7 kmh 30.12 in1020.0 mb 0.00 in0.0 mm 0.00 in/hr0.0 mm/hr 0.00 in0.0 mm
11:19 AM 17.5°F-8.1°C 6.4°F-14.2°C 61% 6.0 mph N9.7 kmh N 11.0 mph17.7 kmh 30.12 in1020.0 mb 0.00 in0.0 mm 0.00 in/hr0.0 mm/hr 0.00 in0.0 mm
11:18 AM 17.6°F-8.0°C 6.8°F-14.0°C 62% 7.0 mph N11.3 kmh N 11.0 mph17.7 kmh 30.12 in1020.0 mb 0.00 in0.0 mm 0.00 in/hr0.0 mm/hr 0.00 in0.0 mm
11:15 AM 17.3°F-8.2°C 6.5°F-14.2°C 62% 4.0 mph N6.4 kmh N 10.0 mph16.1 kmh 30.12 in1020.0 mb 0.00 in0.0 mm 0.00 in/hr0.0 mm/hr 0.00 in0.0 mm
11:14 AM 17.3°F-8.2°C 6.5°F-14.2°C 62% 5.0 mph N8.0 kmh N 10.0 mph16.1 kmh 30.12 in1020.0 mb 0.00 in0.0 mm 0.00 in/hr0.0 mm/hr 0.00 in0.0 mm
11:13 AM 17.2°F-8.2°C 6.4°F-14.2°C 62% 5.0 mph N8.0 kmh N 10.0 mph16.1 kmh 30.12 in1020.0 mb 0.00 in0.0 mm 0.00 in/hr0.0 mm/hr 0.00 in0.0 mm
11:10 AM 17.0°F-8.3°C 6.2°F-14.3°C 62% 7.0 mph N11.3 kmh N 10.0 mph16.1 kmh 30.12 in1020.0 mb 0.00 in0.0 mm 0.00 in/hr0.0 mm/hr 0.00 in0.0 mm
11:09 AM 17.0°F-8.3°C 6.2°F-14.3°C 62% 8.0 mph NNE12.9 kmh NNE 10.0 mph16.1 kmh 30.12 in1020.0 mb 0.00 in0.0 mm 0.00 in/hr0.0 mm/hr 0.00 in0.0 mm
11:08 AM 17.0°F-8.3°C 6.6°F-14.1°C 63% 4.0 mph N6.4 kmh N 10.0 mph16.1 kmh 30.12 in1020.0 mb 0.00 in0.0 mm 0.00 in/hr0.0 mm/hr 0.00 in0.0 mm
11:05 AM 16.9°F-8.4°C 6.2°F-14.3°C 62% 2.0 mph N3.2 kmh N 10.0 mph16.1 kmh 30.12 in1020.0 mb 0.00 in0.0 mm 0.00 in/hr0.0 mm/hr 0.00 in0.0 mm
11:04 AM 17.0°F-8.3°C 6.6°F-14.1°C 63% 7.0 mph N11.3 kmh N 10.0 mph16.1 kmh 30.12 in1020.0 mb 0.00 in0.0 mm 0.00 in/hr0.0 mm/hr 0.00 in0.0 mm
11:03 AM 17.1°F-8.3°C 7.0°F-13.9°C 64% 3.0 mph N4.8 kmh N 10.0 mph16.1 kmh 30.12 in1020.0 mb 0.00 in0.0 mm 0.00 in/hr0.0 mm/hr 0.00 in0.0 mm
11:00 AM 17.2°F-8.2°C 7.5°F-13.6°C 65% 5.0 mph N8.0 kmh N 5.0 mph8.0 kmh 30.12 in1020.0 mb 0.00 in0.0 mm 0.00 in/hr0.0 mm/hr 0.00 in0.0 mm
10:59 AM 17.2°F-8.2°C 7.5°F-13.6°C 65% 3.0 mph N4.8 kmh N 11.0 mph17.7 kmh 30.12 in1020.0 mb 0.00 in0.0 mm 0.00 in/hr0.0 mm/hr 0.00 in0.0 mm
10:58 AM 17.3°F-8.2°C 7.9°F-13.4°C 66% 5.0 mph N8.0 kmh N 11.0 mph17.7 kmh 30.12 in1020.0 mb 0.00 in0.0 mm 0.00 in/hr0.0 mm/hr 0.00 in0.0 mm
10:55 AM 16.8°F-8.4°C 9.4°F-12.6°C 72% 3.0 mph N4.8 kmh N 11.0 mph17.7 kmh 30.12 in1020.0 mb 0.00 in0.0 mm 0.00 in/hr0.0 mm/hr 0.00 in0.0 mm
10:54 AM 16.6°F-8.6°C 6.9°F-13.9°C 65% 3.0 mph N4.8 kmh N 11.0 mph17.7 kmh 30.12 in1020.0 mb 0.00 in0.0 mm 0.00 in/hr0.0 mm/hr 0.00 in0.0 mm
10:53 AM 16.5°F-8.6°C 6.8°F-14.0°C 65% Calm Calm 11.0 mph17.7 kmh 30.12 in1020.0 mb 0.00 in0.0 mm 0.00 in/hr0.0 mm/hr 0.00 in0.0 mm
10:50 AM 16.4°F-8.7°C 6.7°F-14.1°C 65% 3.0 mph N4.8 kmh N 11.0 mph17.7 kmh 30.12 in1020.0 mb 0.00 in0.0 mm 0.00 in/hr0.0 mm/hr 0.00 in0.0 mm
10:49 AM 16.5°F-8.6°C 6.8°F-14.0°C 65% 5.0 mph N8.0 kmh N 11.0 mph17.7 kmh 30.12 in1020.0 mb 0.00 in0.0 mm 0.00 in/hr0.0 mm/hr 0.00 in0.0 mm
10:48 AM 16.6°F-8.6°C 7.2°F-13.8°C 66% 8.0 mph N12.9 kmh N 11.0 mph17.7 kmh 30.12 in1020.0 mb 0.00 in0.0 mm 0.00 in/hr0.0 mm/hr 0.00 in0.0 mm
10:45 AM 16.5°F-8.6°C 7.5°F-13.6°C 67% 1.0 mph N1.6 kmh N 10.0 mph16.1 kmh 30.12 in1020.0 mb 0.00 in0.0 mm 0.00 in/hr0.0 mm/hr 0.00 in0.0 mm
10:44 AM 16.5°F-8.6°C 7.5°F-13.6°C 67% 4.0 mph N6.4 kmh N 10.0 mph16.1 kmh 30.12 in1020.0 mb 0.00 in0.0 mm 0.00 in/hr0.0 mm/hr 0.00 in0.0 mm
10:43 AM 16.5°F-8.6°C 7.8°F-13.4°C 68% 6.0 mph N9.7 kmh N 10.0 mph16.1 kmh 30.12 in1020.0 mb 0.00 in0.0 mm 0.00 in/hr0.0 mm/hr 0.00 in0.0 mm
10:40 AM 16.2°F-8.8°C 7.2°F-13.8°C 67% 4.0 mph N6.4 kmh N 10.0 mph16.1 kmh 30.12 in1020.0 mb 0.00 in0.0 mm 0.00 in/hr0.0 mm/hr 0.00 in0.0 mm
10:39 AM 16.2°F-8.8°C 7.2°F-13.8°C 67% 3.0 mph N4.8 kmh N 10.0 mph16.1 kmh 30.12 in1020.0 mb 0.00 in0.0 mm 0.00 in/hr0.0 mm/hr 0.00 in0.0 mm
10:38 AM 16.1°F-8.8°C 7.1°F-13.8°C 67% 3.0 mph N4.8 kmh N 10.0 mph16.1 kmh 30.12 in1020.0 mb 0.00 in0.0 mm 0.00 in/hr0.0 mm/hr 0.00 in0.0 mm
10:35 AM 16.0°F-8.9°C 7.0°F-13.9°C 67% 4.0 mph N6.4 kmh N 10.0 mph16.1 kmh 30.12 in1020.0 mb 0.00 in0.0 mm 0.00 in/hr0.0 mm/hr 0.00 in0.0 mm
10:34 AM 16.0°F-8.9°C 7.0°F-13.9°C 67% 4.0 mph N6.4 kmh N 10.0 mph16.1 kmh 30.12 in1020.0 mb 0.00 in0.0 mm 0.00 in/hr0.0 mm/hr 0.00 in0.0 mm
10:33 AM 16.0°F-8.9°C 7.0°F-13.9°C 67% 6.0 mph N9.7 kmh N 10.0 mph16.1 kmh 30.12 in1020.0 mb 0.00 in0.0 mm 0.00 in/hr0.0 mm/hr 0.00 in0.0 mm
10:30 AM 16.3°F-8.7°C 7.6°F-13.6°C 68% 9.0 mph NNE14.5 kmh NNE 10.0 mph16.1 kmh 30.12 in1020.0 mb 0.00 in0.0 mm 0.00 in/hr0.0 mm/hr 0.00 in0.0 mm
10:29 AM 16.3°F-8.7°C 7.9°F-13.4°C 69% 8.0 mph NE12.9 kmh NE 10.0 mph16.1 kmh 30.12 in1020.0 mb 0.00 in0.0 mm 0.00 in/hr0.0 mm/hr 0.00 in0.0 mm
10:28 AM 16.2°F-8.8°C 7.8°F-13.4°C 69% 4.0 mph NNE6.4 kmh NNE 10.0 mph16.1 kmh 30.12 in1020.0 mb 0.00 in0.0 mm 0.00 in/hr0.0 mm/hr 0.00 in0.0 mm
10:25 AM 15.7°F-9.1°C 7.4°F-13.7°C 69% 1.0 mph NE1.6 kmh NE 10.0 mph16.1 kmh 30.12 in1020.0 mb 0.00 in0.0 mm 0.00 in/hr0.0 mm/hr 0.00 in0.0 mm
10:24 AM 15.6°F-9.1°C 7.3°F-13.7°C 69% 2.0 mph NE3.2 kmh NE 10.0 mph16.1 kmh 30.12 in1020.0 mb 0.00 in0.0 mm 0.00 in/hr0.0 mm/hr 0.00 in0.0 mm
10:23 AM 15.5°F-9.2°C 7.2°F-13.8°C 69% 2.0 mph NNE3.2 kmh NNE 10.0 mph16.1 kmh 30.12 in1020.0 mb 0.00 in0.0 mm 0.00 in/hr0.0 mm/hr 0.00 in0.0 mm
10:20 AM 15.4°F-9.2°C 7.1°F-13.8°C 69% 6.0 mph N9.7 kmh N 10.0 mph16.1 kmh 30.12 in1020.0 mb 0.00 in0.0 mm 0.00 in/hr0.0 mm/hr 0.00 in0.0 mm
10:19 AM 15.4°F-9.2°C 7.1°F-13.8°C 69% 6.0 mph N9.7 kmh N 10.0 mph16.1 kmh 30.12 in1020.0 mb 0.00 in0.0 mm 0.00 in/hr0.0 mm/hr 0.00 in0.0 mm
10:18 AM 15.4°F-9.2°C 7.1°F-13.8°C 69% 8.0 mph N12.9 kmh N 10.0 mph16.1 kmh 30.12 in1020.0 mb 0.00 in0.0 mm 0.00 in/hr0.0 mm/hr 0.00 in0.0 mm
10:15 AM 15.4°F-9.2°C 7.4°F-13.7°C 70% 1.0 mph NNE1.6 kmh NNE 10.0 mph16.1 kmh 30.12 in1020.0 mb 0.00 in0.0 mm 0.00 in/hr0.0 mm/hr 0.00 in0.0 mm
10:14 AM 15.3°F-9.3°C 7.3°F-13.7°C 70% 4.0 mph NNE6.4 kmh NNE 10.0 mph16.1 kmh 30.12 in1020.0 mb 0.00 in0.0 mm 0.00 in/hr0.0 mm/hr 0.00 in0.0 mm
10:13 AM 15.3°F-9.3°C 7.3°F-13.7°C 70% 8.0 mph NNE12.9 kmh NNE 10.0 mph16.1 kmh 30.12 in1020.0 mb 0.00 in0.0 mm 0.00 in/hr0.0 mm/hr 0.00 in0.0 mm
10:10 AM 15.1°F-9.4°C 7.1°F-13.8°C 70% 5.0 mph NE8.0 kmh NE 10.0 mph16.1 kmh 30.12 in1020.0 mb 0.00 in0.0 mm 0.00 in/hr0.0 mm/hr 0.00 in0.0 mm
10:09 AM 15.0°F-9.4°C 7.0°F-13.9°C 70% 3.0 mph NE4.8 kmh NE 10.0 mph16.1 kmh 30.12 in1020.0 mb 0.00 in0.0 mm 0.00 in/hr0.0 mm/hr 0.00 in0.0 mm
10:08 AM 14.9°F-9.5°C 6.9°F-13.9°C 70% Calm Calm 10.0 mph16.1 kmh 30.12 in1020.0 mb 0.00 in0.0 mm 0.00 in/hr0.0 mm/hr 0.00 in0.0 mm
10:05 AM 14.9°F-9.5°C 6.9°F-13.9°C 70% 7.0 mph NNE11.3 kmh NNE 10.0 mph16.1 kmh 30.13 in1020.3 mb 0.00 in0.0 mm 0.00 in/hr0.0 mm/hr 0.00 in0.0 mm
10:04 AM 14.8°F-9.6°C 6.8°F-14.0°C 70% 9.0 mph NE14.5 kmh NE 9.0 mph14.5 kmh 30.13 in1020.3 mb 0.00 in0.0 mm 0.00 in/hr0.0 mm/hr 0.00 in0.0 mm
10:03 AM 14.7°F-9.6°C 6.7°F-14.1°C 70% 3.0 mph NNE4.8 kmh NNE 9.0 mph14.5 kmh 30.12 in1020.0 mb 0.00 in0.0 mm 0.00 in/hr0.0 mm/hr 0.00 in0.0 mm
10:00 AM 14.5°F-9.7°C 6.2°F-14.3°C 69% 7.0 mph N11.3 kmh N 9.0 mph14.5 kmh 30.12 in1020.0 mb 0.00 in0.0 mm 0.00 in/hr0.0 mm/hr 0.00 in0.0 mm
09:59 AM 14.5°F-9.7°C 6.2°F-14.3°C 69% 7.0 mph N11.3 kmh N 13.0 mph20.9 kmh 30.12 in1020.0 mb 0.00 in0.0 mm 0.00 in/hr0.0 mm/hr 0.00 in0.0 mm
09:58 AM 14.6°F-9.7°C 6.6°F-14.1°C 70% 6.0 mph N9.7 kmh N 13.0 mph20.9 kmh 30.12 in1020.0 mb 0.00 in0.0 mm 0.00 in/hr0.0 mm/hr 0.00 in0.0 mm
09:55 AM 14.6°F-9.7°C 6.3°F-14.3°C 69% 8.0 mph NNE12.9 kmh NNE 13.0 mph20.9 kmh 30.13 in1020.3 mb 0.00 in0.0 mm 0.00 in/hr0.0 mm/hr 0.00 in0.0 mm
09:54 AM 14.6°F-9.7°C 6.3°F-14.3°C 69% 4.0 mph NNE6.4 kmh NNE 13.0 mph20.9 kmh 30.12 in1020.0 mb 0.00 in0.0 mm 0.00 in/hr0.0 mm/hr 0.00 in0.0 mm
09:53 AM 14.7°F-9.6°C 6.4°F-14.2°C 69% 7.0 mph N11.3 kmh N 13.0 mph20.9 kmh 30.12 in1020.0 mb 0.00 in0.0 mm 0.00 in/hr0.0 mm/hr 0.00 in0.0 mm
09:50 AM 14.8°F-9.6°C 6.8°F-14.0°C 70% 4.0 mph N6.4 kmh N 13.0 mph20.9 kmh 30.12 in1020.0 mb 0.00 in0.0 mm 0.00 in/hr0.0 mm/hr 0.00 in0.0 mm
09:49 AM 14.8°F-9.6°C 6.8°F-14.0°C 70% 11.0 mph N17.7 kmh N 13.0 mph20.9 kmh 30.12 in1020.0 mb 0.00 in0.0 mm 0.00 in/hr0.0 mm/hr 0.00 in0.0 mm
09:48 AM 14.7°F-9.6°C 6.7°F-14.1°C 70% 4.0 mph N6.4 kmh N 13.0 mph20.9 kmh 30.12 in1020.0 mb 0.00 in0.0 mm 0.00 in/hr0.0 mm/hr 0.00 in0.0 mm
09:45 AM 14.5°F-9.7°C 6.5°F-14.2°C 70% 6.0 mph NNE9.7 kmh NNE 13.0 mph20.9 kmh 30.12 in1020.0 mb 0.00 in0.0 mm 0.00 in/hr0.0 mm/hr 0.00 in0.0 mm
09:44 AM 14.5°F-9.7°C 6.5°F-14.2°C 70% 4.0 mph N6.4 kmh N 13.0 mph20.9 kmh 30.12 in1020.0 mb 0.00 in0.0 mm 0.00 in/hr0.0 mm/hr 0.00 in0.0 mm
09:43 AM 14.5°F-9.7°C 6.5°F-14.2°C 70% 6.0 mph N9.7 kmh N 13.0 mph20.9 kmh 30.12 in1020.0 mb 0.00 in0.0 mm 0.00 in/hr0.0 mm/hr 0.00 in0.0 mm
09:40 AM 14.5°F-9.7°C 6.8°F-14.0°C 71% 5.0 mph NNE8.0 kmh NNE 13.0 mph20.9 kmh 30.12 in1020.0 mb 0.00 in0.0 mm 0.00 in/hr0.0 mm/hr 0.00 in0.0 mm
09:39 AM 14.5°F-9.7°C 6.8°F-14.0°C 71% 7.0 mph NNE11.3 kmh NNE 13.0 mph20.9 kmh 30.12 in1020.0 mb 0.00 in0.0 mm 0.00 in/hr0.0 mm/hr 0.00 in0.0 mm
09:38 AM 14.5°F-9.7°C 6.8°F-14.0°C 71% 10.0 mph NNE16.1 kmh NNE 13.0 mph20.9 kmh 30.12 in1020.0 mb 0.00 in0.0 mm 0.00 in/hr0.0 mm/hr 0.00 in0.0 mm
09:35 AM 14.4°F-9.8°C 6.7°F-14.1°C 71% 1.0 mph NNE1.6 kmh NNE 13.0 mph20.9 kmh 30.12 in1020.0 mb 0.00 in0.0 mm 0.00 in/hr0.0 mm/hr 0.00 in0.0 mm
09:34 AM 14.4°F-9.8°C 6.7°F-14.1°C 71% 5.0 mph NNE8.0 kmh NNE 13.0 mph20.9 kmh 30.12 in1020.0 mb 0.00 in0.0 mm 0.00 in/hr0.0 mm/hr 0.00 in0.0 mm
09:33 AM 14.4°F-9.8°C 6.7°F-14.1°C 71% 6.0 mph NNE9.7 kmh NNE 13.0 mph20.9 kmh 30.12 in1020.0 mb 0.00 in0.0 mm 0.00 in/hr0.0 mm/hr 0.00 in0.0 mm
09:30 AM 14.3°F-9.8°C 6.6°F-14.1°C 71% 7.0 mph N11.3 kmh N 13.0 mph20.9 kmh 30.12 in1020.0 mb 0.00 in0.0 mm 0.00 in/hr0.0 mm/hr 0.00 in0.0 mm
09:29 AM 14.3°F-9.8°C 6.6°F-14.1°C 71% 5.0 mph N8.0 kmh N 13.0 mph20.9 kmh 30.12 in1020.0 mb 0.00 in0.0 mm 0.00 in/hr0.0 mm/hr 0.00 in0.0 mm
09:28 AM 14.2°F-9.9°C 6.5°F-14.2°C 71% 2.0 mph N3.2 kmh N 13.0 mph20.9 kmh 30.12 in1020.0 mb 0.00 in0.0 mm 0.00 in/hr0.0 mm/hr 0.00 in0.0 mm
09:25 AM 14.2°F-9.9°C 6.5°F-14.2°C 71% 4.0 mph NNE6.4 kmh NNE 13.0 mph20.9 kmh 30.12 in1020.0 mb 0.00 in0.0 mm 0.00 in/hr0.0 mm/hr 0.00 in0.0 mm
09:24 AM 14.2°F-9.9°C 6.9°F-13.9°C 72% 5.0 mph N8.0 kmh N 13.0 mph20.9 kmh 30.11 in1019.6 mb 0.00 in0.0 mm 0.00 in/hr0.0 mm/hr 0.00 in0.0 mm
09:23 AM 14.1°F-9.9°C 6.4°F-14.2°C 71% 3.0 mph N4.8 kmh N 13.0 mph20.9 kmh 30.11 in1019.6 mb 0.00 in0.0 mm 0.00 in/hr0.0 mm/hr 0.00 in0.0 mm
09:20 AM 14.1°F-9.9°C 6.8°F-14.0°C 72% 7.0 mph NNW11.3 kmh NNW 13.0 mph20.9 kmh 30.11 in1019.6 mb 0.00 in0.0 mm 0.00 in/hr0.0 mm/hr 0.00 in0.0 mm
09:19 AM 14.1°F-9.9°C 6.8°F-14.0°C 72% 12.0 mph NNW19.3 kmh NNW 13.0 mph20.9 kmh 30.12 in1020.0 mb 0.00 in0.0 mm 0.00 in/hr0.0 mm/hr 0.00 in0.0 mm
09:18 AM 14.2°F-9.9°C 6.9°F-13.9°C 72% 7.0 mph N11.3 kmh N 11.0 mph17.7 kmh 30.11 in1019.6 mb 0.00 in0.0 mm 0.00 in/hr0.0 mm/hr 0.00 in0.0 mm
09:15 AM 14.3°F-9.8°C 7.3°F-13.7°C 73% 7.0 mph N11.3 kmh N 9.0 mph14.5 kmh 30.11 in1019.6 mb 0.00 in0.0 mm 0.00 in/hr0.0 mm/hr 0.00 in0.0 mm
09:14 AM 14.3°F-9.8°C 7.3°F-13.7°C 73% 4.0 mph N6.4 kmh N 9.0 mph14.5 kmh 30.11 in1019.6 mb 0.00 in0.0 mm 0.00 in/hr0.0 mm/hr 0.00 in0.0 mm
09:13 AM 14.3°F-9.8°C 7.3°F-13.7°C 73% 7.0 mph NNE11.3 kmh NNE 9.0 mph14.5 kmh 30.11 in1019.6 mb 0.00 in0.0 mm 0.00 in/hr0.0 mm/hr 0.00 in0.0 mm
09:10 AM 14.2°F-9.9°C 7.2°F-13.8°C 73% 2.0 mph NNE3.2 kmh NNE 9.0 mph14.5 kmh 30.11 in1019.6 mb 0.00 in0.0 mm 0.00 in/hr0.0 mm/hr 0.00 in0.0 mm
09:09 AM 14.2°F-9.9°C 7.2°F-13.8°C 73% 2.0 mph NNE3.2 kmh NNE 9.0 mph14.5 kmh 30.11 in1019.6 mb 0.00 in0.0 mm 0.00 in/hr0.0 mm/hr 0.00 in0.0 mm
09:08 AM 14.2°F-9.9°C 7.2°F-13.8°C 73% 4.0 mph NNE6.4 kmh NNE 9.0 mph14.5 kmh 30.11 in1019.6 mb 0.00 in0.0 mm 0.00 in/hr0.0 mm/hr 0.00 in0.0 mm
09:05 AM 14.2°F-9.9°C 7.2°F-13.8°C 73% 5.0 mph N8.0 kmh N 9.0 mph14.5 kmh 30.11 in1019.6 mb 0.00 in0.0 mm 0.00 in/hr0.0 mm/hr 0.00 in0.0 mm
09:04 AM 14.2°F-9.9°C 7.2°F-13.8°C 73% 6.0 mph N9.7 kmh N 7.0 mph11.3 kmh 30.11 in1019.6 mb 0.00 in0.0 mm 0.00 in/hr0.0 mm/hr 0.00 in0.0 mm
09:03 AM 14.2°F-9.9°C 7.2°F-13.8°C 73% 7.0 mph N11.3 kmh N 7.0 mph11.3 kmh 30.11 in1019.6 mb 0.00 in0.0 mm 0.00 in/hr0.0 mm/hr 0.00 in0.0 mm
09:00 AM 14.1°F-9.9°C 7.1°F-13.8°C 73% 5.0 mph N8.0 kmh N 5.0 mph8.0 kmh 30.11 in1019.6 mb 0.00 in0.0 mm 0.00 in/hr0.0 mm/hr 0.00 in0.0 mm
08:59 AM 14.1°F-9.9°C 7.1°F-13.8°C 73% 4.0 mph N6.4 kmh N 11.0 mph17.7 kmh 30.11 in1019.6 mb 0.00 in0.0 mm 0.00 in/hr0.0 mm/hr 0.00 in0.0 mm
08:58 AM 14.1°F-9.9°C 6.8°F-14.0°C 72% 5.0 mph N8.0 kmh N 11.0 mph17.7 kmh 30.11 in1019.6 mb 0.00 in0.0 mm 0.00 in/hr0.0 mm/hr 0.00 in0.0 mm
08:55 AM 14.1°F-9.9°C 7.1°F-13.8°C 73% 3.0 mph N4.8 kmh N 11.0 mph17.7 kmh 30.11 in1019.6 mb 0.00 in0.0 mm 0.00 in/hr0.0 mm/hr 0.00 in0.0 mm
08:54 AM 14.2°F-9.9°C 7.2°F-13.8°C 73% 7.0 mph N11.3 kmh N 11.0 mph17.7 kmh 30.11 in1019.6 mb 0.00 in0.0 mm 0.00 in/hr0.0 mm/hr 0.00 in0.0 mm
08:53 AM 14.2°F-9.9°C 7.2°F-13.8°C 73% 8.0 mph N12.9 kmh N 11.0 mph17.7 kmh 30.11 in1019.6 mb 0.00 in0.0 mm 0.00 in/hr0.0 mm/hr 0.00 in0.0 mm
08:50 AM 14.2°F-9.9°C 7.2°F-13.8°C 73% Calm Calm 11.0 mph17.7 kmh 30.11 in1019.6 mb 0.00 in0.0 mm 0.00 in/hr0.0 mm/hr 0.00 in0.0 mm
08:49 AM 14.2°F-9.9°C 7.2°F-13.8°C 73% 6.0 mph NNE9.7 kmh NNE 11.0 mph17.7 kmh 30.11 in1019.6 mb 0.00 in0.0 mm 0.00 in/hr0.0 mm/hr 0.00 in0.0 mm
08:48 AM 14.2°F-9.9°C 7.2°F-13.8°C 73% 2.0 mph N3.2 kmh N 11.0 mph17.7 kmh 30.11 in1019.6 mb 0.00 in0.0 mm 0.00 in/hr0.0 mm/hr 0.00 in0.0 mm
08:45 AM 14.2°F-9.9°C 7.2°F-13.8°C 73% 8.0 mph NNE12.9 kmh NNE 11.0 mph17.7 kmh 30.11 in1019.6 mb 0.00 in0.0 mm 0.00 in/hr0.0 mm/hr 0.00 in0.0 mm
08:44 AM 14.2°F-9.9°C 7.2°F-13.8°C 73% 4.0 mph NNE6.4 kmh NNE 11.0 mph17.7 kmh 30.11 in1019.6 mb 0.00 in0.0 mm 0.00 in/hr0.0 mm/hr 0.00 in0.0 mm
08:43 AM 14.2°F-9.9°C 7.2°F-13.8°C 73% 5.0 mph NNE8.0 kmh NNE 11.0 mph17.7 kmh 30.11 in1019.6 mb 0.00 in0.0 mm 0.00 in/hr0.0 mm/hr 0.00 in0.0 mm
08:40 AM 14.2°F-9.9°C 7.2°F-13.8°C 73% 5.0 mph NNE8.0 kmh NNE 11.0 mph17.7 kmh 30.11 in1019.6 mb 0.00 in0.0 mm 0.00 in/hr0.0 mm/hr 0.00 in0.0 mm
08:39 AM 14.2°F-9.9°C 7.2°F-13.8°C 73% 3.0 mph NNE4.8 kmh NNE 11.0 mph17.7 kmh 30.11 in1019.6 mb 0.00 in0.0 mm 0.00 in/hr0.0 mm/hr 0.00 in0.0 mm
08:38 AM 14.2°F-9.9°C 7.2°F-13.8°C 73% 4.0 mph NNE6.4 kmh NNE 11.0 mph17.7 kmh 30.11 in1019.6 mb 0.00 in0.0 mm 0.00 in/hr0.0 mm/hr 0.00 in0.0 mm
08:35 AM 14.2°F-9.9°C 7.5°F-13.6°C 74% 1.0 mph NNE1.6 kmh NNE 11.0 mph17.7 kmh 30.11 in1019.6 mb 0.00 in0.0 mm 0.00 in/hr0.0 mm/hr 0.00 in0.0 mm
08:34 AM 14.2°F-9.9°C 7.5°F-13.6°C 74% 6.0 mph NNE9.7 kmh NNE 11.0 mph17.7 kmh 30.11 in1019.6 mb 0.00 in0.0 mm 0.00 in/hr0.0 mm/hr 0.00 in0.0 mm
08:33 AM 14.2°F-9.9°C 7.5°F-13.6°C 74% 1.0 mph NNE1.6 kmh NNE 11.0 mph17.7 kmh 30.11 in1019.6 mb 0.00 in0.0 mm 0.00 in/hr0.0 mm/hr 0.00 in0.0 mm
08:30 AM 14.2°F-9.9°C 7.2°F-13.8°C 73% 2.0 mph NNE3.2 kmh NNE 11.0 mph17.7 kmh 30.11 in1019.6 mb 0.00 in0.0 mm 0.00 in/hr0.0 mm/hr 0.00 in0.0 mm
08:29 AM 14.1°F-9.9°C 7.1°F-13.8°C 73% 6.0 mph NNE9.7 kmh NNE 11.0 mph17.7 kmh 30.11 in1019.6 mb 0.00 in0.0 mm 0.00 in/hr0.0 mm/hr 0.00 in0.0 mm
08:28 AM 14.1°F-9.9°C 7.1°F-13.8°C 73% 2.0 mph NNE3.2 kmh NNE 11.0 mph17.7 kmh 30.11 in1019.6 mb 0.00 in0.0 mm 0.00 in/hr0.0 mm/hr 0.00 in0.0 mm
08:25 AM 14.2°F-9.9°C 7.2°F-13.8°C 73% 2.0 mph NNE3.2 kmh NNE 11.0 mph17.7 kmh 30.11 in1019.6 mb 0.00 in0.0 mm 0.00 in/hr0.0 mm/hr 0.00 in0.0 mm
08:24 AM 14.2°F-9.9°C 7.5°F-13.6°C 74% 8.0 mph NNE12.9 kmh NNE 11.0 mph17.7 kmh 30.11 in1019.6 mb 0.00 in0.0 mm 0.00 in/hr0.0 mm/hr 0.00 in0.0 mm
08:23 AM 14.2°F-9.9°C 7.5°F-13.6°C 74% 5.0 mph N8.0 kmh N 11.0 mph17.7 kmh 30.11 in1019.6 mb 0.00 in0.0 mm 0.00 in/hr0.0 mm/hr 0.00 in0.0 mm
08:20 AM 14.0°F-10.0°C 7.3°F-13.7°C 74% 5.0 mph N8.0 kmh N 11.0 mph17.7 kmh 30.11 in1019.6 mb 0.00 in0.0 mm 0.00 in/hr0.0 mm/hr 0.00 in0.0 mm
08:19 AM 13.9°F-10.1°C 6.9°F-13.9°C 73% 5.0 mph N8.0 kmh N 11.0 mph17.7 kmh 30.11 in1019.6 mb 0.00 in0.0 mm 0.00 in/hr0.0 mm/hr 0.00 in0.0 mm
08:18 AM 13.9°F-10.1°C 6.9°F-13.9°C 73% 6.0 mph N9.7 kmh N 11.0 mph17.7 kmh 30.11 in1019.6 mb 0.00 in0.0 mm 0.00 in/hr0.0 mm/hr 0.00 in0.0 mm
08:15 AM 13.8°F-10.1°C 6.8°F-14.0°C 73% 5.0 mph N8.0 kmh N 11.0 mph17.7 kmh 30.11 in1019.6 mb 0.00 in0.0 mm 0.00 in/hr0.0 mm/hr 0.00 in0.0 mm
08:14 AM 13.8°F-10.1°C 6.8°F-14.0°C 73% 7.0 mph N11.3 kmh N 11.0 mph17.7 kmh 30.11 in1019.6 mb 0.00 in0.0 mm 0.00 in/hr0.0 mm/hr 0.00 in0.0 mm
08:13 AM 13.8°F-10.1°C 6.8°F-14.0°C 73% 1.0 mph N1.6 kmh N 11.0 mph17.7 kmh 30.11 in1019.6 mb 0.00 in0.0 mm 0.00 in/hr0.0 mm/hr 0.00 in0.0 mm
08:10 AM 13.9°F-10.1°C 7.2°F-13.8°C 74% 7.0 mph N11.3 kmh N 9.0 mph14.5 kmh 30.11 in1019.6 mb 0.00 in0.0 mm 0.00 in/hr0.0 mm/hr 0.00 in0.0 mm
08:09 AM 13.9°F-10.1°C 7.2°F-13.8°C 74% 6.0 mph N9.7 kmh N 8.0 mph12.9 kmh 30.11 in1019.6 mb 0.00 in0.0 mm 0.00 in/hr0.0 mm/hr 0.00 in0.0 mm
08:08 AM 13.9°F-10.1°C 7.2°F-13.8°C 74% 6.0 mph N9.7 kmh N 8.0 mph12.9 kmh 30.11 in1019.6 mb 0.00 in0.0 mm 0.00 in/hr0.0 mm/hr 0.00 in0.0 mm
08:05 AM 13.8°F-10.1°C 7.1°F-13.8°C 74% 4.0 mph N6.4 kmh N 8.0 mph12.9 kmh 30.10 in1019.3 mb 0.00 in0.0 mm 0.00 in/hr0.0 mm/hr 0.00 in0.0 mm
08:04 AM 13.9°F-10.1°C 7.2°F-13.8°C 74% 5.0 mph N8.0 kmh N 8.0 mph12.9 kmh 30.10 in1019.3 mb 0.00 in0.0 mm 0.00 in/hr0.0 mm/hr 0.00 in0.0 mm
08:03 AM 13.9°F-10.1°C 7.2°F-13.8°C 74% 3.0 mph N4.8 kmh N 8.0 mph12.9 kmh 30.10 in1019.3 mb 0.00 in0.0 mm 0.00 in/hr0.0 mm/hr 0.00 in0.0 mm
08:00 AM 13.9°F-10.1°C 7.2°F-13.8°C 74% 6.0 mph N9.7 kmh N 6.0 mph9.7 kmh 30.10 in1019.3 mb 0.00 in0.0 mm 0.00 in/hr0.0 mm/hr 0.00 in0.0 mm
07:59 AM 13.8°F-10.1°C 7.1°F-13.8°C 74% 6.0 mph N9.7 kmh N 11.0 mph17.7 kmh 30.10 in1019.3 mb 0.00 in0.0 mm 0.00 in/hr0.0 mm/hr 0.00 in0.0 mm
07:58 AM 13.8°F-10.1°C 7.1°F-13.8°C 74% 6.0 mph NNE9.7 kmh NNE 10.0 mph16.1 kmh 30.10 in1019.3 mb 0.00 in0.0 mm 0.00 in/hr0.0 mm/hr 0.00 in0.0 mm
07:55 AM 13.9°F-10.1°C 7.2°F-13.8°C 74% 6.0 mph NNE9.7 kmh NNE 10.0 mph16.1 kmh 30.10 in1019.3 mb 0.00 in0.0 mm 0.00 in/hr0.0 mm/hr 0.00 in0.0 mm
07:54 AM 14.0°F-10.0°C 7.3°F-13.7°C 74% 4.0 mph NNE6.4 kmh NNE 10.0 mph16.1 kmh 30.10 in1019.3 mb 0.00 in0.0 mm 0.00 in/hr0.0 mm/hr 0.00 in0.0 mm
07:53 AM 14.0°F-10.0°C 7.3°F-13.7°C 74% 5.0 mph NNE8.0 kmh NNE 10.0 mph16.1 kmh 30.10 in1019.3 mb 0.00 in0.0 mm 0.00 in/hr0.0 mm/hr 0.00 in0.0 mm
07:50 AM 14.0°F-10.0°C 7.3°F-13.7°C 74% 7.0 mph NNE11.3 kmh NNE 10.0 mph16.1 kmh 30.10 in1019.3 mb 0.00 in0.0 mm 0.00 in/hr0.0 mm/hr 0.00 in0.0 mm
07:49 AM 13.9°F-10.1°C 7.2°F-13.8°C 74% 3.0 mph NNE4.8 kmh NNE 10.0 mph16.1 kmh 30.10 in1019.3 mb 0.00 in0.0 mm 0.00 in/hr0.0 mm/hr 0.00 in0.0 mm
07:48 AM 13.8°F-10.1°C 7.1°F-13.8°C 74% Calm Calm 10.0 mph16.1 kmh 30.10 in1019.3 mb 0.00 in0.0 mm 0.00 in/hr0.0 mm/hr 0.00 in0.0 mm
07:45 AM 13.7°F-10.2°C 7.0°F-13.9°C 74% 5.0 mph NNE8.0 kmh NNE 10.0 mph16.1 kmh 30.10 in1019.3 mb 0.00 in0.0 mm 0.00 in/hr0.0 mm/hr 0.00 in0.0 mm
07:44 AM 13.7°F-10.2°C 7.0°F-13.9°C 74% 4.0 mph NNE6.4 kmh NNE 10.0 mph16.1 kmh 30.10 in1019.3 mb 0.00 in0.0 mm 0.00 in/hr0.0 mm/hr 0.00 in0.0 mm
07:43 AM 13.7°F-10.2°C 7.0°F-13.9°C 74% 9.0 mph NNE14.5 kmh NNE 10.0 mph16.1 kmh 30.10 in1019.3 mb 0.00 in0.0 mm 0.00 in/hr0.0 mm/hr 0.00 in0.0 mm
07:40 AM 13.7°F-10.2°C 7.0°F-13.9°C 74% 6.0 mph N9.7 kmh N 10.0 mph16.1 kmh 30.10 in1019.3 mb 0.00 in0.0 mm 0.00 in/hr0.0 mm/hr 0.00 in0.0 mm
07:39 AM 13.8°F-10.1°C 7.1°F-13.8°C 74% 3.0 mph N4.8 kmh N 10.0 mph16.1 kmh 30.10 in1019.3 mb 0.00 in0.0 mm 0.00 in/hr0.0 mm/hr 0.00 in0.0 mm
07:38 AM 13.9°F-10.1°C 7.2°F-13.8°C 74% 6.0 mph N9.7 kmh N 10.0 mph16.1 kmh 30.10 in1019.3 mb 0.00 in0.0 mm 0.00 in/hr0.0 mm/hr 0.00 in0.0 mm
07:35 AM 13.9°F-10.1°C 7.2°F-13.8°C 74% 7.0 mph N11.3 kmh N 10.0 mph16.1 kmh 30.09 in1019.0 mb 0.00 in0.0 mm 0.00 in/hr0.0 mm/hr 0.00 in0.0 mm
07:34 AM 13.9°F-10.1°C 7.2°F-13.8°C 74% 4.0 mph N6.4 kmh N 10.0 mph16.1 kmh 30.09 in1019.0 mb 0.00 in0.0 mm 0.00 in/hr0.0 mm/hr 0.00 in0.0 mm
07:33 AM 13.9°F-10.1°C 7.2°F-13.8°C 74% Calm Calm 10.0 mph16.1 kmh 30.09 in1019.0 mb 0.00 in0.0 mm 0.00 in/hr0.0 mm/hr 0.00 in0.0 mm
07:30 AM 14.0°F-10.0°C 7.6°F-13.6°C 75% 7.0 mph N11.3 kmh N 10.0 mph16.1 kmh 30.09 in1019.0 mb 0.00 in0.0 mm 0.00 in/hr0.0 mm/hr 0.00 in0.0 mm
07:29 AM 13.9°F-10.1°C 7.5°F-13.6°C 75% 2.0 mph N3.2 kmh N 10.0 mph16.1 kmh 30.09 in1019.0 mb 0.00 in0.0 mm 0.00 in/hr0.0 mm/hr 0.00 in0.0 mm
07:28 AM 13.9°F-10.1°C 7.5°F-13.6°C 75% 2.0 mph N3.2 kmh N 10.0 mph16.1 kmh 30.09 in1019.0 mb 0.00 in0.0 mm 0.00 in/hr0.0 mm/hr 0.00 in0.0 mm
07:25 AM 13.8°F-10.1°C 7.4°F-13.7°C 75% 5.0 mph N8.0 kmh N 10.0 mph16.1 kmh 30.09 in1019.0 mb 0.00 in0.0 mm 0.00 in/hr0.0 mm/hr 0.00 in0.0 mm
07:24 AM 13.8°F-10.1°C 7.4°F-13.7°C 75% 5.0 mph N8.0 kmh N 10.0 mph16.1 kmh 30.09 in1019.0 mb 0.00 in0.0 mm 0.00 in/hr0.0 mm/hr 0.00 in0.0 mm
07:23 AM 13.8°F-10.1°C 7.4°F-13.7°C 75% 3.0 mph N4.8 kmh N 10.0 mph16.1 kmh 30.09 in1019.0 mb 0.00 in0.0 mm 0.00 in/hr0.0 mm/hr 0.00 in0.0 mm
07:20 AM 13.6°F-10.2°C 7.2°F-13.8°C 75% 5.0 mph N8.0 kmh N 10.0 mph16.1 kmh 30.09 in1019.0 mb 0.00 in0.0 mm 0.00 in/hr0.0 mm/hr 0.00 in0.0 mm
07:19 AM 13.6°F-10.2°C 7.2°F-13.8°C 75% 5.0 mph N8.0 kmh N 10.0 mph16.1 kmh 30.09 in1019.0 mb 0.00 in0.0 mm 0.00 in/hr0.0 mm/hr 0.00 in0.0 mm
07:18 AM 13.6°F-10.2°C 7.2°F-13.8°C 75% 7.0 mph N11.3 kmh N 10.0 mph16.1 kmh 30.09 in1019.0 mb 0.00 in0.0 mm 0.00 in/hr0.0 mm/hr 0.00 in0.0 mm
07:15 AM 13.6°F-10.2°C 7.2°F-13.8°C 75% 5.0 mph N8.0 kmh N 10.0 mph16.1 kmh 30.09 in1019.0 mb 0.00 in0.0 mm 0.00 in/hr0.0 mm/hr 0.00 in0.0 mm
07:14 AM 13.6°F-10.2°C 7.2°F-13.8°C 75% 8.0 mph N12.9 kmh N 10.0 mph16.1 kmh 30.08 in1018.6 mb 0.00 in0.0 mm 0.00 in/hr0.0 mm/hr 0.00 in0.0 mm
07:13 AM 13.7°F-10.2°C 7.3°F-13.7°C 75% 6.0 mph N9.7 kmh N 8.0 mph12.9 kmh 30.08 in1018.6 mb 0.00 in0.0 mm 0.00 in/hr0.0 mm/hr 0.00 in0.0 mm
07:10 AM 13.7°F-10.2°C 7.3°F-13.7°C 75% 4.0 mph N6.4 kmh N 8.0 mph12.9 kmh 30.08 in1018.6 mb 0.00 in0.0 mm 0.00 in/hr0.0 mm/hr 0.00 in0.0 mm
07:09 AM 13.7°F-10.2°C 7.3°F-13.7°C 75% 3.0 mph N4.8 kmh N 8.0 mph12.9 kmh 30.08 in1018.6 mb 0.00 in0.0 mm 0.00 in/hr0.0 mm/hr 0.00 in0.0 mm
07:08 AM 13.6°F-10.2°C 7.2°F-13.8°C 75% 1.0 mph N1.6 kmh N 8.0 mph12.9 kmh 30.08 in1018.6 mb 0.00 in0.0 mm 0.00 in/hr0.0 mm/hr 0.00 in0.0 mm
07:05 AM 13.6°F-10.2°C 7.2°F-13.8°C 75% 3.0 mph N4.8 kmh N 8.0 mph12.9 kmh 30.08 in1018.6 mb 0.00 in0.0 mm 0.00 in/hr0.0 mm/hr 0.00 in0.0 mm
07:04 AM 13.6°F-10.2°C 7.2°F-13.8°C 75% 4.0 mph N6.4 kmh N 8.0 mph12.9 kmh 30.08 in1018.6 mb 0.00 in0.0 mm 0.00 in/hr0.0 mm/hr 0.00 in0.0 mm
07:03 AM 13.6°F-10.2°C 7.2°F-13.8°C 75% 5.0 mph NNE8.0 kmh NNE 8.0 mph12.9 kmh 30.08 in1018.6 mb 0.00 in0.0 mm 0.00 in/hr0.0 mm/hr 0.00 in0.0 mm
07:00 AM 13.6°F-10.2°C 7.2°F-13.8°C 75% 3.0 mph NNE4.8 kmh NNE 5.0 mph8.0 kmh 30.08 in1018.6 mb 0.00 in0.0 mm 0.00 in/hr0.0 mm/hr 0.00 in0.0 mm
06:59 AM 13.5°F-10.3°C 7.1°F-13.8°C 75% 1.0 mph NNE1.6 kmh NNE 10.0 mph16.1 kmh 30.08 in1018.6 mb 0.00 in0.0 mm 0.00 in/hr0.0 mm/hr 0.00 in0.0 mm
06:58 AM 13.5°F-10.3°C 7.1°F-13.8°C 75% Calm Calm 10.0 mph16.1 kmh 30.08 in1018.6 mb 0.00 in0.0 mm 0.00 in/hr0.0 mm/hr 0.00 in0.0 mm
06:55 AM 13.6°F-10.2°C 7.2°F-13.8°C 75% 2.0 mph NNE3.2 kmh NNE 10.0 mph16.1 kmh 30.08 in1018.6 mb 0.00 in0.0 mm 0.00 in/hr0.0 mm/hr 0.00 in0.0 mm
06:54 AM 13.6°F-10.2°C 7.2°F-13.8°C 75% 7.0 mph NNE11.3 kmh NNE 10.0 mph16.1 kmh 30.08 in1018.6 mb 0.00 in0.0 mm 0.00 in/hr0.0 mm/hr 0.00 in0.0 mm
06:53 AM 13.7°F-10.2°C 9.5°F-12.5°C 83% 6.0 mph NNE9.7 kmh NNE 10.0 mph16.1 kmh 30.08 in1018.6 mb 0.00 in0.0 mm 0.00 in/hr0.0 mm/hr 0.00 in0.0 mm
06:50 AM 13.7°F-10.2°C 7.3°F-13.7°C 75% Calm Calm 10.0 mph16.1 kmh 30.08 in1018.6 mb 0.00 in0.0 mm 0.00 in/hr0.0 mm/hr 0.00 in0.0 mm
06:49 AM 13.7°F-10.2°C 9.5°F-12.5°C 83% 7.0 mph NNE11.3 kmh NNE 10.0 mph16.1 kmh 30.08 in1018.6 mb 0.00 in0.0 mm 0.00 in/hr0.0 mm/hr 0.00 in0.0 mm
06:48 AM 13.7°F-10.2°C 7.3°F-13.7°C 75% 3.0 mph NNE4.8 kmh NNE 10.0 mph16.1 kmh 30.08 in1018.6 mb 0.00 in0.0 mm 0.00 in/hr0.0 mm/hr 0.00 in0.0 mm
06:45 AM 13.7°F-10.2°C 7.3°F-13.7°C 75% 1.0 mph NNE1.6 kmh NNE 10.0 mph16.1 kmh 30.08 in1018.6 mb 0.00 in0.0 mm 0.00 in/hr0.0 mm/hr 0.00 in0.0 mm
06:44 AM 13.7°F-10.2°C 7.3°F-13.7°C 75% Calm Calm 10.0 mph16.1 kmh 30.08 in1018.6 mb 0.00 in0.0 mm 0.00 in/hr0.0 mm/hr 0.00 in0.0 mm
06:43 AM 13.7°F-10.2°C 7.3°F-13.7°C 75% 4.0 mph NNE6.4 kmh NNE 10.0 mph16.1 kmh 30.08 in1018.6 mb 0.00 in0.0 mm 0.00 in/hr0.0 mm/hr 0.00 in0.0 mm
06:40 AM 13.6°F-10.2°C 7.2°F-13.8°C 75% 3.0 mph NNE4.8 kmh NNE 10.0 mph16.1 kmh 30.08 in1018.6 mb 0.00 in0.0 mm 0.00 in/hr0.0 mm/hr 0.00 in0.0 mm
06:39 AM 13.6°F-10.2°C 7.2°F-13.8°C 75% Calm Calm 10.0 mph16.1 kmh 30.08 in1018.6 mb 0.00 in0.0 mm 0.00 in/hr0.0 mm/hr 0.00 in0.0 mm
06:38 AM 13.6°F-10.2°C 7.2°F-13.8°C 75% 3.0 mph NNE4.8 kmh NNE 10.0 mph16.1 kmh 30.08 in1018.6 mb 0.00 in0.0 mm 0.00 in/hr0.0 mm/hr 0.00 in0.0 mm
06:35 AM 13.6°F-10.2°C 7.2°F-13.8°C 75% 5.0 mph NNE8.0 kmh NNE 10.0 mph16.1 kmh 30.08 in1018.6 mb 0.00 in0.0 mm 0.00 in/hr0.0 mm/hr 0.00 in0.0 mm
06:34 AM 13.6°F-10.2°C 7.2°F-13.8°C 75% 2.0 mph NNE3.2 kmh NNE 10.0 mph16.1 kmh 30.08 in1018.6 mb 0.00 in0.0 mm 0.00 in/hr0.0 mm/hr 0.00 in0.0 mm
06:33 AM 13.6°F-10.2°C 7.2°F-13.8°C 75% 1.0 mph NNE1.6 kmh NNE 10.0 mph16.1 kmh 30.08 in1018.6 mb 0.00 in0.0 mm 0.00 in/hr0.0 mm/hr 0.00 in0.0 mm
06:30 AM 13.6°F-10.2°C 7.2°F-13.8°C 75% 4.0 mph NE6.4 kmh NE 10.0 mph16.1 kmh 30.08 in1018.6 mb 0.00 in0.0 mm 0.00 in/hr0.0 mm/hr 0.00 in0.0 mm
06:29 AM 13.6°F-10.2°C 7.2°F-13.8°C 75% 2.0 mph NE3.2 kmh NE 10.0 mph16.1 kmh 30.07 in1018.3 mb 0.00 in0.0 mm 0.00 in/hr0.0 mm/hr 0.00 in0.0 mm
06:28 AM 13.7°F-10.2°C 7.6°F-13.6°C 76% 1.0 mph NE1.6 kmh NE 10.0 mph16.1 kmh 30.07 in1018.3 mb 0.00 in0.0 mm 0.00 in/hr0.0 mm/hr 0.00 in0.0 mm
06:25 AM 13.6°F-10.2°C 7.5°F-13.6°C 76% 4.0 mph NE6.4 kmh NE 10.0 mph16.1 kmh 30.07 in1018.3 mb 0.00 in0.0 mm 0.00 in/hr0.0 mm/hr 0.00 in0.0 mm
06:24 AM 13.6°F-10.2°C 7.5°F-13.6°C 76% 3.0 mph NE4.8 kmh NE 10.0 mph16.1 kmh 30.07 in1018.3 mb 0.00 in0.0 mm 0.00 in/hr0.0 mm/hr 0.00 in0.0 mm
06:23 AM 13.6°F-10.2°C 7.5°F-13.6°C 76% 2.0 mph NE3.2 kmh NE 10.0 mph16.1 kmh 30.07 in1018.3 mb 0.00 in0.0 mm 0.00 in/hr0.0 mm/hr 0.00 in0.0 mm
06:20 AM 13.6°F-10.2°C 7.5°F-13.6°C 76% 3.0 mph NE4.8 kmh NE 10.0 mph16.1 kmh 30.07 in1018.3 mb 0.00 in0.0 mm 0.00 in/hr0.0 mm/hr 0.00 in0.0 mm
06:19 AM 13.6°F-10.2°C 7.5°F-13.6°C 76% 6.0 mph NE9.7 kmh NE 10.0 mph16.1 kmh 30.07 in1018.3 mb 0.00 in0.0 mm 0.00 in/hr0.0 mm/hr 0.00 in0.0 mm
06:18 AM 13.6°F-10.2°C 7.5°F-13.6°C 76% 3.0 mph NE4.8 kmh NE 10.0 mph16.1 kmh 30.07 in1018.3 mb 0.00 in0.0 mm 0.00 in/hr0.0 mm/hr 0.00 in0.0 mm
06:15 AM 13.7°F-10.2°C 7.6°F-13.6°C 76% 4.0 mph NE6.4 kmh NE 10.0 mph16.1 kmh 30.07 in1018.3 mb 0.00 in0.0 mm 0.00 in/hr0.0 mm/hr 0.00 in0.0 mm
06:14 AM 13.8°F-10.1°C 7.7°F-13.5°C 76% 3.0 mph NE4.8 kmh NE 10.0 mph16.1 kmh 30.07 in1018.3 mb 0.00 in0.0 mm 0.00 in/hr0.0 mm/hr 0.00 in0.0 mm
06:13 AM 13.8°F-10.1°C 7.7°F-13.5°C 76% 7.0 mph NE11.3 kmh NE 10.0 mph16.1 kmh 30.07 in1018.3 mb 0.00 in0.0 mm 0.00 in/hr0.0 mm/hr 0.00 in0.0 mm
06:10 AM 13.6°F-10.2°C 7.5°F-13.6°C 76% 2.0 mph NNE3.2 kmh NNE 10.0 mph16.1 kmh 30.06 in1017.9 mb 0.00 in0.0 mm 0.00 in/hr0.0 mm/hr 0.00 in0.0 mm
06:09 AM 13.6°F-10.2°C 7.5°F-13.6°C 76% 6.0 mph NNE9.7 kmh NNE 10.0 mph16.1 kmh 30.06 in1017.9 mb 0.00 in0.0 mm 0.00 in/hr0.0 mm/hr 0.00 in0.0 mm
06:08 AM 13.6°F-10.2°C 7.5°F-13.6°C 76% 3.0 mph NNE4.8 kmh NNE 8.0 mph12.9 kmh 30.06 in1017.9 mb 0.00 in0.0 mm 0.00 in/hr0.0 mm/hr 0.00 in0.0 mm
06:05 AM 13.5°F-10.3°C 7.4°F-13.7°C 76% 2.0 mph NNE3.2 kmh NNE 8.0 mph12.9 kmh 30.06 in1017.9 mb 0.00 in0.0 mm 0.00 in/hr0.0 mm/hr 0.00 in0.0 mm
06:04 AM 13.5°F-10.3°C 7.4°F-13.7°C 76% 1.0 mph NNE1.6 kmh NNE 8.0 mph12.9 kmh 30.06 in1017.9 mb 0.00 in0.0 mm 0.00 in/hr0.0 mm/hr 0.00 in0.0 mm
06:03 AM 13.5°F-10.3°C 7.4°F-13.7°C 76% 6.0 mph N9.7 kmh N 7.0 mph11.3 kmh 30.06 in1017.9 mb 0.00 in0.0 mm 0.00 in/hr0.0 mm/hr 0.00 in0.0 mm
06:00 AM 13.5°F-10.3°C 7.7°F-13.5°C 77% 3.0 mph NNE4.8 kmh NNE 3.0 mph4.8 kmh 30.06 in1017.9 mb 0.00 in0.0 mm 0.00 in/hr0.0 mm/hr 0.00 in0.0 mm
05:59 AM 13.5°F-10.3°C 7.7°F-13.5°C 77% 3.0 mph NNE4.8 kmh NNE 12.0 mph19.3 kmh 30.06 in1017.9 mb 0.00 in0.0 mm 0.00 in/hr0.0 mm/hr 0.00 in0.0 mm
05:58 AM 13.5°F-10.3°C 7.4°F-13.7°C 76% 5.0 mph NNE8.0 kmh NNE 12.0 mph19.3 kmh 30.06 in1017.9 mb 0.00 in0.0 mm 0.00 in/hr0.0 mm/hr 0.00 in0.0 mm
05:55 AM 13.4°F-10.3°C 7.3°F-13.7°C 76% Calm Calm 12.0 mph19.3 kmh 30.06 in1017.9 mb 0.00 in0.0 mm 0.00 in/hr0.0 mm/hr 0.00 in0.0 mm
05:54 AM 13.4°F-10.3°C 7.3°F-13.7°C 76% 7.0 mph NNE11.3 kmh NNE 12.0 mph19.3 kmh 30.06 in1017.9 mb 0.00 in0.0 mm 0.00 in/hr0.0 mm/hr 0.00 in0.0 mm
05:53 AM 13.4°F-10.3°C 7.3°F-13.7°C 76% Calm Calm 12.0 mph19.3 kmh 30.06 in1017.9 mb 0.00 in0.0 mm 0.00 in/hr0.0 mm/hr 0.00 in0.0 mm
05:50 AM 13.4°F-10.3°C 7.6°F-13.6°C 77% 4.0 mph N6.4 kmh N 12.0 mph19.3 kmh 30.06 in1017.9 mb 0.00 in0.0 mm 0.00 in/hr0.0 mm/hr 0.00 in0.0 mm
05:49 AM 13.4°F-10.3°C 7.3°F-13.7°C 76% 4.0 mph N6.4 kmh N 12.0 mph19.3 kmh 30.07 in1018.3 mb 0.00 in0.0 mm 0.00 in/hr0.0 mm/hr 0.00 in0.0 mm
05:48 AM 13.4°F-10.3°C 7.3°F-13.7°C 76% 6.0 mph N9.7 kmh N 12.0 mph19.3 kmh 30.06 in1017.9 mb 0.00 in0.0 mm 0.00 in/hr0.0 mm/hr 0.00 in0.0 mm
05:45 AM 13.4°F-10.3°C 7.6°F-13.6°C 77% 5.0 mph N8.0 kmh N 12.0 mph19.3 kmh 30.06 in1017.9 mb 0.00 in0.0 mm 0.00 in/hr0.0 mm/hr 0.00 in0.0 mm
05:44 AM 13.3°F-10.4°C 7.5°F-13.6°C 77% 3.0 mph NNE4.8 kmh NNE 12.0 mph19.3 kmh 30.06 in1017.9 mb 0.00 in0.0 mm 0.00 in/hr0.0 mm/hr 0.00 in0.0 mm
05:43 AM 13.3°F-10.4°C 7.2°F-13.8°C 76% 2.0 mph NNE3.2 kmh NNE 12.0 mph19.3 kmh 30.06 in1017.9 mb 0.00 in0.0 mm 0.00 in/hr0.0 mm/hr 0.00 in0.0 mm
05:40 AM 13.3°F-10.4°C 7.2°F-13.8°C 76% 7.0 mph NNE11.3 kmh NNE 12.0 mph19.3 kmh 30.06 in1017.9 mb 0.00 in0.0 mm 0.00 in/hr0.0 mm/hr 0.00 in0.0 mm
05:39 AM 13.4°F-10.3°C 7.3°F-13.7°C 76% 4.0 mph NNE6.4 kmh NNE 12.0 mph19.3 kmh 30.06 in1017.9 mb 0.00 in0.0 mm 0.00 in/hr0.0 mm/hr 0.00 in0.0 mm
05:38 AM 13.5°F-10.3°C 7.4°F-13.7°C 76% 5.0 mph NNE8.0 kmh NNE 12.0 mph19.3 kmh 30.06 in1017.9 mb 0.00 in0.0 mm 0.00 in/hr0.0 mm/hr 0.00 in0.0 mm
05:35 AM 13.4°F-10.3°C 7.6°F-13.6°C 77% 6.0 mph NNE9.7 kmh NNE 12.0 mph19.3 kmh 30.06 in1017.9 mb 0.00 in0.0 mm 0.00 in/hr0.0 mm/hr 0.00 in0.0 mm
05:34 AM 13.4°F-10.3°C 7.6°F-13.6°C 77% 7.0 mph N11.3 kmh N 12.0 mph19.3 kmh 30.06 in1017.9 mb 0.00 in0.0 mm 0.00 in/hr0.0 mm/hr 0.00 in0.0 mm
05:33 AM 13.3°F-10.4°C 7.2°F-13.8°C 76% 4.0 mph N6.4 kmh N 12.0 mph19.3 kmh 30.06 in1017.9 mb 0.00 in0.0 mm 0.00 in/hr0.0 mm/hr 0.00 in0.0 mm
05:30 AM 13.3°F-10.4°C 7.5°F-13.6°C 77% 4.0 mph N6.4 kmh N 12.0 mph19.3 kmh 30.06 in1017.9 mb 0.00 in0.0 mm 0.00 in/hr0.0 mm/hr 0.00 in0.0 mm
05:29 AM 13.3°F-10.4°C 7.5°F-13.6°C 77% 8.0 mph N12.9 kmh N 12.0 mph19.3 kmh 30.06 in1017.9 mb 0.00 in0.0 mm 0.00 in/hr0.0 mm/hr 0.00 in0.0 mm
05:28 AM 13.3°F-10.4°C 7.5°F-13.6°C 77% 6.0 mph N9.7 kmh N 12.0 mph19.3 kmh 30.06 in1017.9 mb 0.00 in0.0 mm 0.00 in/hr0.0 mm/hr 0.00 in0.0 mm
05:25 AM 13.3°F-10.4°C 7.5°F-13.6°C 77% 3.0 mph N4.8 kmh N 12.0 mph19.3 kmh 30.06 in1017.9 mb 0.00 in0.0 mm 0.00 in/hr0.0 mm/hr 0.00 in0.0 mm
05:24 AM 13.3°F-10.4°C 7.5°F-13.6°C 77% 4.0 mph N6.4 kmh N 12.0 mph19.3 kmh 30.06 in1017.9 mb 0.00 in0.0 mm 0.00 in/hr0.0 mm/hr 0.00 in0.0 mm
05:23 AM 13.3°F-10.4°C 7.5°F-13.6°C 77% Calm Calm 12.0 mph19.3 kmh 30.06 in1017.9 mb 0.00 in0.0 mm 0.00 in/hr0.0 mm/hr 0.00 in0.0 mm
05:20 AM 13.2°F-10.4°C 7.4°F-13.7°C 77% 4.0 mph N6.4 kmh N 12.0 mph19.3 kmh 30.06 in1017.9 mb 0.00 in0.0 mm 0.00 in/hr0.0 mm/hr 0.00 in0.0 mm
05:19 AM 13.2°F-10.4°C 7.4°F-13.7°C 77% 8.0 mph N12.9 kmh N 12.0 mph19.3 kmh 30.06 in1017.9 mb 0.00 in0.0 mm 0.00 in/hr0.0 mm/hr 0.00 in0.0 mm
05:18 AM 13.2°F-10.4°C 7.4°F-13.7°C 77% 3.0 mph N4.8 kmh N 12.0 mph19.3 kmh 30.06 in1017.9 mb 0.00 in0.0 mm 0.00 in/hr0.0 mm/hr 0.00 in0.0 mm
05:15 AM 13.0°F-10.6°C 7.2°F-13.8°C 77% 2.0 mph N3.2 kmh N 12.0 mph19.3 kmh 30.05 in1017.6 mb 0.00 in0.0 mm 0.00 in/hr0.0 mm/hr 0.00 in0.0 mm
05:14 AM 13.0°F-10.6°C 7.2°F-13.8°C 77% 5.0 mph N8.0 kmh N 12.0 mph19.3 kmh 30.05 in1017.6 mb 0.00 in0.0 mm 0.00 in/hr0.0 mm/hr 0.00 in0.0 mm
05:13 AM 12.9°F-10.6°C 7.1°F-13.8°C 77% 7.0 mph N11.3 kmh N 12.0 mph19.3 kmh 30.05 in1017.6 mb 0.00 in0.0 mm 0.00 in/hr0.0 mm/hr 0.00 in0.0 mm
05:10 AM 12.9°F-10.6°C 7.1°F-13.8°C 77% 5.0 mph N8.0 kmh N 12.0 mph19.3 kmh 30.06 in1017.9 mb 0.00 in0.0 mm 0.00 in/hr0.0 mm/hr 0.00 in0.0 mm
05:09 AM 13.0°F-10.6°C 7.2°F-13.8°C 77% 9.0 mph NNW14.5 kmh NNW 12.0 mph19.3 kmh 30.06 in1017.9 mb 0.00 in0.0 mm 0.00 in/hr0.0 mm/hr 0.00 in0.0 mm
05:08 AM 13.1°F-10.5°C 7.3°F-13.7°C 77% 9.0 mph NNE14.5 kmh NNE 12.0 mph19.3 kmh 30.06 in1017.9 mb 0.00 in0.0 mm 0.00 in/hr0.0 mm/hr 0.00 in0.0 mm
05:05 AM 13.1°F-10.5°C 7.3°F-13.7°C 77% 3.0 mph N4.8 kmh N 11.0 mph17.7 kmh 30.05 in1017.6 mb 0.00 in0.0 mm 0.00 in/hr0.0 mm/hr 0.00 in0.0 mm
05:04 AM 13.2°F-10.4°C 7.4°F-13.7°C 77% 8.0 mph N12.9 kmh N 11.0 mph17.7 kmh 30.06 in1017.9 mb 0.00 in0.0 mm 0.00 in/hr0.0 mm/hr 0.00 in0.0 mm
05:03 AM 13.2°F-10.4°C 7.4°F-13.7°C 77% 8.0 mph N12.9 kmh N 11.0 mph17.7 kmh 30.06 in1017.9 mb 0.00 in0.0 mm 0.00 in/hr0.0 mm/hr 0.00 in0.0 mm
05:00 AM 13.2°F-10.4°C 7.4°F-13.7°C 77% Calm Calm 2.0 mph3.2 kmh 30.06 in1017.9 mb 0.00 in0.0 mm 0.00 in/hr0.0 mm/hr 0.00 in0.0 mm
04:59 AM 13.1°F-10.5°C 7.3°F-13.7°C 77% 5.0 mph N8.0 kmh N 12.0 mph19.3 kmh 30.06 in1017.9 mb 0.00 in0.0 mm 0.00 in/hr0.0 mm/hr 0.00 in0.0 mm
04:58 AM 13.2°F-10.4°C 7.4°F-13.7°C 77% 6.0 mph N9.7 kmh N 12.0 mph19.3 kmh 30.06 in1017.9 mb 0.00 in0.0 mm 0.00 in/hr0.0 mm/hr 0.00 in0.0 mm
04:55 AM 13.2°F-10.4°C 7.4°F-13.7°C 77% 3.0 mph N4.8 kmh N 12.0 mph19.3 kmh 30.06 in1017.9 mb 0.00 in0.0 mm 0.00 in/hr0.0 mm/hr 0.00 in0.0 mm
04:54 AM 13.1°F-10.5°C 7.3°F-13.7°C 77% 5.0 mph N8.0 kmh N 12.0 mph19.3 kmh 30.06 in1017.9 mb 0.00 in0.0 mm 0.00 in/hr0.0 mm/hr 0.00 in0.0 mm
04:53 AM 13.1°F-10.5°C 7.3°F-13.7°C 77% 2.0 mph N3.2 kmh N 12.0 mph19.3 kmh 30.06 in1017.9 mb 0.00 in0.0 mm 0.00 in/hr0.0 mm/hr 0.00 in0.0 mm
04:50 AM 13.1°F-10.5°C 7.3°F-13.7°C 77% 7.0 mph N11.3 kmh N 12.0 mph19.3 kmh 30.06 in1017.9 mb 0.00 in0.0 mm 0.00 in/hr0.0 mm/hr 0.00 in0.0 mm
04:49 AM 13.0°F-10.6°C 7.2°F-13.8°C 77% 1.0 mph N1.6 kmh N 12.0 mph19.3 kmh 30.06 in1017.9 mb 0.00 in0.0 mm 0.00 in/hr0.0 mm/hr 0.00 in0.0 mm
04:48 AM 13.0°F-10.6°C 7.2°F-13.8°C 77% 4.0 mph N6.4 kmh N 12.0 mph19.3 kmh 30.06 in1017.9 mb 0.00 in0.0 mm 0.00 in/hr0.0 mm/hr 0.00 in0.0 mm
04:45 AM 13.1°F-10.5°C 7.3°F-13.7°C 77% 6.0 mph N9.7 kmh N 12.0 mph19.3 kmh 30.06 in1017.9 mb 0.00 in0.0 mm 0.00 in/hr0.0 mm/hr 0.00 in0.0 mm
04:44 AM 13.1°F-10.5°C 7.3°F-13.7°C 77% 8.0 mph NNE12.9 kmh NNE 12.0 mph19.3 kmh 30.06 in1017.9 mb 0.00 in0.0 mm 0.00 in/hr0.0 mm/hr 0.00 in0.0 mm
04:43 AM 13.1°F-10.5°C 7.3°F-13.7°C 77% 5.0 mph N8.0 kmh N 12.0 mph19.3 kmh 30.06 in1017.9 mb 0.00 in0.0 mm 0.00 in/hr0.0 mm/hr 0.00 in0.0 mm
04:40 AM 13.2°F-10.4°C 7.4°F-13.7°C 77% 5.0 mph N8.0 kmh N 12.0 mph19.3 kmh 30.05 in1017.6 mb 0.00 in0.0 mm 0.00 in/hr0.0 mm/hr 0.00 in0.0 mm
04:39 AM 13.1°F-10.5°C 7.3°F-13.7°C 77% 3.0 mph N4.8 kmh N 12.0 mph19.3 kmh 30.06 in1017.9 mb 0.00 in0.0 mm 0.00 in/hr0.0 mm/hr 0.00 in0.0 mm
04:38 AM 13.1°F-10.5°C 7.3°F-13.7°C 77% 1.0 mph N1.6 kmh N 12.0 mph19.3 kmh 30.06 in1017.9 mb 0.00 in0.0 mm 0.00 in/hr0.0 mm/hr 0.00 in0.0 mm
04:35 AM 13.0°F-10.6°C 7.2°F-13.8°C 77% 4.0 mph N6.4 kmh N 12.0 mph19.3 kmh 30.06 in1017.9 mb 0.00 in0.0 mm 0.00 in/hr0.0 mm/hr 0.00 in0.0 mm
04:34 AM 13.0°F-10.6°C 7.2°F-13.8°C 77% 6.0 mph N9.7 kmh N 12.0 mph19.3 kmh 30.06 in1017.9 mb 0.00 in0.0 mm 0.00 in/hr0.0 mm/hr 0.00 in0.0 mm
04:33 AM 13.0°F-10.6°C 7.2°F-13.8°C 77% 4.0 mph N6.4 kmh N 12.0 mph19.3 kmh 30.06 in1017.9 mb 0.00 in0.0 mm 0.00 in/hr0.0 mm/hr 0.00 in0.0 mm
04:30 AM 13.1°F-10.5°C 7.3°F-13.7°C 77% 7.0 mph N11.3 kmh N 12.0 mph19.3 kmh 30.05 in1017.6 mb 0.00 in0.0 mm 0.00 in/hr0.0 mm/hr 0.00 in0.0 mm
04:29 AM 13.2°F-10.4°C 7.4°F-13.7°C 77% 7.0 mph N11.3 kmh N 12.0 mph19.3 kmh 30.05 in1017.6 mb 0.00 in0.0 mm 0.00 in/hr0.0 mm/hr 0.00 in0.0 mm
04:28 AM 13.2°F-10.4°C 7.4°F-13.7°C 77% 7.0 mph N11.3 kmh N 12.0 mph19.3 kmh 30.05 in1017.6 mb 0.00 in0.0 mm 0.00 in/hr0.0 mm/hr 0.00 in0.0 mm
04:25 AM 13.2°F-10.4°C 7.4°F-13.7°C 77% 2.0 mph N3.2 kmh N 12.0 mph19.3 kmh 30.05 in1017.6 mb 0.00 in0.0 mm 0.00 in/hr0.0 mm/hr 0.00 in0.0 mm
04:24 AM 13.2°F-10.4°C 7.4°F-13.7°C 77% 6.0 mph N9.7 kmh N 12.0 mph19.3 kmh 30.05 in1017.6 mb 0.00 in0.0 mm 0.00 in/hr0.0 mm/hr 0.00 in0.0 mm
04:23 AM 13.1°F-10.5°C 7.3°F-13.7°C 77% 1.0 mph N1.6 kmh N 12.0 mph19.3 kmh 30.05 in1017.6 mb 0.00 in0.0 mm 0.00 in/hr0.0 mm/hr 0.00 in0.0 mm
04:20 AM 12.9°F-10.6°C 7.1°F-13.8°C 77% 2.0 mph N3.2 kmh N 12.0 mph19.3 kmh 30.05 in1017.6 mb 0.00 in0.0 mm 0.00 in/hr0.0 mm/hr 0.00 in0.0 mm
04:19 AM 12.9°F-10.6°C 7.1°F-13.8°C 77% 7.0 mph N11.3 kmh N 12.0 mph19.3 kmh 30.05 in1017.6 mb 0.00 in0.0 mm 0.00 in/hr0.0 mm/hr 0.00 in0.0 mm
04:18 AM 13.0°F-10.6°C 7.2°F-13.8°C 77% 5.0 mph N8.0 kmh N 12.0 mph19.3 kmh 30.05 in1017.6 mb 0.00 in0.0 mm 0.00 in/hr0.0 mm/hr 0.00 in0.0 mm
04:15 AM 13.1°F-10.5°C 7.3°F-13.7°C 77% 7.0 mph N11.3 kmh N 11.0 mph17.7 kmh 30.05 in1017.6 mb 0.00 in0.0 mm 0.00 in/hr0.0 mm/hr 0.00 in0.0 mm
04:14 AM 13.0°F-10.6°C 7.2°F-13.8°C 77% 6.0 mph NNE9.7 kmh NNE 11.0 mph17.7 kmh 30.05 in1017.6 mb 0.00 in0.0 mm 0.00 in/hr0.0 mm/hr 0.00 in0.0 mm
04:13 AM 13.0°F-10.6°C 7.2°F-13.8°C 77% 9.0 mph N14.5 kmh N 11.0 mph17.7 kmh 30.05 in1017.6 mb 0.00 in0.0 mm 0.00 in/hr0.0 mm/hr 0.00 in0.0 mm
04:10 AM 12.9°F-10.6°C 7.1°F-13.8°C 77% 3.0 mph NNE4.8 kmh NNE 11.0 mph17.7 kmh 30.05 in1017.6 mb 0.00 in0.0 mm 0.00 in/hr0.0 mm/hr 0.00 in0.0 mm
04:09 AM 12.9°F-10.6°C 7.1°F-13.8°C 77% 5.0 mph NNE8.0 kmh NNE 11.0 mph17.7 kmh 30.05 in1017.6 mb 0.00 in0.0 mm 0.00 in/hr0.0 mm/hr 0.00 in0.0 mm
04:08 AM 12.9°F-10.6°C 7.1°F-13.8°C 77% 9.0 mph N14.5 kmh N 11.0 mph17.7 kmh 30.05 in1017.6 mb 0.00 in0.0 mm 0.00 in/hr0.0 mm/hr 0.00 in0.0 mm
04:05 AM 12.9°F-10.6°C 7.1°F-13.8°C 77% 3.0 mph N4.8 kmh N 11.0 mph17.7 kmh 30.05 in1017.6 mb 0.00 in0.0 mm 0.00 in/hr0.0 mm/hr 0.00 in0.0 mm
04:04 AM 12.9°F-10.6°C 7.1°F-13.8°C 77% 9.0 mph N14.5 kmh N 11.0 mph17.7 kmh 30.05 in1017.6 mb 0.00 in0.0 mm 0.00 in/hr0.0 mm/hr 0.00 in0.0 mm
04:03 AM 12.9°F-10.6°C 7.1°F-13.8°C 77% 9.0 mph NNE14.5 kmh NNE 10.0 mph16.1 kmh 30.05 in1017.6 mb 0.00 in0.0 mm 0.00 in/hr0.0 mm/hr 0.00 in0.0 mm
04:00 AM 13.0°F-10.6°C 7.2°F-13.8°C 77% 8.0 mph N12.9 kmh N 8.0 mph12.9 kmh 30.05 in1017.6 mb 0.00 in0.0 mm 0.00 in/hr0.0 mm/hr 0.00 in0.0 mm
03:59 AM 13.0°F-10.6°C 7.2°F-13.8°C 77% 9.0 mph N14.5 kmh N 14.0 mph22.5 kmh 30.05 in1017.6 mb 0.00 in0.0 mm 0.00 in/hr0.0 mm/hr 0.00 in0.0 mm
03:58 AM 13.1°F-10.5°C 7.3°F-13.7°C 77% 7.0 mph N11.3 kmh N 14.0 mph22.5 kmh 30.05 in1017.6 mb 0.00 in0.0 mm 0.00 in/hr0.0 mm/hr 0.00 in0.0 mm
03:55 AM 13.0°F-10.6°C 7.2°F-13.8°C 77% 7.0 mph N11.3 kmh N 14.0 mph22.5 kmh 30.05 in1017.6 mb 0.00 in0.0 mm 0.00 in/hr0.0 mm/hr 0.00 in0.0 mm
03:54 AM 13.1°F-10.5°C 7.3°F-13.7°C 77% 3.0 mph N4.8 kmh N 14.0 mph22.5 kmh 30.05 in1017.6 mb 0.00 in0.0 mm 0.00 in/hr0.0 mm/hr 0.00 in0.0 mm
03:53 AM 13.1°F-10.5°C 7.3°F-13.7°C 77% 7.0 mph N11.3 kmh N 14.0 mph22.5 kmh 30.05 in1017.6 mb 0.00 in0.0 mm 0.00 in/hr0.0 mm/hr 0.00 in0.0 mm
03:50 AM 13.1°F-10.5°C 7.3°F-13.7°C 77% 3.0 mph N4.8 kmh N 14.0 mph22.5 kmh 30.05 in1017.6 mb 0.00 in0.0 mm 0.00 in/hr0.0 mm/hr 0.00 in0.0 mm
03:49 AM 13.0°F-10.6°C 7.2°F-13.8°C 77% 4.0 mph N6.4 kmh N 14.0 mph22.5 kmh 30.05 in1017.6 mb 0.00 in0.0 mm 0.00 in/hr0.0 mm/hr 0.00 in0.0 mm
03:48 AM 13.1°F-10.5°C 7.3°F-13.7°C 77% 8.0 mph NNE12.9 kmh NNE 14.0 mph22.5 kmh 30.05 in1017.6 mb 0.00 in0.0 mm 0.00 in/hr0.0 mm/hr 0.00 in0.0 mm
03:45 AM 13.1°F-10.5°C 7.3°F-13.7°C 77% 9.0 mph NNE14.5 kmh NNE 14.0 mph22.5 kmh 30.05 in1017.6 mb 0.00 in0.0 mm 0.00 in/hr0.0 mm/hr 0.00 in0.0 mm
03:44 AM 13.1°F-10.5°C 7.3°F-13.7°C 77% 8.0 mph NNE12.9 kmh NNE 13.0 mph20.9 kmh 30.05 in1017.6 mb 0.00 in0.0 mm 0.00 in/hr0.0 mm/hr 0.00 in0.0 mm
03:43 AM 13.1°F-10.5°C 7.3°F-13.7°C 77% 5.0 mph N8.0 kmh N 13.0 mph20.9 kmh 30.05 in1017.6 mb 0.00 in0.0 mm 0.00 in/hr0.0 mm/hr 0.00 in0.0 mm
03:40 AM 13.1°F-10.5°C 7.3°F-13.7°C 77% 1.0 mph N1.6 kmh N 13.0 mph20.9 kmh 30.05 in1017.6 mb 0.00 in0.0 mm 0.00 in/hr0.0 mm/hr 0.00 in0.0 mm
03:39 AM 13.2°F-10.4°C 7.4°F-13.7°C 77% 8.0 mph NNE12.9 kmh NNE 13.0 mph20.9 kmh 30.05 in1017.6 mb 0.00 in0.0 mm 0.00 in/hr0.0 mm/hr 0.00 in0.0 mm
03:38 AM 13.2°F-10.4°C 7.4°F-13.7°C 77% 7.0 mph N11.3 kmh N 13.0 mph20.9 kmh 30.05 in1017.6 mb 0.00 in0.0 mm 0.00 in/hr0.0 mm/hr 0.00 in0.0 mm
03:35 AM 13.3°F-10.4°C 7.5°F-13.6°C 77% 9.0 mph N14.5 kmh N 13.0 mph20.9 kmh 30.05 in1017.6 mb 0.00 in0.0 mm 0.00 in/hr0.0 mm/hr 0.00 in0.0 mm
03:34 AM 13.4°F-10.3°C 7.6°F-13.6°C 77% 5.0 mph N8.0 kmh N 13.0 mph20.9 kmh 30.05 in1017.6 mb 0.00 in0.0 mm 0.00 in/hr0.0 mm/hr 0.00 in0.0 mm
03:33 AM 13.4°F-10.3°C 7.6°F-13.6°C 77% 8.0 mph N12.9 kmh N 13.0 mph20.9 kmh 30.05 in1017.6 mb 0.00 in0.0 mm 0.00 in/hr0.0 mm/hr 0.00 in0.0 mm
03:30 AM 13.3°F-10.4°C 7.5°F-13.6°C 77% 4.0 mph NNE6.4 kmh NNE 13.0 mph20.9 kmh 30.05 in1017.6 mb 0.00 in0.0 mm 0.00 in/hr0.0 mm/hr 0.00 in0.0 mm
03:29 AM 13.2°F-10.4°C 7.4°F-13.7°C 77% 7.0 mph NNE11.3 kmh NNE 13.0 mph20.9 kmh 30.05 in1017.6 mb 0.00 in0.0 mm 0.00 in/hr0.0 mm/hr 0.00 in0.0 mm
03:28 AM 13.2°F-10.4°C 7.1°F-13.8°C 76% 9.0 mph NNE14.5 kmh NNE 13.0 mph20.9 kmh 30.05 in1017.6 mb 0.00 in0.0 mm 0.00 in/hr0.0 mm/hr 0.00 in0.0 mm
03:25 AM 13.4°F-10.3°C 7.3°F-13.7°C 76% 5.0 mph NNE8.0 kmh NNE 13.0 mph20.9 kmh 30.05 in1017.6 mb 0.00 in0.0 mm 0.00 in/hr0.0 mm/hr 0.00 in0.0 mm
03:24 AM 13.5°F-10.3°C 7.4°F-13.7°C 76% 9.0 mph N14.5 kmh N 13.0 mph20.9 kmh 30.05 in1017.6 mb 0.00 in0.0 mm 0.00 in/hr0.0 mm/hr 0.00 in0.0 mm
03:23 AM 13.5°F-10.3°C 7.4°F-13.7°C 76% 7.0 mph N11.3 kmh N 13.0 mph20.9 kmh 30.04 in1017.3 mb 0.00 in0.0 mm 0.00 in/hr0.0 mm/hr 0.00 in0.0 mm
03:20 AM 13.4°F-10.3°C 7.3°F-13.7°C 76% 6.0 mph N9.7 kmh N 13.0 mph20.9 kmh 30.05 in1017.6 mb 0.00 in0.0 mm 0.00 in/hr0.0 mm/hr 0.00 in0.0 mm
03:19 AM 13.4°F-10.3°C 7.3°F-13.7°C 76% 10.0 mph NNE16.1 kmh NNE 13.0 mph20.9 kmh 30.05 in1017.6 mb 0.00 in0.0 mm 0.00 in/hr0.0 mm/hr 0.00 in0.0 mm
03:18 AM 13.5°F-10.3°C 7.4°F-13.7°C 76% 6.0 mph N9.7 kmh N 13.0 mph20.9 kmh 30.05 in1017.6 mb 0.00 in0.0 mm 0.00 in/hr0.0 mm/hr 0.00 in0.0 mm
03:15 AM 13.5°F-10.3°C 7.4°F-13.7°C 76% 9.0 mph N14.5 kmh N 13.0 mph20.9 kmh 30.05 in1017.6 mb 0.00 in0.0 mm 0.00 in/hr0.0 mm/hr 0.00 in0.0 mm
03:14 AM 13.4°F-10.3°C 7.3°F-13.7°C 76% 2.0 mph N3.2 kmh N 13.0 mph20.9 kmh 30.05 in1017.6 mb 0.00 in0.0 mm 0.00 in/hr0.0 mm/hr 0.00 in0.0 mm
03:13 AM 13.3°F-10.4°C 7.2°F-13.8°C 76% 3.0 mph N4.8 kmh N 13.0 mph20.9 kmh 30.05 in1017.6 mb 0.00 in0.0 mm 0.00 in/hr0.0 mm/hr 0.00 in0.0 mm
03:10 AM 13.3°F-10.4°C 7.2°F-13.8°C 76% 10.0 mph N16.1 kmh N 13.0 mph20.9 kmh 30.05 in1017.6 mb 0.00 in0.0 mm 0.00 in/hr0.0 mm/hr 0.00 in0.0 mm
03:09 AM 13.2°F-10.4°C 6.8°F-14.0°C 75% 3.0 mph N4.8 kmh N 13.0 mph20.9 kmh 30.05 in1017.6 mb 0.00 in0.0 mm 0.00 in/hr0.0 mm/hr 0.00 in0.0 mm
03:08 AM 13.3°F-10.4°C 6.9°F-13.9°C 75% 10.0 mph NNE16.1 kmh NNE 13.0 mph20.9 kmh 30.05 in1017.6 mb 0.00 in0.0 mm 0.00 in/hr0.0 mm/hr 0.00 in0.0 mm
03:05 AM 13.3°F-10.4°C 6.9°F-13.9°C 75% 9.0 mph N14.5 kmh N 13.0 mph20.9 kmh 30.05 in1017.6 mb 0.00 in0.0 mm 0.00 in/hr0.0 mm/hr 0.00 in0.0 mm
03:04 AM 13.3°F-10.4°C 6.9°F-13.9°C 75% 8.0 mph N12.9 kmh N 13.0 mph20.9 kmh 30.05 in1017.6 mb 0.00 in0.0 mm 0.00 in/hr0.0 mm/hr 0.00 in0.0 mm
03:03 AM 13.4°F-10.3°C 7.0°F-13.9°C 75% 11.0 mph NNE17.7 kmh NNE 12.0 mph19.3 kmh 30.05 in1017.6 mb 0.00 in0.0 mm 0.00 in/hr0.0 mm/hr 0.00 in0.0 mm
03:00 AM 13.4°F-10.3°C 7.0°F-13.9°C 75% 6.0 mph NNE9.7 kmh NNE 7.0 mph11.3 kmh 30.05 in1017.6 mb 0.00 in0.0 mm 0.00 in/hr0.0 mm/hr 0.00 in0.0 mm
02:59 AM 13.4°F-10.3°C 7.0°F-13.9°C 75% 3.0 mph N4.8 kmh N 13.0 mph20.9 kmh 30.05 in1017.6 mb 0.00 in0.0 mm 0.00 in/hr0.0 mm/hr 0.00 in0.0 mm
02:58 AM 13.4°F-10.3°C 7.0°F-13.9°C 75% 5.0 mph N8.0 kmh N 13.0 mph20.9 kmh 30.05 in1017.6 mb 0.00 in0.0 mm 0.00 in/hr0.0 mm/hr 0.00 in0.0 mm
02:55 AM 13.5°F-10.3°C 7.1°F-13.8°C 75% 5.0 mph N8.0 kmh N 13.0 mph20.9 kmh 30.05 in1017.6 mb 0.00 in0.0 mm 0.00 in/hr0.0 mm/hr 0.00 in0.0 mm
02:54 AM 13.6°F-10.2°C 7.2°F-13.8°C 75% 6.0 mph NNE9.7 kmh NNE 13.0 mph20.9 kmh 30.05 in1017.6 mb 0.00 in0.0 mm 0.00 in/hr0.0 mm/hr 0.00 in0.0 mm
02:53 AM 13.6°F-10.2°C 6.9°F-13.9°C 74% 9.0 mph N14.5 kmh N 13.0 mph20.9 kmh 30.05 in1017.6 mb 0.00 in0.0 mm 0.00 in/hr0.0 mm/hr 0.00 in0.0 mm
02:50 AM 13.7°F-10.2°C 7.3°F-13.7°C 75% 10.0 mph NNE16.1 kmh NNE 13.0 mph20.9 kmh 30.05 in1017.6 mb 0.00 in0.0 mm 0.00 in/hr0.0 mm/hr 0.00 in0.0 mm
02:49 AM 13.7°F-10.2°C 7.0°F-13.9°C 74% 4.0 mph N6.4 kmh N 12.0 mph19.3 kmh 30.05 in1017.6 mb 0.00 in0.0 mm 0.00 in/hr0.0 mm/hr 0.00 in0.0 mm
02:48 AM 13.7°F-10.2°C 7.0°F-13.9°C 74% 3.0 mph N4.8 kmh N 12.0 mph19.3 kmh 30.05 in1017.6 mb 0.00 in0.0 mm 0.00 in/hr0.0 mm/hr 0.00 in0.0 mm
02:45 AM 13.6°F-10.2°C 6.9°F-13.9°C 74% 4.0 mph N6.4 kmh N 12.0 mph19.3 kmh 30.04 in1017.3 mb 0.00 in0.0 mm 0.00 in/hr0.0 mm/hr 0.00 in0.0 mm
02:44 AM 13.7°F-10.2°C 7.0°F-13.9°C 74% 6.0 mph N9.7 kmh N 12.0 mph19.3 kmh 30.04 in1017.3 mb 0.00 in0.0 mm 0.00 in/hr0.0 mm/hr 0.00 in0.0 mm
02:43 AM 13.7°F-10.2°C 7.0°F-13.9°C 74% 11.0 mph NE17.7 kmh NE 12.0 mph19.3 kmh 30.04 in1017.3 mb 0.00 in0.0 mm 0.00 in/hr0.0 mm/hr 0.00 in0.0 mm
02:40 AM 14.0°F-10.0°C 7.3°F-13.7°C 74% 8.0 mph N12.9 kmh N 12.0 mph19.3 kmh 30.04 in1017.3 mb 0.00 in0.0 mm 0.00 in/hr0.0 mm/hr 0.00 in0.0 mm
02:39 AM 14.0°F-10.0°C 7.3°F-13.7°C 74% 7.0 mph NNE11.3 kmh NNE 12.0 mph19.3 kmh 30.04 in1017.3 mb 0.00 in0.0 mm 0.00 in/hr0.0 mm/hr 0.00 in0.0 mm
02:38 AM 14.0°F-10.0°C 7.0°F-13.9°C 73% 8.0 mph N12.9 kmh N 12.0 mph19.3 kmh 30.04 in1017.3 mb 0.00 in0.0 mm 0.00 in/hr0.0 mm/hr 0.00 in0.0 mm
02:35 AM 14.2°F-9.9°C 7.2°F-13.8°C 73% 2.0 mph N3.2 kmh N 12.0 mph19.3 kmh 30.04 in1017.3 mb 0.00 in0.0 mm 0.00 in/hr0.0 mm/hr 0.00 in0.0 mm
02:34 AM 14.3°F-9.8°C 7.3°F-13.7°C 73% 5.0 mph N8.0 kmh N 12.0 mph19.3 kmh 30.04 in1017.3 mb 0.00 in0.0 mm 0.00 in/hr0.0 mm/hr 0.00 in0.0 mm
02:33 AM 14.3°F-9.8°C 7.3°F-13.7°C 73% 7.0 mph NNE11.3 kmh NNE 12.0 mph19.3 kmh 30.04 in1017.3 mb 0.00 in0.0 mm 0.00 in/hr0.0 mm/hr 0.00 in0.0 mm
02:30 AM 14.2°F-9.9°C 7.2°F-13.8°C 73% 7.0 mph N11.3 kmh N 12.0 mph19.3 kmh 30.04 in1017.3 mb 0.00 in0.0 mm 0.00 in/hr0.0 mm/hr 0.00 in0.0 mm
02:29 AM 14.2°F-9.9°C 7.2°F-13.8°C 73% 7.0 mph N11.3 kmh N 12.0 mph19.3 kmh 30.04 in1017.3 mb 0.00 in0.0 mm 0.00 in/hr0.0 mm/hr 0.00 in0.0 mm
02:28 AM 14.2°F-9.9°C 7.2°F-13.8°C 73% 1.0 mph N1.6 kmh N 12.0 mph19.3 kmh 30.03 in1016.9 mb 0.00 in0.0 mm 0.00 in/hr0.0 mm/hr 0.00 in0.0 mm
02:25 AM 14.3°F-9.8°C 6.9°F-13.9°C 72% 5.0 mph N8.0 kmh N 12.0 mph19.3 kmh 30.03 in1016.9 mb 0.00 in0.0 mm 0.00 in/hr0.0 mm/hr 0.00 in0.0 mm
02:24 AM 14.4°F-9.8°C 7.0°F-13.9°C 72% 8.0 mph N12.9 kmh N 12.0 mph19.3 kmh 30.03 in1016.9 mb 0.00 in0.0 mm 0.00 in/hr0.0 mm/hr 0.00 in0.0 mm
02:23 AM 14.4°F-9.8°C 7.0°F-13.9°C 72% 1.0 mph NNE1.6 kmh NNE 12.0 mph19.3 kmh 30.03 in1016.9 mb 0.00 in0.0 mm 0.00 in/hr0.0 mm/hr 0.00 in0.0 mm
02:20 AM 14.6°F-9.7°C 7.2°F-13.8°C 72% 5.0 mph N8.0 kmh N 12.0 mph19.3 kmh 30.03 in1016.9 mb 0.00 in0.0 mm 0.00 in/hr0.0 mm/hr 0.00 in0.0 mm
02:19 AM 14.6°F-9.7°C 7.2°F-13.8°C 72% 5.0 mph N8.0 kmh N 12.0 mph19.3 kmh 30.03 in1016.9 mb 0.00 in0.0 mm 0.00 in/hr0.0 mm/hr 0.00 in0.0 mm
02:18 AM 14.6°F-9.7°C 7.2°F-13.8°C 72% 5.0 mph NNE8.0 kmh NNE 12.0 mph19.3 kmh 30.03 in1016.9 mb 0.00 in0.0 mm 0.00 in/hr0.0 mm/hr 0.00 in0.0 mm
02:15 AM 14.6°F-9.7°C 7.2°F-13.8°C 72% 7.0 mph N11.3 kmh N 12.0 mph19.3 kmh 30.03 in1016.9 mb 0.00 in0.0 mm 0.00 in/hr0.0 mm/hr 0.00 in0.0 mm
02:14 AM 14.6°F-9.7°C 7.2°F-13.8°C 72% 3.0 mph N4.8 kmh N 12.0 mph19.3 kmh 30.03 in1016.9 mb 0.00 in0.0 mm 0.00 in/hr0.0 mm/hr 0.00 in0.0 mm
02:13 AM 14.7°F-9.6°C 7.3°F-13.7°C 72% 5.0 mph N8.0 kmh N 12.0 mph19.3 kmh 30.03 in1016.9 mb 0.00 in0.0 mm 0.00 in/hr0.0 mm/hr 0.00 in0.0 mm
02:10 AM 14.6°F-9.7°C 7.2°F-13.8°C 72% 1.0 mph NNE1.6 kmh NNE 12.0 mph19.3 kmh 30.03 in1016.9 mb 0.00 in0.0 mm 0.00 in/hr0.0 mm/hr 0.00 in0.0 mm
02:09 AM 14.6°F-9.7°C 7.2°F-13.8°C 72% 4.0 mph N6.4 kmh N 12.0 mph19.3 kmh 30.03 in1016.9 mb 0.00 in0.0 mm 0.00 in/hr0.0 mm/hr 0.00 in0.0 mm
02:08 AM 14.7°F-9.6°C 7.3°F-13.7°C 72% 5.0 mph N8.0 kmh N 10.0 mph16.1 kmh 30.03 in1016.9 mb 0.00 in0.0 mm 0.00 in/hr0.0 mm/hr 0.00 in0.0 mm
02:05 AM 14.9°F-9.5°C 7.5°F-13.6°C 72% 8.0 mph N12.9 kmh N 10.0 mph16.1 kmh 30.03 in1016.9 mb 0.00 in0.0 mm 0.00 in/hr0.0 mm/hr 0.00 in0.0 mm
02:04 AM 14.9°F-9.5°C 7.5°F-13.6°C 72% 7.0 mph N11.3 kmh N 9.0 mph14.5 kmh 30.03 in1016.9 mb 0.00 in0.0 mm 0.00 in/hr0.0 mm/hr 0.00 in0.0 mm
02:03 AM 14.9°F-9.5°C 7.5°F-13.6°C 72% Calm Calm 9.0 mph14.5 kmh 30.03 in1016.9 mb 0.00 in0.0 mm 0.00 in/hr0.0 mm/hr 0.00 in0.0 mm
02:00 AM 14.9°F-9.5°C 7.5°F-13.6°C 72% 6.0 mph N9.7 kmh N 8.0 mph12.9 kmh 30.03 in1016.9 mb 0.00 in0.0 mm 0.00 in/hr0.0 mm/hr 0.00 in0.0 mm
01:59 AM 14.9°F-9.5°C 7.5°F-13.6°C 72% 5.0 mph N8.0 kmh N 11.0 mph17.7 kmh 30.03 in1016.9 mb 0.00 in0.0 mm 0.00 in/hr0.0 mm/hr 0.00 in0.0 mm
01:58 AM 15.0°F-9.4°C 7.3°F-13.7°C 71% 4.0 mph N6.4 kmh N 11.0 mph17.7 kmh 30.03 in1016.9 mb 0.00 in0.0 mm 0.00 in/hr0.0 mm/hr 0.00 in0.0 mm
01:55 AM 15.1°F-9.4°C 7.4°F-13.7°C 71% 2.0 mph N3.2 kmh N 11.0 mph17.7 kmh 30.03 in1016.9 mb 0.00 in0.0 mm 0.00 in/hr0.0 mm/hr 0.00 in0.0 mm
01:54 AM 15.2°F-9.3°C 7.8°F-13.4°C 72% 9.0 mph N14.5 kmh N 11.0 mph17.7 kmh 30.03 in1016.9 mb 0.00 in0.0 mm 0.00 in/hr0.0 mm/hr 0.00 in0.0 mm
01:53 AM 15.3°F-9.3°C 7.9°F-13.4°C 72% 8.0 mph N12.9 kmh N 11.0 mph17.7 kmh 30.03 in1016.9 mb 0.00 in0.0 mm 0.00 in/hr0.0 mm/hr 0.00 in0.0 mm
01:50 AM 15.3°F-9.3°C 7.9°F-13.4°C 72% 7.0 mph NNE11.3 kmh NNE 11.0 mph17.7 kmh 30.03 in1016.9 mb 0.00 in0.0 mm 0.00 in/hr0.0 mm/hr 0.00 in0.0 mm
01:49 AM 15.2°F-9.3°C 7.8°F-13.4°C 72% 5.0 mph NNE8.0 kmh NNE 11.0 mph17.7 kmh 30.03 in1016.9 mb 0.00 in0.0 mm 0.00 in/hr0.0 mm/hr 0.00 in0.0 mm
01:48 AM 15.1°F-9.4°C 7.7°F-13.5°C 72% 4.0 mph NNE6.4 kmh NNE 11.0 mph17.7 kmh 30.03 in1016.9 mb 0.00 in0.0 mm 0.00 in/hr0.0 mm/hr 0.00 in0.0 mm
01:45 AM 15.1°F-9.4°C 7.4°F-13.7°C 71% 4.0 mph NNE6.4 kmh NNE 11.0 mph17.7 kmh 30.03 in1016.9 mb 0.00 in0.0 mm 0.00 in/hr0.0 mm/hr 0.00 in0.0 mm
01:44 AM 15.1°F-9.4°C 7.4°F-13.7°C 71% 4.0 mph NNE6.4 kmh NNE 11.0 mph17.7 kmh 30.03 in1016.9 mb 0.00 in0.0 mm 0.00 in/hr0.0 mm/hr 0.00 in0.0 mm
01:43 AM 15.1°F-9.4°C 7.4°F-13.7°C 71% 4.0 mph NNE6.4 kmh NNE 11.0 mph17.7 kmh 30.03 in1016.9 mb 0.00 in0.0 mm 0.00 in/hr0.0 mm/hr 0.00 in0.0 mm
01:40 AM 15.3°F-9.3°C 7.9°F-13.4°C 72% 5.0 mph NE8.0 kmh NE 11.0 mph17.7 kmh 30.03 in1016.9 mb 0.00 in0.0 mm 0.00 in/hr0.0 mm/hr 0.00 in0.0 mm
01:39 AM 15.3°F-9.3°C 7.9°F-13.4°C 72% 1.0 mph NE1.6 kmh NE 11.0 mph17.7 kmh 30.03 in1016.9 mb 0.00 in0.0 mm 0.00 in/hr0.0 mm/hr 0.00 in0.0 mm
01:38 AM 15.2°F-9.3°C 7.8°F-13.4°C 72% 1.0 mph NNE1.6 kmh NNE 11.0 mph17.7 kmh 30.03 in1016.9 mb 0.00 in0.0 mm 0.00 in/hr0.0 mm/hr 0.00 in0.0 mm
01:35 AM 15.2°F-9.3°C 7.8°F-13.4°C 72% 2.0 mph NNE3.2 kmh NNE 11.0 mph17.7 kmh 30.03 in1016.9 mb 0.00 in0.0 mm 0.00 in/hr0.0 mm/hr 0.00 in0.0 mm
01:34 AM 15.1°F-9.4°C 7.4°F-13.7°C 71% 3.0 mph NNE4.8 kmh NNE 11.0 mph17.7 kmh 30.03 in1016.9 mb 0.00 in0.0 mm 0.00 in/hr0.0 mm/hr 0.00 in0.0 mm
01:33 AM 15.1°F-9.4°C 7.4°F-13.7°C 71% 7.0 mph NNE11.3 kmh NNE 11.0 mph17.7 kmh 30.03 in1016.9 mb 0.00 in0.0 mm 0.00 in/hr0.0 mm/hr 0.00 in0.0 mm
01:30 AM 15.0°F-9.4°C 7.3°F-13.7°C 71% 3.0 mph NNE4.8 kmh NNE 11.0 mph17.7 kmh 30.03 in1016.9 mb 0.00 in0.0 mm 0.00 in/hr0.0 mm/hr 0.00 in0.0 mm
01:29 AM 14.9°F-9.5°C 7.2°F-13.8°C 71% 2.0 mph NNE3.2 kmh NNE 11.0 mph17.7 kmh 30.03 in1016.9 mb 0.00 in0.0 mm 0.00 in/hr0.0 mm/hr 0.00 in0.0 mm
01:28 AM 14.9°F-9.5°C 7.2°F-13.8°C 71% 3.0 mph NNE4.8 kmh NNE 11.0 mph17.7 kmh 30.03 in1016.9 mb 0.00 in0.0 mm 0.00 in/hr0.0 mm/hr 0.00 in0.0 mm
01:25 AM 14.9°F-9.5°C 7.2°F-13.8°C 71% 6.0 mph NNE9.7 kmh NNE 11.0 mph17.7 kmh 30.03 in1016.9 mb 0.00 in0.0 mm 0.00 in/hr0.0 mm/hr 0.00 in0.0 mm
01:24 AM 14.9°F-9.5°C 7.2°F-13.8°C 71% 3.0 mph NNE4.8 kmh NNE 11.0 mph17.7 kmh 30.03 in1016.9 mb 0.00 in0.0 mm 0.00 in/hr0.0 mm/hr 0.00 in0.0 mm
01:23 AM 14.9°F-9.5°C 7.2°F-13.8°C 71% 1.0 mph NNE1.6 kmh NNE 11.0 mph17.7 kmh 30.03 in1016.9 mb 0.00 in0.0 mm 0.00 in/hr0.0 mm/hr 0.00 in0.0 mm
01:20 AM 14.9°F-9.5°C 7.2°F-13.8°C 71% 4.0 mph NNE6.4 kmh NNE 11.0 mph17.7 kmh 30.03 in1016.9 mb 0.00 in0.0 mm 0.00 in/hr0.0 mm/hr 0.00 in0.0 mm
01:19 AM 14.9°F-9.5°C 7.2°F-13.8°C 71% 5.0 mph NNE8.0 kmh NNE 11.0 mph17.7 kmh 30.03 in1016.9 mb 0.00 in0.0 mm 0.00 in/hr0.0 mm/hr 0.00 in0.0 mm
01:18 AM 14.9°F-9.5°C 7.2°F-13.8°C 71% 3.0 mph NNE4.8 kmh NNE 11.0 mph17.7 kmh 30.03 in1016.9 mb 0.00 in0.0 mm 0.00 in/hr0.0 mm/hr 0.00 in0.0 mm
01:15 AM 15.0°F-9.4°C 7.3°F-13.7°C 71% 5.0 mph NNE8.0 kmh NNE 11.0 mph17.7 kmh 30.03 in1016.9 mb 0.00 in0.0 mm 0.00 in/hr0.0 mm/hr 0.00 in0.0 mm
01:14 AM 15.0°F-9.4°C 7.3°F-13.7°C 71% 1.0 mph NNE1.6 kmh NNE 11.0 mph17.7 kmh 30.03 in1016.9 mb 0.00 in0.0 mm 0.00 in/hr0.0 mm/hr 0.00 in0.0 mm
01:13 AM 14.9°F-9.5°C 7.2°F-13.8°C 71% Calm Calm 11.0 mph17.7 kmh 30.03 in1016.9 mb 0.00 in0.0 mm 0.00 in/hr0.0 mm/hr 0.00 in0.0 mm
01:10 AM 14.9°F-9.5°C 6.9°F-13.9°C 70% 9.0 mph N14.5 kmh N 11.0 mph17.7 kmh 30.03 in1016.9 mb 0.00 in0.0 mm 0.00 in/hr0.0 mm/hr 0.00 in0.0 mm
01:09 AM 14.9°F-9.5°C 6.9°F-13.9°C 70% 2.0 mph NNE3.2 kmh NNE 11.0 mph17.7 kmh 30.03 in1016.9 mb 0.00 in0.0 mm 0.00 in/hr0.0 mm/hr 0.00 in0.0 mm
01:08 AM 14.9°F-9.5°C 6.9°F-13.9°C 70% 7.0 mph NNE11.3 kmh NNE 11.0 mph17.7 kmh 30.03 in1016.9 mb 0.00 in0.0 mm 0.00 in/hr0.0 mm/hr 0.00 in0.0 mm
01:05 AM 15.1°F-9.4°C 7.1°F-13.8°C 70% 8.0 mph N12.9 kmh N 9.0 mph14.5 kmh 30.03 in1016.9 mb 0.00 in0.0 mm 0.00 in/hr0.0 mm/hr 0.00 in0.0 mm
01:04 AM 15.1°F-9.4°C 7.1°F-13.8°C 70% 8.0 mph N12.9 kmh N 9.0 mph14.5 kmh 30.03 in1016.9 mb 0.00 in0.0 mm 0.00 in/hr0.0 mm/hr 0.00 in0.0 mm
01:03 AM 15.2°F-9.3°C 7.2°F-13.8°C 70% 7.0 mph N11.3 kmh N 9.0 mph14.5 kmh 30.03 in1016.9 mb 0.00 in0.0 mm 0.00 in/hr0.0 mm/hr 0.00 in0.0 mm
01:00 AM 15.3°F-9.3°C 7.0°F-13.9°C 69% 5.0 mph N8.0 kmh N 6.0 mph9.7 kmh 30.03 in1016.9 mb 0.00 in0.0 mm 0.00 in/hr0.0 mm/hr 0.00 in0.0 mm
12:59 AM 15.2°F-9.3°C 6.9°F-13.9°C 69% 3.0 mph N4.8 kmh N 12.0 mph19.3 kmh 30.03 in1016.9 mb 0.00 in0.0 mm 0.00 in/hr0.0 mm/hr 0.00 in0.0 mm
12:58 AM 15.3°F-9.3°C 7.0°F-13.9°C 69% 9.0 mph N14.5 kmh N 12.0 mph19.3 kmh 30.03 in1016.9 mb 0.00 in0.0 mm 0.00 in/hr0.0 mm/hr 0.00 in0.0 mm
12:55 AM 15.4°F-9.2°C 6.7°F-14.1°C 68% 6.0 mph NNE9.7 kmh NNE 12.0 mph19.3 kmh 30.03 in1016.9 mb 0.00 in0.0 mm 0.00 in/hr0.0 mm/hr 0.00 in0.0 mm
12:54 AM 15.4°F-9.2°C 6.7°F-14.1°C 68% 2.0 mph NNE3.2 kmh NNE 12.0 mph19.3 kmh 30.03 in1016.9 mb 0.00 in0.0 mm 0.00 in/hr0.0 mm/hr 0.00 in0.0 mm
12:53 AM 15.4°F-9.2°C 6.7°F-14.1°C 68% 3.0 mph NNE4.8 kmh NNE 12.0 mph19.3 kmh 30.03 in1016.9 mb 0.00 in0.0 mm 0.00 in/hr0.0 mm/hr 0.00 in0.0 mm
12:50 AM 15.6°F-9.1°C 6.9°F-13.9°C 68% 7.0 mph NNE11.3 kmh NNE 12.0 mph19.3 kmh 30.03 in1016.9 mb 0.00 in0.0 mm 0.00 in/hr0.0 mm/hr 0.00 in0.0 mm
12:49 AM 15.6°F-9.1°C 6.9°F-13.9°C 68% 3.0 mph NNE4.8 kmh NNE 12.0 mph19.3 kmh 30.03 in1016.9 mb 0.00 in0.0 mm 0.00 in/hr0.0 mm/hr 0.00 in0.0 mm
12:48 AM 15.6°F-9.1°C 6.9°F-13.9°C 68% 4.0 mph NNE6.4 kmh NNE 12.0 mph19.3 kmh 30.03 in1016.9 mb 0.00 in0.0 mm 0.00 in/hr0.0 mm/hr 0.00 in0.0 mm
12:45 AM 15.6°F-9.1°C 6.6°F-14.1°C 67% 4.0 mph NNE6.4 kmh NNE 12.0 mph19.3 kmh 30.03 in1016.9 mb 0.00 in0.0 mm 0.00 in/hr0.0 mm/hr 0.00 in0.0 mm
12:44 AM 15.6°F-9.1°C 6.6°F-14.1°C 67% 8.0 mph NNE12.9 kmh NNE 12.0 mph19.3 kmh 30.03 in1016.9 mb 0.00 in0.0 mm 0.00 in/hr0.0 mm/hr 0.00 in0.0 mm
12:43 AM 15.6°F-9.1°C 6.9°F-13.9°C 68% 3.0 mph NNE4.8 kmh NNE 11.0 mph17.7 kmh 30.03 in1016.9 mb 0.00 in0.0 mm 0.00 in/hr0.0 mm/hr 0.00 in0.0 mm
12:40 AM 15.7°F-9.1°C 6.7°F-14.1°C 67% 5.0 mph N8.0 kmh N 11.0 mph17.7 kmh 30.03 in1016.9 mb 0.00 in0.0 mm 0.00 in/hr0.0 mm/hr 0.00 in0.0 mm
12:39 AM 15.7°F-9.1°C 7.0°F-13.9°C 68% 4.0 mph N6.4 kmh N 11.0 mph17.7 kmh 30.03 in1016.9 mb 0.00 in0.0 mm 0.00 in/hr0.0 mm/hr 0.00 in0.0 mm
12:38 AM 15.7°F-9.1°C 7.0°F-13.9°C 68% 5.0 mph NNE8.0 kmh NNE 11.0 mph17.7 kmh 30.03 in1016.9 mb 0.00 in0.0 mm 0.00 in/hr0.0 mm/hr 0.00 in0.0 mm
12:35 AM 15.5°F-9.2°C 6.5°F-14.2°C 67% Calm Calm 11.0 mph17.7 kmh 30.03 in1016.9 mb 0.00 in0.0 mm 0.00 in/hr0.0 mm/hr 0.00 in0.0 mm
12:34 AM 15.5°F-9.2°C 6.5°F-14.2°C 67% 4.0 mph NNE6.4 kmh NNE 11.0 mph17.7 kmh 30.03 in1016.9 mb 0.00 in0.0 mm 0.00 in/hr0.0 mm/hr 0.00 in0.0 mm
12:33 AM 15.5°F-9.2°C 6.5°F-14.2°C 67% 5.0 mph NNE8.0 kmh NNE 11.0 mph17.7 kmh 30.03 in1016.9 mb 0.00 in0.0 mm 0.00 in/hr0.0 mm/hr 0.00 in0.0 mm
12:30 AM 15.6°F-9.1°C 6.6°F-14.1°C 67% 4.0 mph N6.4 kmh N 11.0 mph17.7 kmh 30.03 in1016.9 mb 0.00 in0.0 mm 0.00 in/hr0.0 mm/hr 0.00 in0.0 mm
12:29 AM 15.6°F-9.1°C 6.6°F-14.1°C 67% 7.0 mph N11.3 kmh N 11.0 mph17.7 kmh 30.03 in1016.9 mb 0.00 in0.0 mm 0.00 in/hr0.0 mm/hr 0.00 in0.0 mm
12:28 AM 15.7°F-9.1°C 6.7°F-14.1°C 67% 9.0 mph N14.5 kmh N 11.0 mph17.7 kmh 30.03 in1016.9 mb 0.00 in0.0 mm 0.00 in/hr0.0 mm/hr 0.00 in0.0 mm
12:25 AM 15.7°F-9.1°C 6.7°F-14.1°C 67% 7.0 mph N11.3 kmh N 11.0 mph17.7 kmh 30.03 in1016.9 mb 0.00 in0.0 mm 0.00 in/hr0.0 mm/hr 0.00 in0.0 mm
12:24 AM 15.7°F-9.1°C 6.4°F-14.2°C 66% 2.0 mph N3.2 kmh N 11.0 mph17.7 kmh 30.04 in1017.3 mb 0.00 in0.0 mm 0.00 in/hr0.0 mm/hr 0.00 in0.0 mm
12:23 AM 15.7°F-9.1°C 6.4°F-14.2°C 66% 3.0 mph N4.8 kmh N 11.0 mph17.7 kmh 30.04 in1017.3 mb 0.00 in0.0 mm 0.00 in/hr0.0 mm/hr 0.00 in0.0 mm
12:20 AM 15.8°F-9.0°C 6.5°F-14.2°C 66% 7.0 mph NNE11.3 kmh NNE 11.0 mph17.7 kmh 30.04 in1017.3 mb 0.00 in0.0 mm 0.00 in/hr0.0 mm/hr 0.00 in0.0 mm
12:19 AM 15.8°F-9.0°C 6.5°F-14.2°C 66% 8.0 mph NNE12.9 kmh NNE 11.0 mph17.7 kmh 30.04 in1017.3 mb 0.00 in0.0 mm 0.00 in/hr0.0 mm/hr 0.00 in0.0 mm
12:18 AM 15.9°F-8.9°C 6.6°F-14.1°C 66% 8.0 mph NNE12.9 kmh NNE 11.0 mph17.7 kmh 30.04 in1017.3 mb 0.00 in0.0 mm 0.00 in/hr0.0 mm/hr 0.00 in0.0 mm
12:15 AM 15.9°F-8.9°C 6.6°F-14.1°C 66% 5.0 mph NNE8.0 kmh NNE 11.0 mph17.7 kmh 30.03 in1016.9 mb 0.00 in0.0 mm 0.00 in/hr0.0 mm/hr 0.00 in0.0 mm
12:14 AM 15.9°F-8.9°C 6.6°F-14.1°C 66% 3.0 mph NNE4.8 kmh NNE 11.0 mph17.7 kmh 30.04 in1017.3 mb 0.00 in0.0 mm 0.00 in/hr0.0 mm/hr 0.00 in0.0 mm
12:13 AM 15.9°F-8.9°C 6.6°F-14.1°C 66% Calm Calm 11.0 mph17.7 kmh 30.04 in1017.3 mb 0.00 in0.0 mm 0.00 in/hr0.0 mm/hr 0.00 in0.0 mm
12:10 AM 16.0°F-8.9°C 6.7°F-14.1°C 66% 6.0 mph NNE9.7 kmh NNE 9.0 mph14.5 kmh 30.04 in1017.3 mb 0.00 in0.0 mm 0.00 in/hr0.0 mm/hr 0.00 in0.0 mm
12:09 AM 16.0°F-8.9°C 7.0°F-13.9°C 67% 6.0 mph NNE9.7 kmh NNE 9.0 mph14.5 kmh 30.04 in1017.3 mb 0.00 in0.0 mm 0.00 in/hr0.0 mm/hr 0.00 in0.0 mm
12:08 AM 16.0°F-8.9°C 7.0°F-13.9°C 67% 4.0 mph NNE6.4 kmh NNE 9.0 mph14.5 kmh 30.04 in1017.3 mb 0.00 in0.0 mm 0.00 in/hr0.0 mm/hr 0.00 in0.0 mm
12:05 AM 16.0°F-8.9°C 7.0°F-13.9°C 67% 5.0 mph NNE8.0 kmh NNE 8.0 mph12.9 kmh 30.04 in1017.3 mb 0.00 in0.0 mm 0.00 in/hr0.0 mm/hr 0.00 in0.0 mm
12:04 AM 16.0°F-8.9°C 7.0°F-13.9°C 67% 4.0 mph NNE6.4 kmh NNE 8.0 mph12.9 kmh 30.04 in1017.3 mb 0.00 in0.0 mm 0.00 in/hr0.0 mm/hr 0.00 in0.0 mm
12:03 AM 16.0°F-8.9°C 7.0°F-13.9°C 67% Calm Calm 8.0 mph12.9 kmh 30.04 in1017.3 mb 0.00 in0.0 mm 0.00 in/hr0.0 mm/hr 0.00 in0.0 mm
12:00 AM 15.8°F-9.0°C 6.5°F-14.2°C 66% Calm Calm 1.0 mph1.6 kmh 30.04 in1017.3 mb 0.00 in0.0 mm 0.00 in/hr0.0 mm/hr 0.00 in0.0 mm